<?xml version="1.0" encoding="UTF-8" standalone="no" ?>
<gpx xmlns="http://www.topografix.com/GPX/1/1" xmlns:xsi="http://www.w3.org/2001/XMLSchema-instance" xsi:schemaLocation="http://www.topografix.com/GPX/1/1 http://www.topografix.com/GPX/1/1/gpx.xsd" version="1.1" creator="VisuGPX - https://www.visugpx.com">
  <metadata>
    <name>porte de l\'alpette</name>
    <desc><![CDATA[ballade chartreuse]]></desc>
  </metadata>
  <trk>
    <name><![CDATA[19-JUIN-12 04:51:53 PM]]></name>
    <trkseg>
      <trkpt lat="45.44791" lon="5.96567">
        <ele>817.26</ele>
        <time>2012-06-19T09:15:14Z</time>
      </trkpt>
      <trkpt lat="45.4479" lon="5.96559">
        <ele>820.62</ele>
        <time>2012-06-19T09:15:20Z</time>
      </trkpt>
      <trkpt lat="45.44789" lon="5.96542">
        <ele>822.06</ele>
        <time>2012-06-19T09:15:34Z</time>
      </trkpt>
      <trkpt lat="45.44788" lon="5.96538">
        <ele>824.47</ele>
        <time>2012-06-19T09:15:37Z</time>
      </trkpt>
      <trkpt lat="45.44788" lon="5.96535">
        <ele>822.55</ele>
        <time>2012-06-19T09:15:39Z</time>
      </trkpt>
      <trkpt lat="45.44782" lon="5.96518">
        <ele>825.91</ele>
        <time>2012-06-19T09:15:59Z</time>
      </trkpt>
      <trkpt lat="45.44774" lon="5.96507">
        <ele>828.31</ele>
        <time>2012-06-19T09:16:14Z</time>
      </trkpt>
      <trkpt lat="45.44768" lon="5.965">
        <ele>828.79</ele>
        <time>2012-06-19T09:16:28Z</time>
      </trkpt>
      <trkpt lat="45.44759" lon="5.9649">
        <ele>830.24</ele>
        <time>2012-06-19T09:16:41Z</time>
      </trkpt>
      <trkpt lat="45.4475" lon="5.96481">
        <ele>831.68</ele>
        <time>2012-06-19T09:16:53Z</time>
      </trkpt>
      <trkpt lat="45.44744" lon="5.96474">
        <ele>832.64</ele>
        <time>2012-06-19T09:17:07Z</time>
      </trkpt>
      <trkpt lat="45.44738" lon="5.96464">
        <ele>833.6</ele>
        <time>2012-06-19T09:17:19Z</time>
      </trkpt>
      <trkpt lat="45.44727" lon="5.96444">
        <ele>835.04</ele>
        <time>2012-06-19T09:17:34Z</time>
      </trkpt>
      <trkpt lat="45.44718" lon="5.96429">
        <ele>835.52</ele>
        <time>2012-06-19T09:17:48Z</time>
      </trkpt>
      <trkpt lat="45.44718" lon="5.96427">
        <ele>837.45</ele>
        <time>2012-06-19T09:17:52Z</time>
      </trkpt>
      <trkpt lat="45.44718" lon="5.96427">
        <ele>832.16</ele>
        <time>2012-06-19T09:17:53Z</time>
      </trkpt>
      <trkpt lat="45.44718" lon="5.96427">
        <ele>836.48</ele>
        <time>2012-06-19T09:17:54Z</time>
      </trkpt>
      <trkpt lat="45.44718" lon="5.96426">
        <ele>839.85</ele>
        <time>2012-06-19T09:18:06Z</time>
      </trkpt>
      <trkpt lat="45.44718" lon="5.96426">
        <ele>834.56</ele>
        <time>2012-06-19T09:18:07Z</time>
      </trkpt>
      <trkpt lat="45.44718" lon="5.96426">
        <ele>835.04</ele>
        <time>2012-06-19T09:18:08Z</time>
      </trkpt>
      <trkpt lat="45.44722" lon="5.96421">
        <ele>838.89</ele>
        <time>2012-06-19T09:18:17Z</time>
      </trkpt>
      <trkpt lat="45.44724" lon="5.96419">
        <ele>836</ele>
        <time>2012-06-19T09:18:21Z</time>
      </trkpt>
      <trkpt lat="45.44737" lon="5.9641">
        <ele>836</ele>
        <time>2012-06-19T09:18:37Z</time>
      </trkpt>
      <trkpt lat="45.44751" lon="5.96399">
        <ele>836</ele>
        <time>2012-06-19T09:18:55Z</time>
      </trkpt>
      <trkpt lat="45.44763" lon="5.96382">
        <ele>835.52</ele>
        <time>2012-06-19T09:19:16Z</time>
      </trkpt>
      <trkpt lat="45.44771" lon="5.9637">
        <ele>834.08</ele>
        <time>2012-06-19T09:19:30Z</time>
      </trkpt>
      <trkpt lat="45.44777" lon="5.96355">
        <ele>834.56</ele>
        <time>2012-06-19T09:19:43Z</time>
      </trkpt>
      <trkpt lat="45.4478" lon="5.96347">
        <ele>833.6</ele>
        <time>2012-06-19T09:20:00Z</time>
      </trkpt>
      <trkpt lat="45.44792" lon="5.96323">
        <ele>836</ele>
        <time>2012-06-19T09:20:19Z</time>
      </trkpt>
      <trkpt lat="45.44794" lon="5.96322">
        <ele>835.52</ele>
        <time>2012-06-19T09:20:23Z</time>
      </trkpt>
      <trkpt lat="45.44796" lon="5.96318">
        <ele>835.04</ele>
        <time>2012-06-19T09:20:36Z</time>
      </trkpt>
      <trkpt lat="45.44798" lon="5.9631">
        <ele>835.52</ele>
        <time>2012-06-19T09:20:46Z</time>
      </trkpt>
      <trkpt lat="45.44807" lon="5.96291">
        <ele>836</ele>
        <time>2012-06-19T09:21:03Z</time>
      </trkpt>
      <trkpt lat="45.44811" lon="5.96276">
        <ele>836.48</ele>
        <time>2012-06-19T09:21:18Z</time>
      </trkpt>
      <trkpt lat="45.44812" lon="5.96274">
        <ele>836.48</ele>
        <time>2012-06-19T09:21:22Z</time>
      </trkpt>
      <trkpt lat="45.44819" lon="5.96259">
        <ele>836.48</ele>
        <time>2012-06-19T09:21:35Z</time>
      </trkpt>
      <trkpt lat="45.44823" lon="5.96247">
        <ele>836.48</ele>
        <time>2012-06-19T09:21:47Z</time>
      </trkpt>
      <trkpt lat="45.44825" lon="5.96241">
        <ele>836.48</ele>
        <time>2012-06-19T09:22:01Z</time>
      </trkpt>
      <trkpt lat="45.4483" lon="5.96222">
        <ele>837.93</ele>
        <time>2012-06-19T09:22:15Z</time>
      </trkpt>
      <trkpt lat="45.44839" lon="5.96204">
        <ele>837.45</ele>
        <time>2012-06-19T09:22:32Z</time>
      </trkpt>
      <trkpt lat="45.44841" lon="5.96193">
        <ele>836.48</ele>
        <time>2012-06-19T09:22:50Z</time>
      </trkpt>
      <trkpt lat="45.44844" lon="5.96188">
        <ele>836</ele>
        <time>2012-06-19T09:23:10Z</time>
      </trkpt>
      <trkpt lat="45.44848" lon="5.96178">
        <ele>836.48</ele>
        <time>2012-06-19T09:23:24Z</time>
      </trkpt>
      <trkpt lat="45.44849" lon="5.96172">
        <ele>836.48</ele>
        <time>2012-06-19T09:23:40Z</time>
      </trkpt>
      <trkpt lat="45.44849" lon="5.96167">
        <ele>836</ele>
        <time>2012-06-19T09:23:45Z</time>
      </trkpt>
      <trkpt lat="45.44846" lon="5.96147">
        <ele>835.04</ele>
        <time>2012-06-19T09:23:59Z</time>
      </trkpt>
      <trkpt lat="45.44844" lon="5.96126">
        <ele>836.96</ele>
        <time>2012-06-19T09:24:13Z</time>
      </trkpt>
      <trkpt lat="45.44844" lon="5.96125">
        <ele>841.29</ele>
        <time>2012-06-19T09:24:14Z</time>
      </trkpt>
      <trkpt lat="45.44844" lon="5.96124">
        <ele>835.04</ele>
        <time>2012-06-19T09:24:15Z</time>
      </trkpt>
      <trkpt lat="45.44839" lon="5.96103">
        <ele>835.52</ele>
        <time>2012-06-19T09:24:29Z</time>
      </trkpt>
      <trkpt lat="45.44838" lon="5.96101">
        <ele>837.45</ele>
        <time>2012-06-19T09:24:44Z</time>
      </trkpt>
      <trkpt lat="45.44835" lon="5.96101">
        <ele>839.85</ele>
        <time>2012-06-19T09:25:03Z</time>
      </trkpt>
      <trkpt lat="45.44826" lon="5.96092">
        <ele>842.25</ele>
        <time>2012-06-19T09:25:20Z</time>
      </trkpt>
      <trkpt lat="45.44812" lon="5.96075">
        <ele>843.69</ele>
        <time>2012-06-19T09:25:36Z</time>
      </trkpt>
      <trkpt lat="45.44809" lon="5.96063">
        <ele>846.1</ele>
        <time>2012-06-19T09:25:51Z</time>
      </trkpt>
      <trkpt lat="45.44806" lon="5.96056">
        <ele>847.54</ele>
        <time>2012-06-19T09:26:05Z</time>
      </trkpt>
      <trkpt lat="45.44802" lon="5.96038">
        <ele>850.42</ele>
        <time>2012-06-19T09:26:21Z</time>
      </trkpt>
      <trkpt lat="45.44799" lon="5.96025">
        <ele>852.83</ele>
        <time>2012-06-19T09:26:39Z</time>
      </trkpt>
      <trkpt lat="45.44796" lon="5.96008">
        <ele>855.23</ele>
        <time>2012-06-19T09:26:53Z</time>
      </trkpt>
      <trkpt lat="45.44792" lon="5.95991">
        <ele>858.11</ele>
        <time>2012-06-19T09:27:11Z</time>
      </trkpt>
      <trkpt lat="45.44791" lon="5.95984">
        <ele>861</ele>
        <time>2012-06-19T09:27:29Z</time>
      </trkpt>
      <trkpt lat="45.44791" lon="5.95983">
        <ele>862.44</ele>
        <time>2012-06-19T09:27:47Z</time>
      </trkpt>
      <trkpt lat="45.44782" lon="5.95961">
        <ele>864.84</ele>
        <time>2012-06-19T09:28:03Z</time>
      </trkpt>
      <trkpt lat="45.44777" lon="5.9595">
        <ele>867.25</ele>
        <time>2012-06-19T09:28:20Z</time>
      </trkpt>
      <trkpt lat="45.44769" lon="5.95938">
        <ele>869.65</ele>
        <time>2012-06-19T09:28:41Z</time>
      </trkpt>
      <trkpt lat="45.44762" lon="5.95927">
        <ele>871.57</ele>
        <time>2012-06-19T09:29:01Z</time>
      </trkpt>
      <trkpt lat="45.44748" lon="5.95916">
        <ele>874.94</ele>
        <time>2012-06-19T09:29:19Z</time>
      </trkpt>
      <trkpt lat="45.44741" lon="5.95904">
        <ele>877.82</ele>
        <time>2012-06-19T09:29:36Z</time>
      </trkpt>
      <trkpt lat="45.44741" lon="5.95891">
        <ele>879.74</ele>
        <time>2012-06-19T09:29:52Z</time>
      </trkpt>
      <trkpt lat="45.44739" lon="5.95889">
        <ele>880.22</ele>
        <time>2012-06-19T09:30:08Z</time>
      </trkpt>
      <trkpt lat="45.44735" lon="5.95885">
        <ele>881.67</ele>
        <time>2012-06-19T09:30:24Z</time>
      </trkpt>
      <trkpt lat="45.4473" lon="5.95869">
        <ele>884.07</ele>
        <time>2012-06-19T09:30:42Z</time>
      </trkpt>
      <trkpt lat="45.44729" lon="5.95855">
        <ele>885.51</ele>
        <time>2012-06-19T09:30:56Z</time>
      </trkpt>
      <trkpt lat="45.44729" lon="5.95852">
        <ele>888.4</ele>
        <time>2012-06-19T09:31:14Z</time>
      </trkpt>
      <trkpt lat="45.44727" lon="5.95824">
        <ele>890.8</ele>
        <time>2012-06-19T09:31:28Z</time>
      </trkpt>
      <trkpt lat="45.44724" lon="5.95808">
        <ele>892.72</ele>
        <time>2012-06-19T09:31:42Z</time>
      </trkpt>
      <trkpt lat="45.44723" lon="5.95801">
        <ele>895.12</ele>
        <time>2012-06-19T09:31:55Z</time>
      </trkpt>
      <trkpt lat="45.44719" lon="5.95789">
        <ele>897.05</ele>
        <time>2012-06-19T09:32:12Z</time>
      </trkpt>
      <trkpt lat="45.44716" lon="5.95775">
        <ele>897.53</ele>
        <time>2012-06-19T09:32:26Z</time>
      </trkpt>
      <trkpt lat="45.44716" lon="5.95768">
        <ele>897.53</ele>
        <time>2012-06-19T09:32:44Z</time>
      </trkpt>
      <trkpt lat="45.44716" lon="5.95758">
        <ele>897.53</ele>
        <time>2012-06-19T09:33:00Z</time>
      </trkpt>
      <trkpt lat="45.44717" lon="5.9575">
        <ele>897.53</ele>
        <time>2012-06-19T09:33:19Z</time>
      </trkpt>
      <trkpt lat="45.44716" lon="5.95744">
        <ele>898.49</ele>
        <time>2012-06-19T09:33:35Z</time>
      </trkpt>
      <trkpt lat="45.44716" lon="5.95744">
        <ele>898.97</ele>
        <time>2012-06-19T09:33:56Z</time>
      </trkpt>
      <trkpt lat="45.44712" lon="5.95734">
        <ele>900.41</ele>
        <time>2012-06-19T09:34:19Z</time>
      </trkpt>
      <trkpt lat="45.44713" lon="5.95725">
        <ele>903.3</ele>
        <time>2012-06-19T09:34:38Z</time>
      </trkpt>
      <trkpt lat="45.44721" lon="5.95712">
        <ele>905.22</ele>
        <time>2012-06-19T09:34:57Z</time>
      </trkpt>
      <trkpt lat="45.44727" lon="5.95706">
        <ele>907.62</ele>
        <time>2012-06-19T09:35:12Z</time>
      </trkpt>
      <trkpt lat="45.44737" lon="5.95699">
        <ele>910.99</ele>
        <time>2012-06-19T09:35:29Z</time>
      </trkpt>
      <trkpt lat="45.44742" lon="5.957">
        <ele>913.39</ele>
        <time>2012-06-19T09:35:43Z</time>
      </trkpt>
      <trkpt lat="45.44746" lon="5.95697">
        <ele>915.31</ele>
        <time>2012-06-19T09:35:57Z</time>
      </trkpt>
      <trkpt lat="45.44752" lon="5.95692">
        <ele>918.2</ele>
        <time>2012-06-19T09:36:14Z</time>
      </trkpt>
      <trkpt lat="45.44758" lon="5.95689">
        <ele>921.56</ele>
        <time>2012-06-19T09:36:30Z</time>
      </trkpt>
      <trkpt lat="45.44776" lon="5.95671">
        <ele>923.96</ele>
        <time>2012-06-19T09:36:48Z</time>
      </trkpt>
      <trkpt lat="45.44779" lon="5.95672">
        <ele>926.85</ele>
        <time>2012-06-19T09:37:07Z</time>
      </trkpt>
      <trkpt lat="45.44784" lon="5.95671">
        <ele>929.25</ele>
        <time>2012-06-19T09:37:22Z</time>
      </trkpt>
      <trkpt lat="45.44788" lon="5.95666">
        <ele>932.14</ele>
        <time>2012-06-19T09:37:41Z</time>
      </trkpt>
      <trkpt lat="45.44796" lon="5.95657">
        <ele>935.02</ele>
        <time>2012-06-19T09:38:00Z</time>
      </trkpt>
      <trkpt lat="45.44796" lon="5.95657">
        <ele>935.5</ele>
        <time>2012-06-19T09:38:28Z</time>
      </trkpt>
      <trkpt lat="45.44796" lon="5.95658">
        <ele>936.46</ele>
        <time>2012-06-19T09:38:52Z</time>
      </trkpt>
      <trkpt lat="45.44796" lon="5.95658">
        <ele>935.98</ele>
        <time>2012-06-19T09:39:16Z</time>
      </trkpt>
      <trkpt lat="45.44798" lon="5.95659">
        <ele>938.86</ele>
        <time>2012-06-19T09:39:37Z</time>
      </trkpt>
      <trkpt lat="45.44803" lon="5.95653">
        <ele>942.23</ele>
        <time>2012-06-19T09:39:52Z</time>
      </trkpt>
      <trkpt lat="45.44808" lon="5.95648">
        <ele>945.59</ele>
        <time>2012-06-19T09:40:10Z</time>
      </trkpt>
      <trkpt lat="45.44821" lon="5.95638">
        <ele>948.96</ele>
        <time>2012-06-19T09:40:25Z</time>
      </trkpt>
      <trkpt lat="45.44825" lon="5.95635">
        <ele>951.84</ele>
        <time>2012-06-19T09:40:38Z</time>
      </trkpt>
      <trkpt lat="45.44828" lon="5.95631">
        <ele>955.21</ele>
        <time>2012-06-19T09:40:52Z</time>
      </trkpt>
      <trkpt lat="45.44838" lon="5.95621">
        <ele>935.02</ele>
        <time>2012-06-19T09:41:06Z</time>
      </trkpt>
      <trkpt lat="45.44838" lon="5.95621">
        <ele>960.49</ele>
        <time>2012-06-19T09:41:07Z</time>
      </trkpt>
      <trkpt lat="45.44867" lon="5.95605">
        <ele>960.98</ele>
        <time>2012-06-19T09:41:24Z</time>
      </trkpt>
      <trkpt lat="45.44872" lon="5.95602">
        <ele>963.86</ele>
        <time>2012-06-19T09:41:41Z</time>
      </trkpt>
      <trkpt lat="45.44882" lon="5.95584">
        <ele>964.34</ele>
        <time>2012-06-19T09:41:56Z</time>
      </trkpt>
      <trkpt lat="45.4489" lon="5.95582">
        <ele>965.3</ele>
        <time>2012-06-19T09:42:11Z</time>
      </trkpt>
      <trkpt lat="45.44893" lon="5.95583">
        <ele>965.78</ele>
        <time>2012-06-19T09:42:33Z</time>
      </trkpt>
      <trkpt lat="45.44899" lon="5.95574">
        <ele>965.78</ele>
        <time>2012-06-19T09:42:53Z</time>
      </trkpt>
      <trkpt lat="45.44919" lon="5.95561">
        <ele>966.26</ele>
        <time>2012-06-19T09:43:10Z</time>
      </trkpt>
      <trkpt lat="45.4493" lon="5.95558">
        <ele>966.74</ele>
        <time>2012-06-19T09:43:29Z</time>
      </trkpt>
      <trkpt lat="45.44941" lon="5.95547">
        <ele>967.22</ele>
        <time>2012-06-19T09:43:42Z</time>
      </trkpt>
      <trkpt lat="45.44958" lon="5.95527">
        <ele>967.22</ele>
        <time>2012-06-19T09:44:00Z</time>
      </trkpt>
      <trkpt lat="45.44967" lon="5.95517">
        <ele>967.7</ele>
        <time>2012-06-19T09:44:14Z</time>
      </trkpt>
      <trkpt lat="45.44974" lon="5.95506">
        <ele>968.18</ele>
        <time>2012-06-19T09:44:31Z</time>
      </trkpt>
      <trkpt lat="45.44977" lon="5.955">
        <ele>968.18</ele>
        <time>2012-06-19T09:44:42Z</time>
      </trkpt>
      <trkpt lat="45.44981" lon="5.95495">
        <ele>969.63</ele>
        <time>2012-06-19T09:44:56Z</time>
      </trkpt>
      <trkpt lat="45.44981" lon="5.95495">
        <ele>964.34</ele>
        <time>2012-06-19T09:44:58Z</time>
      </trkpt>
      <trkpt lat="45.44981" lon="5.95495">
        <ele>969.15</ele>
        <time>2012-06-19T09:44:59Z</time>
      </trkpt>
      <trkpt lat="45.44988" lon="5.95488">
        <ele>969.15</ele>
        <time>2012-06-19T09:45:16Z</time>
      </trkpt>
      <trkpt lat="45.44994" lon="5.95481">
        <ele>969.15</ele>
        <time>2012-06-19T09:45:28Z</time>
      </trkpt>
      <trkpt lat="45.44996" lon="5.95467">
        <ele>969.63</ele>
        <time>2012-06-19T09:45:43Z</time>
      </trkpt>
      <trkpt lat="45.44998" lon="5.95455">
        <ele>970.11</ele>
        <time>2012-06-19T09:45:57Z</time>
      </trkpt>
      <trkpt lat="45.45" lon="5.95437">
        <ele>970.59</ele>
        <time>2012-06-19T09:46:12Z</time>
      </trkpt>
      <trkpt lat="45.44997" lon="5.95422">
        <ele>970.11</ele>
        <time>2012-06-19T09:46:26Z</time>
      </trkpt>
      <trkpt lat="45.44999" lon="5.95415">
        <ele>970.11</ele>
        <time>2012-06-19T09:46:38Z</time>
      </trkpt>
      <trkpt lat="45.45004" lon="5.95408">
        <ele>970.59</ele>
        <time>2012-06-19T09:46:50Z</time>
      </trkpt>
      <trkpt lat="45.45009" lon="5.95396">
        <ele>970.59</ele>
        <time>2012-06-19T09:47:03Z</time>
      </trkpt>
      <trkpt lat="45.45011" lon="5.95378">
        <ele>971.07</ele>
        <time>2012-06-19T09:47:17Z</time>
      </trkpt>
      <trkpt lat="45.45008" lon="5.95359">
        <ele>972.51</ele>
        <time>2012-06-19T09:47:32Z</time>
      </trkpt>
      <trkpt lat="45.45008" lon="5.95338">
        <ele>972.51</ele>
        <time>2012-06-19T09:47:47Z</time>
      </trkpt>
      <trkpt lat="45.45005" lon="5.95321">
        <ele>972.99</ele>
        <time>2012-06-19T09:48:01Z</time>
      </trkpt>
      <trkpt lat="45.45003" lon="5.95314">
        <ele>973.47</ele>
        <time>2012-06-19T09:48:08Z</time>
      </trkpt>
      <trkpt lat="45.44999" lon="5.95298">
        <ele>973.95</ele>
        <time>2012-06-19T09:48:23Z</time>
      </trkpt>
      <trkpt lat="45.44997" lon="5.95293">
        <ele>973.95</ele>
        <time>2012-06-19T09:48:30Z</time>
      </trkpt>
      <trkpt lat="45.44999" lon="5.95278">
        <ele>974.43</ele>
        <time>2012-06-19T09:48:44Z</time>
      </trkpt>
      <trkpt lat="45.45005" lon="5.95271">
        <ele>974.43</ele>
        <time>2012-06-19T09:48:57Z</time>
      </trkpt>
      <trkpt lat="45.45007" lon="5.95267">
        <ele>974.43</ele>
        <time>2012-06-19T09:49:10Z</time>
      </trkpt>
      <trkpt lat="45.4502" lon="5.95258">
        <ele>974.91</ele>
        <time>2012-06-19T09:49:26Z</time>
      </trkpt>
      <trkpt lat="45.45044" lon="5.95247">
        <ele>974.43</ele>
        <time>2012-06-19T09:49:41Z</time>
      </trkpt>
      <trkpt lat="45.45056" lon="5.95235">
        <ele>975.39</ele>
        <time>2012-06-19T09:49:56Z</time>
      </trkpt>
      <trkpt lat="45.45058" lon="5.95233">
        <ele>974.91</ele>
        <time>2012-06-19T09:49:58Z</time>
      </trkpt>
      <trkpt lat="45.45067" lon="5.9522">
        <ele>970.59</ele>
        <time>2012-06-19T09:50:09Z</time>
      </trkpt>
      <trkpt lat="45.45068" lon="5.95219">
        <ele>975.39</ele>
        <time>2012-06-19T09:50:10Z</time>
      </trkpt>
      <trkpt lat="45.45068" lon="5.95217">
        <ele>976.36</ele>
        <time>2012-06-19T09:50:12Z</time>
      </trkpt>
      <trkpt lat="45.45069" lon="5.95214">
        <ele>979.72</ele>
        <time>2012-06-19T09:50:14Z</time>
      </trkpt>
      <trkpt lat="45.45069" lon="5.95213">
        <ele>970.59</ele>
        <time>2012-06-19T09:50:15Z</time>
      </trkpt>
      <trkpt lat="45.45069" lon="5.95212">
        <ele>975.88</ele>
        <time>2012-06-19T09:50:16Z</time>
      </trkpt>
      <trkpt lat="45.45072" lon="5.95202">
        <ele>971.07</ele>
        <time>2012-06-19T09:50:25Z</time>
      </trkpt>
      <trkpt lat="45.45072" lon="5.952">
        <ele>972.51</ele>
        <time>2012-06-19T09:50:26Z</time>
      </trkpt>
      <trkpt lat="45.45073" lon="5.95199">
        <ele>976.36</ele>
        <time>2012-06-19T09:50:27Z</time>
      </trkpt>
      <trkpt lat="45.45074" lon="5.95198">
        <ele>975.88</ele>
        <time>2012-06-19T09:50:28Z</time>
      </trkpt>
      <trkpt lat="45.45076" lon="5.95194">
        <ele>976.84</ele>
        <time>2012-06-19T09:50:33Z</time>
      </trkpt>
      <trkpt lat="45.45077" lon="5.95191">
        <ele>975.88</ele>
        <time>2012-06-19T09:50:35Z</time>
      </trkpt>
      <trkpt lat="45.45077" lon="5.95184">
        <ele>972.03</ele>
        <time>2012-06-19T09:50:41Z</time>
      </trkpt>
      <trkpt lat="45.45077" lon="5.95183">
        <ele>976.36</ele>
        <time>2012-06-19T09:50:42Z</time>
      </trkpt>
      <trkpt lat="45.45078" lon="5.95182">
        <ele>976.36</ele>
        <time>2012-06-19T09:50:49Z</time>
      </trkpt>
      <trkpt lat="45.4508" lon="5.95179">
        <ele>976.36</ele>
        <time>2012-06-19T09:50:53Z</time>
      </trkpt>
      <trkpt lat="45.45082" lon="5.95165">
        <ele>977.8</ele>
        <time>2012-06-19T09:51:05Z</time>
      </trkpt>
      <trkpt lat="45.45083" lon="5.95148">
        <ele>979.24</ele>
        <time>2012-06-19T09:51:19Z</time>
      </trkpt>
      <trkpt lat="45.45086" lon="5.95133">
        <ele>983.57</ele>
        <time>2012-06-19T09:51:33Z</time>
      </trkpt>
      <trkpt lat="45.45086" lon="5.95128">
        <ele>979.24</ele>
        <time>2012-06-19T09:51:36Z</time>
      </trkpt>
      <trkpt lat="45.45085" lon="5.95127">
        <ele>983.57</ele>
        <time>2012-06-19T09:51:37Z</time>
      </trkpt>
      <trkpt lat="45.45086" lon="5.95123">
        <ele>979.72</ele>
        <time>2012-06-19T09:51:40Z</time>
      </trkpt>
      <trkpt lat="45.45085" lon="5.95121">
        <ele>983.09</ele>
        <time>2012-06-19T09:51:43Z</time>
      </trkpt>
      <trkpt lat="45.45086" lon="5.95118">
        <ele>984.53</ele>
        <time>2012-06-19T09:51:50Z</time>
      </trkpt>
      <trkpt lat="45.45086" lon="5.95118">
        <ele>981.64</ele>
        <time>2012-06-19T09:51:52Z</time>
      </trkpt>
      <trkpt lat="45.45083" lon="5.9511">
        <ele>983.57</ele>
        <time>2012-06-19T09:52:14Z</time>
      </trkpt>
      <trkpt lat="45.45078" lon="5.95095">
        <ele>984.53</ele>
        <time>2012-06-19T09:52:28Z</time>
      </trkpt>
      <trkpt lat="45.45071" lon="5.95087">
        <ele>986.93</ele>
        <time>2012-06-19T09:52:37Z</time>
      </trkpt>
      <trkpt lat="45.45062" lon="5.95079">
        <ele>989.81</ele>
        <time>2012-06-19T09:52:50Z</time>
      </trkpt>
      <trkpt lat="45.45063" lon="5.95065">
        <ele>992.7</ele>
        <time>2012-06-19T09:53:06Z</time>
      </trkpt>
      <trkpt lat="45.45064" lon="5.95059">
        <ele>995.58</ele>
        <time>2012-06-19T09:53:20Z</time>
      </trkpt>
      <trkpt lat="45.45064" lon="5.95051">
        <ele>997.99</ele>
        <time>2012-06-19T09:53:33Z</time>
      </trkpt>
      <trkpt lat="45.45065" lon="5.95044">
        <ele>999.91</ele>
        <time>2012-06-19T09:53:49Z</time>
      </trkpt>
      <trkpt lat="45.45064" lon="5.95039">
        <ele>1002.31</ele>
        <time>2012-06-19T09:54:04Z</time>
      </trkpt>
      <trkpt lat="45.45057" lon="5.95035">
        <ele>1003.75</ele>
        <time>2012-06-19T09:54:17Z</time>
      </trkpt>
      <trkpt lat="45.45056" lon="5.95017">
        <ele>1006.64</ele>
        <time>2012-06-19T09:54:34Z</time>
      </trkpt>
      <trkpt lat="45.45053" lon="5.95003">
        <ele>1009.04</ele>
        <time>2012-06-19T09:54:53Z</time>
      </trkpt>
      <trkpt lat="45.45056" lon="5.94991">
        <ele>1011.44</ele>
        <time>2012-06-19T09:55:10Z</time>
      </trkpt>
      <trkpt lat="45.45052" lon="5.94977">
        <ele>1014.33</ele>
        <time>2012-06-19T09:55:25Z</time>
      </trkpt>
      <trkpt lat="45.45049" lon="5.94968">
        <ele>1015.29</ele>
        <time>2012-06-19T09:55:40Z</time>
      </trkpt>
      <trkpt lat="45.45043" lon="5.94959">
        <ele>1016.25</ele>
        <time>2012-06-19T09:55:56Z</time>
      </trkpt>
      <trkpt lat="45.45039" lon="5.9495">
        <ele>1017.69</ele>
        <time>2012-06-19T09:56:13Z</time>
      </trkpt>
      <trkpt lat="45.45036" lon="5.94945">
        <ele>1019.62</ele>
        <time>2012-06-19T09:56:27Z</time>
      </trkpt>
      <trkpt lat="45.45031" lon="5.94939">
        <ele>1021.54</ele>
        <time>2012-06-19T09:56:40Z</time>
      </trkpt>
      <trkpt lat="45.45024" lon="5.94934">
        <ele>1023.46</ele>
        <time>2012-06-19T09:56:57Z</time>
      </trkpt>
      <trkpt lat="45.45021" lon="5.94928">
        <ele>1026.83</ele>
        <time>2012-06-19T09:57:13Z</time>
      </trkpt>
      <trkpt lat="45.45023" lon="5.94917">
        <ele>1029.23</ele>
        <time>2012-06-19T09:57:31Z</time>
      </trkpt>
      <trkpt lat="45.45023" lon="5.94915">
        <ele>1030.67</ele>
        <time>2012-06-19T09:57:51Z</time>
      </trkpt>
      <trkpt lat="45.45024" lon="5.94914">
        <ele>1030.19</ele>
        <time>2012-06-19T09:58:08Z</time>
      </trkpt>
      <trkpt lat="45.45024" lon="5.94913">
        <ele>1030.67</ele>
        <time>2012-06-19T09:58:27Z</time>
      </trkpt>
      <trkpt lat="45.45023" lon="5.94913">
        <ele>1031.15</ele>
        <time>2012-06-19T09:58:29Z</time>
      </trkpt>
      <trkpt lat="45.45023" lon="5.94913">
        <ele>1031.63</ele>
        <time>2012-06-19T09:58:50Z</time>
      </trkpt>
      <trkpt lat="45.45023" lon="5.94913">
        <ele>1029.71</ele>
        <time>2012-06-19T09:58:58Z</time>
      </trkpt>
      <trkpt lat="45.45023" lon="5.94913">
        <ele>1031.15</ele>
        <time>2012-06-19T09:59:00Z</time>
      </trkpt>
      <trkpt lat="45.45023" lon="5.94913">
        <ele>1030.67</ele>
        <time>2012-06-19T09:59:06Z</time>
      </trkpt>
      <trkpt lat="45.45024" lon="5.94894">
        <ele>1033.07</ele>
        <time>2012-06-19T09:59:19Z</time>
      </trkpt>
      <trkpt lat="45.45026" lon="5.94883">
        <ele>1035.96</ele>
        <time>2012-06-19T09:59:34Z</time>
      </trkpt>
      <trkpt lat="45.45028" lon="5.94874">
        <ele>1037.88</ele>
        <time>2012-06-19T09:59:46Z</time>
      </trkpt>
      <trkpt lat="45.45024" lon="5.9486">
        <ele>1039.8</ele>
        <time>2012-06-19T10:00:01Z</time>
      </trkpt>
      <trkpt lat="45.4503" lon="5.94836">
        <ele>1042.21</ele>
        <time>2012-06-19T10:00:18Z</time>
      </trkpt>
      <trkpt lat="45.45028" lon="5.94821">
        <ele>1043.65</ele>
        <time>2012-06-19T10:00:31Z</time>
      </trkpt>
      <trkpt lat="45.45025" lon="5.94812">
        <ele>1045.57</ele>
        <time>2012-06-19T10:00:44Z</time>
      </trkpt>
      <trkpt lat="45.45017" lon="5.94804">
        <ele>1047.49</ele>
        <time>2012-06-19T10:00:59Z</time>
      </trkpt>
      <trkpt lat="45.45016" lon="5.94797">
        <ele>1049.42</ele>
        <time>2012-06-19T10:01:12Z</time>
      </trkpt>
      <trkpt lat="45.45013" lon="5.94786">
        <ele>1051.34</ele>
        <time>2012-06-19T10:01:26Z</time>
      </trkpt>
      <trkpt lat="45.45014" lon="5.94775">
        <ele>1053.74</ele>
        <time>2012-06-19T10:01:42Z</time>
      </trkpt>
      <trkpt lat="45.45011" lon="5.94753">
        <ele>1055.67</ele>
        <time>2012-06-19T10:01:58Z</time>
      </trkpt>
      <trkpt lat="45.45008" lon="5.94736">
        <ele>1057.59</ele>
        <time>2012-06-19T10:02:14Z</time>
      </trkpt>
      <trkpt lat="45.45005" lon="5.94725">
        <ele>1058.55</ele>
        <time>2012-06-19T10:02:26Z</time>
      </trkpt>
      <trkpt lat="45.45006" lon="5.94708">
        <ele>1060.95</ele>
        <time>2012-06-19T10:02:40Z</time>
      </trkpt>
      <trkpt lat="45.45" lon="5.94695">
        <ele>1063.36</ele>
        <time>2012-06-19T10:02:57Z</time>
      </trkpt>
      <trkpt lat="45.45001" lon="5.94682">
        <ele>1064.8</ele>
        <time>2012-06-19T10:03:10Z</time>
      </trkpt>
      <trkpt lat="45.44998" lon="5.94672">
        <ele>1067.68</ele>
        <time>2012-06-19T10:03:26Z</time>
      </trkpt>
      <trkpt lat="45.44991" lon="5.94664">
        <ele>1069.6</ele>
        <time>2012-06-19T10:03:42Z</time>
      </trkpt>
      <trkpt lat="45.44986" lon="5.94656">
        <ele>1072.01</ele>
        <time>2012-06-19T10:03:57Z</time>
      </trkpt>
      <trkpt lat="45.44992" lon="5.94649">
        <ele>1072.97</ele>
        <time>2012-06-19T10:04:10Z</time>
      </trkpt>
      <trkpt lat="45.44992" lon="5.94648">
        <ele>1072.01</ele>
        <time>2012-06-19T10:04:27Z</time>
      </trkpt>
      <trkpt lat="45.44996" lon="5.94647">
        <ele>1072.49</ele>
        <time>2012-06-19T10:04:46Z</time>
      </trkpt>
      <trkpt lat="45.44997" lon="5.94647">
        <ele>1072.97</ele>
        <time>2012-06-19T10:05:08Z</time>
      </trkpt>
      <trkpt lat="45.44997" lon="5.94647">
        <ele>1072.49</ele>
        <time>2012-06-19T10:05:32Z</time>
      </trkpt>
      <trkpt lat="45.44997" lon="5.94648">
        <ele>1073.93</ele>
        <time>2012-06-19T10:05:52Z</time>
      </trkpt>
      <trkpt lat="45.44997" lon="5.94648">
        <ele>1072.01</ele>
        <time>2012-06-19T10:05:53Z</time>
      </trkpt>
      <trkpt lat="45.44997" lon="5.94648">
        <ele>1069.12</ele>
        <time>2012-06-19T10:06:02Z</time>
      </trkpt>
      <trkpt lat="45.44997" lon="5.94648">
        <ele>1073.45</ele>
        <time>2012-06-19T10:06:06Z</time>
      </trkpt>
      <trkpt lat="45.44997" lon="5.94648">
        <ele>1068.16</ele>
        <time>2012-06-19T10:06:11Z</time>
      </trkpt>
      <trkpt lat="45.44997" lon="5.94648">
        <ele>1072.01</ele>
        <time>2012-06-19T10:06:12Z</time>
      </trkpt>
      <trkpt lat="45.44997" lon="5.94648">
        <ele>1072.01</ele>
        <time>2012-06-19T10:06:44Z</time>
      </trkpt>
      <trkpt lat="45.44997" lon="5.94648">
        <ele>1069.12</ele>
        <time>2012-06-19T10:06:59Z</time>
      </trkpt>
      <trkpt lat="45.44997" lon="5.94647">
        <ele>1074.41</ele>
        <time>2012-06-19T10:07:00Z</time>
      </trkpt>
      <trkpt lat="45.44997" lon="5.94648">
        <ele>1070.08</ele>
        <time>2012-06-19T10:07:02Z</time>
      </trkpt>
      <trkpt lat="45.44997" lon="5.94648">
        <ele>1074.89</ele>
        <time>2012-06-19T10:07:03Z</time>
      </trkpt>
      <trkpt lat="45.44997" lon="5.94648">
        <ele>1068.64</ele>
        <time>2012-06-19T10:07:05Z</time>
      </trkpt>
      <trkpt lat="45.44997" lon="5.94648">
        <ele>1072.01</ele>
        <time>2012-06-19T10:07:06Z</time>
      </trkpt>
      <trkpt lat="45.44997" lon="5.94648">
        <ele>1072.01</ele>
        <time>2012-06-19T10:07:29Z</time>
      </trkpt>
      <trkpt lat="45.44997" lon="5.94648">
        <ele>1072.49</ele>
        <time>2012-06-19T10:07:36Z</time>
      </trkpt>
      <trkpt lat="45.44997" lon="5.94647">
        <ele>1072.01</ele>
        <time>2012-06-19T10:07:42Z</time>
      </trkpt>
      <trkpt lat="45.44997" lon="5.94647">
        <ele>1076.81</ele>
        <time>2012-06-19T10:07:45Z</time>
      </trkpt>
      <trkpt lat="45.44997" lon="5.94646">
        <ele>1071.53</ele>
        <time>2012-06-19T10:07:46Z</time>
      </trkpt>
      <trkpt lat="45.44997" lon="5.94646">
        <ele>1071.05</ele>
        <time>2012-06-19T10:08:01Z</time>
      </trkpt>
      <trkpt lat="45.44997" lon="5.94646">
        <ele>1071.53</ele>
        <time>2012-06-19T10:08:32Z</time>
      </trkpt>
      <trkpt lat="45.44997" lon="5.94646">
        <ele>1070.57</ele>
        <time>2012-06-19T10:08:50Z</time>
      </trkpt>
      <trkpt lat="45.44997" lon="5.94646">
        <ele>1072.49</ele>
        <time>2012-06-19T10:08:52Z</time>
      </trkpt>
      <trkpt lat="45.44997" lon="5.94645">
        <ele>1072.97</ele>
        <time>2012-06-19T10:09:20Z</time>
      </trkpt>
      <trkpt lat="45.44997" lon="5.94646">
        <ele>1071.53</ele>
        <time>2012-06-19T10:09:52Z</time>
      </trkpt>
      <trkpt lat="45.44996" lon="5.94646">
        <ele>1071.53</ele>
        <time>2012-06-19T10:10:12Z</time>
      </trkpt>
      <trkpt lat="45.44998" lon="5.94643">
        <ele>1071.05</ele>
        <time>2012-06-19T10:10:34Z</time>
      </trkpt>
      <trkpt lat="45.45003" lon="5.94646">
        <ele>1070.57</ele>
        <time>2012-06-19T10:10:49Z</time>
      </trkpt>
      <trkpt lat="45.45003" lon="5.94646">
        <ele>1070.57</ele>
        <time>2012-06-19T10:11:15Z</time>
      </trkpt>
      <trkpt lat="45.45003" lon="5.94646">
        <ele>1070.57</ele>
        <time>2012-06-19T10:11:47Z</time>
      </trkpt>
      <trkpt lat="45.45002" lon="5.94646">
        <ele>1070.08</ele>
        <time>2012-06-19T10:12:15Z</time>
      </trkpt>
      <trkpt lat="45.45001" lon="5.94646">
        <ele>1070.57</ele>
        <time>2012-06-19T10:12:46Z</time>
      </trkpt>
      <trkpt lat="45.45002" lon="5.94645">
        <ele>1070.57</ele>
        <time>2012-06-19T10:13:17Z</time>
      </trkpt>
      <trkpt lat="45.45003" lon="5.94646">
        <ele>1071.05</ele>
        <time>2012-06-19T10:13:34Z</time>
      </trkpt>
      <trkpt lat="45.44997" lon="5.94641">
        <ele>1073.93</ele>
        <time>2012-06-19T10:13:48Z</time>
      </trkpt>
      <trkpt lat="45.44995" lon="5.94639">
        <ele>1074.89</ele>
        <time>2012-06-19T10:13:50Z</time>
      </trkpt>
      <trkpt lat="45.44996" lon="5.94634">
        <ele>1077.29</ele>
        <time>2012-06-19T10:14:05Z</time>
      </trkpt>
      <trkpt lat="45.44994" lon="5.94632">
        <ele>1079.22</ele>
        <time>2012-06-19T10:14:17Z</time>
      </trkpt>
      <trkpt lat="45.4499" lon="5.94628">
        <ele>1081.62</ele>
        <time>2012-06-19T10:14:29Z</time>
      </trkpt>
      <trkpt lat="45.44984" lon="5.94619">
        <ele>1084.02</ele>
        <time>2012-06-19T10:14:46Z</time>
      </trkpt>
      <trkpt lat="45.44983" lon="5.94618">
        <ele>1084.5</ele>
        <time>2012-06-19T10:14:49Z</time>
      </trkpt>
      <trkpt lat="45.44982" lon="5.94599">
        <ele>1086.43</ele>
        <time>2012-06-19T10:15:01Z</time>
      </trkpt>
      <trkpt lat="45.44978" lon="5.9459">
        <ele>1088.35</ele>
        <time>2012-06-19T10:15:14Z</time>
      </trkpt>
      <trkpt lat="45.4498" lon="5.94572">
        <ele>1090.27</ele>
        <time>2012-06-19T10:15:30Z</time>
      </trkpt>
      <trkpt lat="45.44992" lon="5.94548">
        <ele>1091.71</ele>
        <time>2012-06-19T10:15:46Z</time>
      </trkpt>
      <trkpt lat="45.44994" lon="5.94532">
        <ele>1092.68</ele>
        <time>2012-06-19T10:16:02Z</time>
      </trkpt>
      <trkpt lat="45.44993" lon="5.94527">
        <ele>1095.08</ele>
        <time>2012-06-19T10:16:19Z</time>
      </trkpt>
      <trkpt lat="45.44993" lon="5.94527">
        <ele>1091.23</ele>
        <time>2012-06-19T10:16:22Z</time>
      </trkpt>
      <trkpt lat="45.44993" lon="5.94527">
        <ele>1096.52</ele>
        <time>2012-06-19T10:16:28Z</time>
      </trkpt>
      <trkpt lat="45.44994" lon="5.94527">
        <ele>1093.16</ele>
        <time>2012-06-19T10:16:30Z</time>
      </trkpt>
      <trkpt lat="45.44994" lon="5.94527">
        <ele>1093.64</ele>
        <time>2012-06-19T10:16:31Z</time>
      </trkpt>
      <trkpt lat="45.44995" lon="5.94527">
        <ele>1093.16</ele>
        <time>2012-06-19T10:17:02Z</time>
      </trkpt>
      <trkpt lat="45.44994" lon="5.94515">
        <ele>1094.6</ele>
        <time>2012-06-19T10:17:15Z</time>
      </trkpt>
      <trkpt lat="45.44993" lon="5.94502">
        <ele>1095.56</ele>
        <time>2012-06-19T10:17:29Z</time>
      </trkpt>
      <trkpt lat="45.44987" lon="5.94488">
        <ele>1098.92</ele>
        <time>2012-06-19T10:17:45Z</time>
      </trkpt>
      <trkpt lat="45.44992" lon="5.94474">
        <ele>1100.37</ele>
        <time>2012-06-19T10:17:58Z</time>
      </trkpt>
      <trkpt lat="45.4499" lon="5.94464">
        <ele>1101.81</ele>
        <time>2012-06-19T10:18:09Z</time>
      </trkpt>
      <trkpt lat="45.44989" lon="5.94454">
        <ele>1103.73</ele>
        <time>2012-06-19T10:18:21Z</time>
      </trkpt>
      <trkpt lat="45.44983" lon="5.94446">
        <ele>1106.13</ele>
        <time>2012-06-19T10:18:35Z</time>
      </trkpt>
      <trkpt lat="45.44983" lon="5.94444">
        <ele>1108.54</ele>
        <time>2012-06-19T10:18:51Z</time>
      </trkpt>
      <trkpt lat="45.44979" lon="5.9444">
        <ele>1112.86</ele>
        <time>2012-06-19T10:19:03Z</time>
      </trkpt>
      <trkpt lat="45.44979" lon="5.9444">
        <ele>1109.5</ele>
        <time>2012-06-19T10:19:05Z</time>
      </trkpt>
      <trkpt lat="45.44982" lon="5.94439">
        <ele>1108.06</ele>
        <time>2012-06-19T10:19:27Z</time>
      </trkpt>
      <trkpt lat="45.44982" lon="5.94439">
        <ele>1111.42</ele>
        <time>2012-06-19T10:19:29Z</time>
      </trkpt>
      <trkpt lat="45.44982" lon="5.94439">
        <ele>1109.98</ele>
        <time>2012-06-19T10:19:30Z</time>
      </trkpt>
      <trkpt lat="45.44983" lon="5.94434">
        <ele>1108.54</ele>
        <time>2012-06-19T10:19:50Z</time>
      </trkpt>
      <trkpt lat="45.44983" lon="5.94431">
        <ele>1107.1</ele>
        <time>2012-06-19T10:20:03Z</time>
      </trkpt>
      <trkpt lat="45.44984" lon="5.94429">
        <ele>1107.1</ele>
        <time>2012-06-19T10:20:18Z</time>
      </trkpt>
      <trkpt lat="45.44985" lon="5.94425">
        <ele>1109.5</ele>
        <time>2012-06-19T10:20:35Z</time>
      </trkpt>
      <trkpt lat="45.44987" lon="5.9442">
        <ele>1110.94</ele>
        <time>2012-06-19T10:20:53Z</time>
      </trkpt>
      <trkpt lat="45.44987" lon="5.94401">
        <ele>1113.82</ele>
        <time>2012-06-19T10:21:11Z</time>
      </trkpt>
      <trkpt lat="45.44991" lon="5.9439">
        <ele>1115.27</ele>
        <time>2012-06-19T10:21:27Z</time>
      </trkpt>
      <trkpt lat="45.44991" lon="5.9439">
        <ele>1115.27</ele>
        <time>2012-06-19T10:21:44Z</time>
      </trkpt>
      <trkpt lat="45.44991" lon="5.94388">
        <ele>1117.67</ele>
        <time>2012-06-19T10:22:01Z</time>
      </trkpt>
      <trkpt lat="45.45002" lon="5.94379">
        <ele>1118.15</ele>
        <time>2012-06-19T10:22:17Z</time>
      </trkpt>
      <trkpt lat="45.45014" lon="5.94365">
        <ele>1118.15</ele>
        <time>2012-06-19T10:22:35Z</time>
      </trkpt>
      <trkpt lat="45.45024" lon="5.9435">
        <ele>1120.55</ele>
        <time>2012-06-19T10:22:52Z</time>
      </trkpt>
      <trkpt lat="45.45029" lon="5.94341">
        <ele>1122.48</ele>
        <time>2012-06-19T10:23:09Z</time>
      </trkpt>
      <trkpt lat="45.45035" lon="5.94326">
        <ele>1124.88</ele>
        <time>2012-06-19T10:23:23Z</time>
      </trkpt>
      <trkpt lat="45.45043" lon="5.94309">
        <ele>1127.28</ele>
        <time>2012-06-19T10:23:39Z</time>
      </trkpt>
      <trkpt lat="45.45046" lon="5.94305">
        <ele>1127.28</ele>
        <time>2012-06-19T10:23:54Z</time>
      </trkpt>
      <trkpt lat="45.4505" lon="5.94303">
        <ele>1127.76</ele>
        <time>2012-06-19T10:24:13Z</time>
      </trkpt>
      <trkpt lat="45.4505" lon="5.94303">
        <ele>1125.36</ele>
        <time>2012-06-19T10:24:43Z</time>
      </trkpt>
      <trkpt lat="45.45051" lon="5.94303">
        <ele>1128.73</ele>
        <time>2012-06-19T10:24:49Z</time>
      </trkpt>
      <trkpt lat="45.45051" lon="5.94303">
        <ele>1199.86</ele>
        <time>2012-06-19T10:24:56Z</time>
      </trkpt>
      <trkpt lat="45.45051" lon="5.94303">
        <ele>1199.86</ele>
        <time>2012-06-19T10:24:57Z</time>
      </trkpt>
      <trkpt lat="45.45051" lon="5.94303">
        <ele>1198.9</ele>
        <time>2012-06-19T10:25:25Z</time>
      </trkpt>
      <trkpt lat="45.45052" lon="5.94302">
        <ele>1197.46</ele>
        <time>2012-06-19T10:25:44Z</time>
      </trkpt>
      <trkpt lat="45.45058" lon="5.94305">
        <ele>1197.46</ele>
        <time>2012-06-19T10:26:03Z</time>
      </trkpt>
      <trkpt lat="45.45058" lon="5.94305">
        <ele>1196.98</ele>
        <time>2012-06-19T10:26:24Z</time>
      </trkpt>
      <trkpt lat="45.45058" lon="5.94305">
        <ele>1198.42</ele>
        <time>2012-06-19T10:26:38Z</time>
      </trkpt>
      <trkpt lat="45.45058" lon="5.94305">
        <ele>1196.5</ele>
        <time>2012-06-19T10:26:40Z</time>
      </trkpt>
      <trkpt lat="45.45066" lon="5.94289">
        <ele>1194.58</ele>
        <time>2012-06-19T10:26:54Z</time>
      </trkpt>
      <trkpt lat="45.45066" lon="5.94288">
        <ele>1198.42</ele>
        <time>2012-06-19T10:26:55Z</time>
      </trkpt>
      <trkpt lat="45.45067" lon="5.94287">
        <ele>1195.06</ele>
        <time>2012-06-19T10:26:56Z</time>
      </trkpt>
      <trkpt lat="45.45068" lon="5.94281">
        <ele>1195.06</ele>
        <time>2012-06-19T10:27:13Z</time>
      </trkpt>
      <trkpt lat="45.45066" lon="5.94263">
        <ele>1194.09</ele>
        <time>2012-06-19T10:27:30Z</time>
      </trkpt>
      <trkpt lat="45.45066" lon="5.94262">
        <ele>1194.09</ele>
        <time>2012-06-19T10:27:32Z</time>
      </trkpt>
      <trkpt lat="45.45065" lon="5.94252">
        <ele>1191.69</ele>
        <time>2012-06-19T10:27:45Z</time>
      </trkpt>
      <trkpt lat="45.45062" lon="5.94238">
        <ele>1191.69</ele>
        <time>2012-06-19T10:27:58Z</time>
      </trkpt>
      <trkpt lat="45.45058" lon="5.94219">
        <ele>1193.61</ele>
        <time>2012-06-19T10:28:14Z</time>
      </trkpt>
      <trkpt lat="45.45059" lon="5.94214">
        <ele>1194.09</ele>
        <time>2012-06-19T10:28:31Z</time>
      </trkpt>
      <trkpt lat="45.45059" lon="5.94198">
        <ele>1195.06</ele>
        <time>2012-06-19T10:28:46Z</time>
      </trkpt>
      <trkpt lat="45.4505" lon="5.94181">
        <ele>1196.5</ele>
        <time>2012-06-19T10:29:01Z</time>
      </trkpt>
      <trkpt lat="45.45054" lon="5.94163">
        <ele>1198.42</ele>
        <time>2012-06-19T10:29:16Z</time>
      </trkpt>
      <trkpt lat="45.45054" lon="5.94156">
        <ele>1200.82</ele>
        <time>2012-06-19T10:29:32Z</time>
      </trkpt>
      <trkpt lat="45.45055" lon="5.94134">
        <ele>1202.27</ele>
        <time>2012-06-19T10:29:50Z</time>
      </trkpt>
      <trkpt lat="45.45054" lon="5.94121">
        <ele>1201.79</ele>
        <time>2012-06-19T10:30:04Z</time>
      </trkpt>
      <trkpt lat="45.45051" lon="5.94102">
        <ele>1202.75</ele>
        <time>2012-06-19T10:30:19Z</time>
      </trkpt>
      <trkpt lat="45.45054" lon="5.94089">
        <ele>1204.19</ele>
        <time>2012-06-19T10:30:31Z</time>
      </trkpt>
      <trkpt lat="45.45053" lon="5.94079">
        <ele>1205.15</ele>
        <time>2012-06-19T10:30:45Z</time>
      </trkpt>
      <trkpt lat="45.45054" lon="5.9406">
        <ele>1205.63</ele>
        <time>2012-06-19T10:30:59Z</time>
      </trkpt>
      <trkpt lat="45.45056" lon="5.94049">
        <ele>1205.63</ele>
        <time>2012-06-19T10:31:15Z</time>
      </trkpt>
      <trkpt lat="45.45057" lon="5.94047">
        <ele>1206.59</ele>
        <time>2012-06-19T10:31:32Z</time>
      </trkpt>
      <trkpt lat="45.45062" lon="5.94025">
        <ele>1208.03</ele>
        <time>2012-06-19T10:31:53Z</time>
      </trkpt>
      <trkpt lat="45.45066" lon="5.9401">
        <ele>1209.48</ele>
        <time>2012-06-19T10:32:07Z</time>
      </trkpt>
      <trkpt lat="45.45071" lon="5.94001">
        <ele>1210.92</ele>
        <time>2012-06-19T10:32:21Z</time>
      </trkpt>
      <trkpt lat="45.45076" lon="5.93991">
        <ele>1212.36</ele>
        <time>2012-06-19T10:32:35Z</time>
      </trkpt>
      <trkpt lat="45.45076" lon="5.93982">
        <ele>1211.88</ele>
        <time>2012-06-19T10:32:49Z</time>
      </trkpt>
      <trkpt lat="45.45076" lon="5.93979">
        <ele>1209</ele>
        <time>2012-06-19T10:33:06Z</time>
      </trkpt>
      <trkpt lat="45.45078" lon="5.93975">
        <ele>1208.03</ele>
        <time>2012-06-19T10:33:21Z</time>
      </trkpt>
      <trkpt lat="45.45078" lon="5.93968">
        <ele>1207.07</ele>
        <time>2012-06-19T10:33:32Z</time>
      </trkpt>
      <trkpt lat="45.45079" lon="5.93962">
        <ele>1206.59</ele>
        <time>2012-06-19T10:33:44Z</time>
      </trkpt>
      <trkpt lat="45.45079" lon="5.93961">
        <ele>1206.11</ele>
        <time>2012-06-19T10:34:03Z</time>
      </trkpt>
      <trkpt lat="45.45079" lon="5.93958">
        <ele>1205.63</ele>
        <time>2012-06-19T10:34:28Z</time>
      </trkpt>
      <trkpt lat="45.45081" lon="5.93954">
        <ele>1206.11</ele>
        <time>2012-06-19T10:34:38Z</time>
      </trkpt>
      <trkpt lat="45.45083" lon="5.9395">
        <ele>1206.59</ele>
        <time>2012-06-19T10:34:51Z</time>
      </trkpt>
      <trkpt lat="45.45084" lon="5.93948">
        <ele>1206.59</ele>
        <time>2012-06-19T10:35:04Z</time>
      </trkpt>
      <trkpt lat="45.45089" lon="5.93946">
        <ele>1206.59</ele>
        <time>2012-06-19T10:35:17Z</time>
      </trkpt>
      <trkpt lat="45.45096" lon="5.93948">
        <ele>1205.63</ele>
        <time>2012-06-19T10:35:29Z</time>
      </trkpt>
      <trkpt lat="45.45099" lon="5.93946">
        <ele>1205.63</ele>
        <time>2012-06-19T10:35:40Z</time>
      </trkpt>
      <trkpt lat="45.45099" lon="5.93945">
        <ele>1205.63</ele>
        <time>2012-06-19T10:36:00Z</time>
      </trkpt>
      <trkpt lat="45.45098" lon="5.93945">
        <ele>1206.11</ele>
        <time>2012-06-19T10:36:14Z</time>
      </trkpt>
      <trkpt lat="45.45096" lon="5.93935">
        <ele>1208.03</ele>
        <time>2012-06-19T10:36:28Z</time>
      </trkpt>
      <trkpt lat="45.45101" lon="5.93932">
        <ele>1210.92</ele>
        <time>2012-06-19T10:36:46Z</time>
      </trkpt>
      <trkpt lat="45.4511" lon="5.93938">
        <ele>1212.36</ele>
        <time>2012-06-19T10:37:00Z</time>
      </trkpt>
      <trkpt lat="45.45107" lon="5.93934">
        <ele>1213.32</ele>
        <time>2012-06-19T10:37:14Z</time>
      </trkpt>
      <trkpt lat="45.45107" lon="5.93927">
        <ele>1215.24</ele>
        <time>2012-06-19T10:37:30Z</time>
      </trkpt>
      <trkpt lat="45.45109" lon="5.93925">
        <ele>1216.69</ele>
        <time>2012-06-19T10:37:47Z</time>
      </trkpt>
      <trkpt lat="45.45116" lon="5.93927">
        <ele>1216.21</ele>
        <time>2012-06-19T10:38:01Z</time>
      </trkpt>
      <trkpt lat="45.45116" lon="5.93927">
        <ele>1215.24</ele>
        <time>2012-06-19T10:38:29Z</time>
      </trkpt>
      <trkpt lat="45.45119" lon="5.93926">
        <ele>1214.76</ele>
        <time>2012-06-19T10:38:58Z</time>
      </trkpt>
      <trkpt lat="45.4513" lon="5.93935">
        <ele>1214.28</ele>
        <time>2012-06-19T10:39:23Z</time>
      </trkpt>
      <trkpt lat="45.45145" lon="5.93946">
        <ele>1215.24</ele>
        <time>2012-06-19T10:39:37Z</time>
      </trkpt>
      <trkpt lat="45.45146" lon="5.93949">
        <ele>1216.21</ele>
        <time>2012-06-19T10:39:51Z</time>
      </trkpt>
      <trkpt lat="45.45146" lon="5.93949">
        <ele>1215.72</ele>
        <time>2012-06-19T10:40:19Z</time>
      </trkpt>
      <trkpt lat="45.45144" lon="5.93951">
        <ele>1215.72</ele>
        <time>2012-06-19T10:40:40Z</time>
      </trkpt>
      <trkpt lat="45.45147" lon="5.93949">
        <ele>1217.65</ele>
        <time>2012-06-19T10:40:54Z</time>
      </trkpt>
      <trkpt lat="45.45158" lon="5.93966">
        <ele>1219.09</ele>
        <time>2012-06-19T10:41:08Z</time>
      </trkpt>
      <trkpt lat="45.45167" lon="5.93969">
        <ele>1221.01</ele>
        <time>2012-06-19T10:41:25Z</time>
      </trkpt>
      <trkpt lat="45.45168" lon="5.93968">
        <ele>1220.53</ele>
        <time>2012-06-19T10:41:45Z</time>
      </trkpt>
      <trkpt lat="45.45174" lon="5.93966">
        <ele>1222.45</ele>
        <time>2012-06-19T10:42:03Z</time>
      </trkpt>
      <trkpt lat="45.45177" lon="5.93954">
        <ele>1222.93</ele>
        <time>2012-06-19T10:42:22Z</time>
      </trkpt>
      <trkpt lat="45.45177" lon="5.93952">
        <ele>1222.93</ele>
        <time>2012-06-19T10:42:42Z</time>
      </trkpt>
      <trkpt lat="45.4518" lon="5.93949">
        <ele>1223.42</ele>
        <time>2012-06-19T10:42:58Z</time>
      </trkpt>
      <trkpt lat="45.45182" lon="5.93957">
        <ele>1223.9</ele>
        <time>2012-06-19T10:43:15Z</time>
      </trkpt>
      <trkpt lat="45.45179" lon="5.93972">
        <ele>1224.38</ele>
        <time>2012-06-19T10:43:34Z</time>
      </trkpt>
      <trkpt lat="45.45182" lon="5.93981">
        <ele>1224.38</ele>
        <time>2012-06-19T10:43:37Z</time>
      </trkpt>
      <trkpt lat="45.45196" lon="5.94005">
        <ele>1222.93</ele>
        <time>2012-06-19T10:43:50Z</time>
      </trkpt>
      <trkpt lat="45.45207" lon="5.94022">
        <ele>1223.9</ele>
        <time>2012-06-19T10:44:09Z</time>
      </trkpt>
      <trkpt lat="45.45215" lon="5.9404">
        <ele>1224.38</ele>
        <time>2012-06-19T10:44:23Z</time>
      </trkpt>
      <trkpt lat="45.4522" lon="5.94043">
        <ele>1224.38</ele>
        <time>2012-06-19T10:44:27Z</time>
      </trkpt>
      <trkpt lat="45.45233" lon="5.9405">
        <ele>1227.26</ele>
        <time>2012-06-19T10:44:45Z</time>
      </trkpt>
      <trkpt lat="45.45235" lon="5.94053">
        <ele>1226.78</ele>
        <time>2012-06-19T10:44:52Z</time>
      </trkpt>
      <trkpt lat="45.45241" lon="5.94061">
        <ele>1229.66</ele>
        <time>2012-06-19T10:45:09Z</time>
      </trkpt>
      <trkpt lat="45.45238" lon="5.94067">
        <ele>1230.14</ele>
        <time>2012-06-19T10:45:25Z</time>
      </trkpt>
      <trkpt lat="45.45238" lon="5.94067">
        <ele>1230.14</ele>
        <time>2012-06-19T10:45:49Z</time>
      </trkpt>
      <trkpt lat="45.45238" lon="5.94067">
        <ele>1229.66</ele>
        <time>2012-06-19T10:46:21Z</time>
      </trkpt>
      <trkpt lat="45.45239" lon="5.94065">
        <ele>1231.11</ele>
        <time>2012-06-19T10:46:40Z</time>
      </trkpt>
      <trkpt lat="45.45239" lon="5.94064">
        <ele>1234.47</ele>
        <time>2012-06-19T10:46:56Z</time>
      </trkpt>
      <trkpt lat="45.45237" lon="5.94064">
        <ele>1235.91</ele>
        <time>2012-06-19T10:47:09Z</time>
      </trkpt>
      <trkpt lat="45.45236" lon="5.94064">
        <ele>1238.32</ele>
        <time>2012-06-19T10:47:13Z</time>
      </trkpt>
      <trkpt lat="45.45234" lon="5.94059">
        <ele>1240.24</ele>
        <time>2012-06-19T10:47:18Z</time>
      </trkpt>
      <trkpt lat="45.45235" lon="5.94045">
        <ele>1241.2</ele>
        <time>2012-06-19T10:47:30Z</time>
      </trkpt>
      <trkpt lat="45.45234" lon="5.94045">
        <ele>1241.68</ele>
        <time>2012-06-19T10:47:47Z</time>
      </trkpt>
      <trkpt lat="45.45236" lon="5.94041">
        <ele>1244.56</ele>
        <time>2012-06-19T10:47:55Z</time>
      </trkpt>
      <trkpt lat="45.45235" lon="5.94034">
        <ele>1247.45</ele>
        <time>2012-06-19T10:48:02Z</time>
      </trkpt>
      <trkpt lat="45.45234" lon="5.94033">
        <ele>1248.41</ele>
        <time>2012-06-19T10:48:04Z</time>
      </trkpt>
      <trkpt lat="45.45229" lon="5.94029">
        <ele>1250.33</ele>
        <time>2012-06-19T10:48:10Z</time>
      </trkpt>
      <trkpt lat="45.45225" lon="5.94021">
        <ele>1252.74</ele>
        <time>2012-06-19T10:48:24Z</time>
      </trkpt>
      <trkpt lat="45.45225" lon="5.94023">
        <ele>1251.29</ele>
        <time>2012-06-19T10:48:48Z</time>
      </trkpt>
      <trkpt lat="45.45226" lon="5.94023">
        <ele>1250.81</ele>
        <time>2012-06-19T10:49:27Z</time>
      </trkpt>
      <trkpt lat="45.45226" lon="5.94022">
        <ele>1251.29</ele>
        <time>2012-06-19T10:50:04Z</time>
      </trkpt>
      <trkpt lat="45.45225" lon="5.94021">
        <ele>1250.33</ele>
        <time>2012-06-19T10:50:25Z</time>
      </trkpt>
      <trkpt lat="45.45224" lon="5.9402">
        <ele>1249.37</ele>
        <time>2012-06-19T10:50:53Z</time>
      </trkpt>
      <trkpt lat="45.45224" lon="5.9402">
        <ele>1249.37</ele>
        <time>2012-06-19T10:51:22Z</time>
      </trkpt>
      <trkpt lat="45.45224" lon="5.9402">
        <ele>1249.37</ele>
        <time>2012-06-19T10:51:47Z</time>
      </trkpt>
      <trkpt lat="45.45224" lon="5.9402">
        <ele>1248.89</ele>
        <time>2012-06-19T10:52:19Z</time>
      </trkpt>
      <trkpt lat="45.45224" lon="5.94018">
        <ele>1248.89</ele>
        <time>2012-06-19T10:52:48Z</time>
      </trkpt>
      <trkpt lat="45.45224" lon="5.94018">
        <ele>1248.41</ele>
        <time>2012-06-19T10:53:19Z</time>
      </trkpt>
      <trkpt lat="45.45224" lon="5.94018">
        <ele>1248.41</ele>
        <time>2012-06-19T10:53:52Z</time>
      </trkpt>
      <trkpt lat="45.45224" lon="5.94018">
        <ele>1247.93</ele>
        <time>2012-06-19T10:54:20Z</time>
      </trkpt>
      <trkpt lat="45.45224" lon="5.94017">
        <ele>1247.93</ele>
        <time>2012-06-19T10:54:47Z</time>
      </trkpt>
      <trkpt lat="45.45224" lon="5.94017">
        <ele>1247.93</ele>
        <time>2012-06-19T10:55:13Z</time>
      </trkpt>
      <trkpt lat="45.45224" lon="5.94015">
        <ele>1247.93</ele>
        <time>2012-06-19T10:55:47Z</time>
      </trkpt>
      <trkpt lat="45.45224" lon="5.94015">
        <ele>1247.45</ele>
        <time>2012-06-19T10:56:17Z</time>
      </trkpt>
      <trkpt lat="45.45223" lon="5.94015">
        <ele>1247.45</ele>
        <time>2012-06-19T10:56:50Z</time>
      </trkpt>
      <trkpt lat="45.45224" lon="5.94013">
        <ele>1247.45</ele>
        <time>2012-06-19T10:57:17Z</time>
      </trkpt>
      <trkpt lat="45.45224" lon="5.94013">
        <ele>1247.93</ele>
        <time>2012-06-19T10:57:37Z</time>
      </trkpt>
      <trkpt lat="45.45224" lon="5.94013">
        <ele>1247.93</ele>
        <time>2012-06-19T10:57:59Z</time>
      </trkpt>
      <trkpt lat="45.45219" lon="5.9401">
        <ele>1250.33</ele>
        <time>2012-06-19T10:58:15Z</time>
      </trkpt>
      <trkpt lat="45.45216" lon="5.94004">
        <ele>1253.7</ele>
        <time>2012-06-19T10:58:32Z</time>
      </trkpt>
      <trkpt lat="45.45213" lon="5.93988">
        <ele>1255.14</ele>
        <time>2012-06-19T10:58:45Z</time>
      </trkpt>
      <trkpt lat="45.45217" lon="5.93971">
        <ele>1257.54</ele>
        <time>2012-06-19T10:59:01Z</time>
      </trkpt>
      <trkpt lat="45.45218" lon="5.9397">
        <ele>1258.98</ele>
        <time>2012-06-19T10:59:20Z</time>
      </trkpt>
      <trkpt lat="45.4522" lon="5.93969">
        <ele>1261.39</ele>
        <time>2012-06-19T10:59:38Z</time>
      </trkpt>
      <trkpt lat="45.45231" lon="5.93979">
        <ele>1263.79</ele>
        <time>2012-06-19T10:59:57Z</time>
      </trkpt>
      <trkpt lat="45.45234" lon="5.93976">
        <ele>1265.71</ele>
        <time>2012-06-19T11:00:14Z</time>
      </trkpt>
      <trkpt lat="45.45238" lon="5.9396">
        <ele>1267.64</ele>
        <time>2012-06-19T11:00:27Z</time>
      </trkpt>
      <trkpt lat="45.4524" lon="5.93958">
        <ele>1270.52</ele>
        <time>2012-06-19T11:00:48Z</time>
      </trkpt>
      <trkpt lat="45.4524" lon="5.9396">
        <ele>1272.92</ele>
        <time>2012-06-19T11:01:04Z</time>
      </trkpt>
      <trkpt lat="45.45238" lon="5.93947">
        <ele>1274.36</ele>
        <time>2012-06-19T11:01:18Z</time>
      </trkpt>
      <trkpt lat="45.45238" lon="5.93949">
        <ele>1277.25</ele>
        <time>2012-06-19T11:01:34Z</time>
      </trkpt>
      <trkpt lat="45.45236" lon="5.93939">
        <ele>1280.13</ele>
        <time>2012-06-19T11:01:52Z</time>
      </trkpt>
      <trkpt lat="45.4525" lon="5.93928">
        <ele>1282.54</ele>
        <time>2012-06-19T11:02:09Z</time>
      </trkpt>
      <trkpt lat="45.45253" lon="5.93927">
        <ele>1284.46</ele>
        <time>2012-06-19T11:02:28Z</time>
      </trkpt>
      <trkpt lat="45.45258" lon="5.93931">
        <ele>1286.86</ele>
        <time>2012-06-19T11:02:43Z</time>
      </trkpt>
      <trkpt lat="45.45261" lon="5.93929">
        <ele>1289.27</ele>
        <time>2012-06-19T11:03:00Z</time>
      </trkpt>
      <trkpt lat="45.45262" lon="5.93928">
        <ele>1291.19</ele>
        <time>2012-06-19T11:03:17Z</time>
      </trkpt>
      <trkpt lat="45.4527" lon="5.93926">
        <ele>1293.59</ele>
        <time>2012-06-19T11:03:34Z</time>
      </trkpt>
      <trkpt lat="45.4527" lon="5.93923">
        <ele>1295.99</ele>
        <time>2012-06-19T11:03:51Z</time>
      </trkpt>
      <trkpt lat="45.45271" lon="5.93919">
        <ele>1296.96</ele>
        <time>2012-06-19T11:04:11Z</time>
      </trkpt>
      <trkpt lat="45.45271" lon="5.93919">
        <ele>1297.44</ele>
        <time>2012-06-19T11:04:37Z</time>
      </trkpt>
      <trkpt lat="45.45278" lon="5.93926">
        <ele>1299.84</ele>
        <time>2012-06-19T11:04:55Z</time>
      </trkpt>
      <trkpt lat="45.45286" lon="5.93924">
        <ele>1301.76</ele>
        <time>2012-06-19T11:05:08Z</time>
      </trkpt>
      <trkpt lat="45.45287" lon="5.93911">
        <ele>1304.65</ele>
        <time>2012-06-19T11:05:25Z</time>
      </trkpt>
      <trkpt lat="45.45286" lon="5.93905">
        <ele>1307.05</ele>
        <time>2012-06-19T11:05:42Z</time>
      </trkpt>
      <trkpt lat="45.45284" lon="5.93897">
        <ele>1308.97</ele>
        <time>2012-06-19T11:05:55Z</time>
      </trkpt>
      <trkpt lat="45.45287" lon="5.93884">
        <ele>1311.38</ele>
        <time>2012-06-19T11:06:11Z</time>
      </trkpt>
      <trkpt lat="45.45294" lon="5.93877">
        <ele>1314.74</ele>
        <time>2012-06-19T11:06:29Z</time>
      </trkpt>
      <trkpt lat="45.45297" lon="5.93876">
        <ele>1314.26</ele>
        <time>2012-06-19T11:06:52Z</time>
      </trkpt>
      <trkpt lat="45.45298" lon="5.93878">
        <ele>1314.26</ele>
        <time>2012-06-19T11:07:23Z</time>
      </trkpt>
      <trkpt lat="45.45298" lon="5.93878">
        <ele>1313.78</ele>
        <time>2012-06-19T11:07:57Z</time>
      </trkpt>
      <trkpt lat="45.45303" lon="5.93874">
        <ele>1316.18</ele>
        <time>2012-06-19T11:08:15Z</time>
      </trkpt>
      <trkpt lat="45.45313" lon="5.93872">
        <ele>1317.62</ele>
        <time>2012-06-19T11:08:29Z</time>
      </trkpt>
      <trkpt lat="45.45315" lon="5.93871">
        <ele>1319.55</ele>
        <time>2012-06-19T11:08:47Z</time>
      </trkpt>
      <trkpt lat="45.45308" lon="5.93875">
        <ele>1321.95</ele>
        <time>2012-06-19T11:09:02Z</time>
      </trkpt>
      <trkpt lat="45.45309" lon="5.9387">
        <ele>1324.35</ele>
        <time>2012-06-19T11:09:19Z</time>
      </trkpt>
      <trkpt lat="45.45311" lon="5.9387">
        <ele>1327.72</ele>
        <time>2012-06-19T11:09:36Z</time>
      </trkpt>
      <trkpt lat="45.45332" lon="5.93863">
        <ele>1330.6</ele>
        <time>2012-06-19T11:09:53Z</time>
      </trkpt>
      <trkpt lat="45.45336" lon="5.93862">
        <ele>1332.52</ele>
        <time>2012-06-19T11:10:08Z</time>
      </trkpt>
      <trkpt lat="45.45342" lon="5.93867">
        <ele>1335.41</ele>
        <time>2012-06-19T11:10:22Z</time>
      </trkpt>
      <trkpt lat="45.45344" lon="5.93866">
        <ele>1337.81</ele>
        <time>2012-06-19T11:10:38Z</time>
      </trkpt>
      <trkpt lat="45.45344" lon="5.93866">
        <ele>1340.22</ele>
        <time>2012-06-19T11:10:55Z</time>
      </trkpt>
      <trkpt lat="45.45342" lon="5.93863">
        <ele>1342.14</ele>
        <time>2012-06-19T11:11:11Z</time>
      </trkpt>
      <trkpt lat="45.45343" lon="5.93857">
        <ele>1344.54</ele>
        <time>2012-06-19T11:11:28Z</time>
      </trkpt>
      <trkpt lat="45.45348" lon="5.93851">
        <ele>1345.02</ele>
        <time>2012-06-19T11:11:48Z</time>
      </trkpt>
      <trkpt lat="45.45348" lon="5.93851">
        <ele>1345.02</ele>
        <time>2012-06-19T11:12:11Z</time>
      </trkpt>
      <trkpt lat="45.45349" lon="5.93851">
        <ele>1345.5</ele>
        <time>2012-06-19T11:12:48Z</time>
      </trkpt>
      <trkpt lat="45.4535" lon="5.93851">
        <ele>1345.98</ele>
        <time>2012-06-19T11:13:15Z</time>
      </trkpt>
      <trkpt lat="45.45349" lon="5.93851">
        <ele>1345.02</ele>
        <time>2012-06-19T11:13:41Z</time>
      </trkpt>
      <trkpt lat="45.45352" lon="5.93859">
        <ele>1341.66</ele>
        <time>2012-06-19T11:13:55Z</time>
      </trkpt>
      <trkpt lat="45.45354" lon="5.93858">
        <ele>1337.33</ele>
        <time>2012-06-19T11:14:13Z</time>
      </trkpt>
      <trkpt lat="45.45354" lon="5.93859">
        <ele>1340.7</ele>
        <time>2012-06-19T11:14:14Z</time>
      </trkpt>
      <trkpt lat="45.45354" lon="5.93859">
        <ele>1339.73</ele>
        <time>2012-06-19T11:14:38Z</time>
      </trkpt>
      <trkpt lat="45.45354" lon="5.93859">
        <ele>1339.73</ele>
        <time>2012-06-19T11:15:11Z</time>
      </trkpt>
      <trkpt lat="45.45354" lon="5.93859">
        <ele>1340.22</ele>
        <time>2012-06-19T11:15:45Z</time>
      </trkpt>
      <trkpt lat="45.45354" lon="5.93858">
        <ele>1339.73</ele>
        <time>2012-06-19T11:16:15Z</time>
      </trkpt>
      <trkpt lat="45.45354" lon="5.93858">
        <ele>1340.22</ele>
        <time>2012-06-19T11:16:46Z</time>
      </trkpt>
      <trkpt lat="45.45354" lon="5.93858">
        <ele>1339.73</ele>
        <time>2012-06-19T11:17:15Z</time>
      </trkpt>
      <trkpt lat="45.45354" lon="5.93858">
        <ele>1340.22</ele>
        <time>2012-06-19T11:17:46Z</time>
      </trkpt>
      <trkpt lat="45.45354" lon="5.93857">
        <ele>1340.22</ele>
        <time>2012-06-19T11:18:14Z</time>
      </trkpt>
      <trkpt lat="45.45351" lon="5.93857">
        <ele>1341.18</ele>
        <time>2012-06-19T11:18:33Z</time>
      </trkpt>
      <trkpt lat="45.45351" lon="5.93857">
        <ele>1341.18</ele>
        <time>2012-06-19T11:18:57Z</time>
      </trkpt>
      <trkpt lat="45.4535" lon="5.93858">
        <ele>1342.62</ele>
        <time>2012-06-19T11:19:17Z</time>
      </trkpt>
      <trkpt lat="45.45343" lon="5.93854">
        <ele>1345.02</ele>
        <time>2012-06-19T11:19:30Z</time>
      </trkpt>
      <trkpt lat="45.45347" lon="5.93838">
        <ele>1347.43</ele>
        <time>2012-06-19T11:19:48Z</time>
      </trkpt>
      <trkpt lat="45.4535" lon="5.93834">
        <ele>1349.83</ele>
        <time>2012-06-19T11:20:03Z</time>
      </trkpt>
      <trkpt lat="45.45351" lon="5.93829">
        <ele>1351.75</ele>
        <time>2012-06-19T11:20:19Z</time>
      </trkpt>
      <trkpt lat="45.45355" lon="5.93829">
        <ele>1353.67</ele>
        <time>2012-06-19T11:20:33Z</time>
      </trkpt>
      <trkpt lat="45.45359" lon="5.9383">
        <ele>1356.08</ele>
        <time>2012-06-19T11:20:51Z</time>
      </trkpt>
      <trkpt lat="45.45364" lon="5.93831">
        <ele>1358</ele>
        <time>2012-06-19T11:21:07Z</time>
      </trkpt>
      <trkpt lat="45.45366" lon="5.93831">
        <ele>1359.92</ele>
        <time>2012-06-19T11:21:24Z</time>
      </trkpt>
      <trkpt lat="45.45369" lon="5.93829">
        <ele>1361.36</ele>
        <time>2012-06-19T11:21:32Z</time>
      </trkpt>
      <trkpt lat="45.45379" lon="5.93827">
        <ele>1363.29</ele>
        <time>2012-06-19T11:21:45Z</time>
      </trkpt>
      <trkpt lat="45.45384" lon="5.93826">
        <ele>1366.17</ele>
        <time>2012-06-19T11:22:01Z</time>
      </trkpt>
      <trkpt lat="45.45387" lon="5.93827">
        <ele>1368.57</ele>
        <time>2012-06-19T11:22:18Z</time>
      </trkpt>
      <trkpt lat="45.45393" lon="5.9382">
        <ele>1370.02</ele>
        <time>2012-06-19T11:22:38Z</time>
      </trkpt>
      <trkpt lat="45.45396" lon="5.93822">
        <ele>1370.5</ele>
        <time>2012-06-19T11:23:00Z</time>
      </trkpt>
      <trkpt lat="45.45396" lon="5.93822">
        <ele>1370.5</ele>
        <time>2012-06-19T11:23:29Z</time>
      </trkpt>
      <trkpt lat="45.45397" lon="5.93822">
        <ele>1370.98</ele>
        <time>2012-06-19T11:24:01Z</time>
      </trkpt>
      <trkpt lat="45.45397" lon="5.93823">
        <ele>1372.9</ele>
        <time>2012-06-19T11:24:15Z</time>
      </trkpt>
      <trkpt lat="45.45396" lon="5.93815">
        <ele>1373.86</ele>
        <time>2012-06-19T11:24:26Z</time>
      </trkpt>
      <trkpt lat="45.45393" lon="5.93813">
        <ele>1376.26</ele>
        <time>2012-06-19T11:24:44Z</time>
      </trkpt>
      <trkpt lat="45.45391" lon="5.93802">
        <ele>1378.67</ele>
        <time>2012-06-19T11:24:57Z</time>
      </trkpt>
      <trkpt lat="45.45391" lon="5.93801">
        <ele>1379.15</ele>
        <time>2012-06-19T11:24:58Z</time>
      </trkpt>
      <trkpt lat="45.45388" lon="5.93795">
        <ele>1380.11</ele>
        <time>2012-06-19T11:25:08Z</time>
      </trkpt>
      <trkpt lat="45.45383" lon="5.93788">
        <ele>1382.51</ele>
        <time>2012-06-19T11:25:21Z</time>
      </trkpt>
      <trkpt lat="45.45376" lon="5.93782">
        <ele>1384.44</ele>
        <time>2012-06-19T11:25:35Z</time>
      </trkpt>
      <trkpt lat="45.45372" lon="5.93774">
        <ele>1386.36</ele>
        <time>2012-06-19T11:25:46Z</time>
      </trkpt>
      <trkpt lat="45.45369" lon="5.93768">
        <ele>1388.76</ele>
        <time>2012-06-19T11:26:03Z</time>
      </trkpt>
      <trkpt lat="45.45363" lon="5.9376">
        <ele>1390.2</ele>
        <time>2012-06-19T11:26:16Z</time>
      </trkpt>
      <trkpt lat="45.4536" lon="5.93751">
        <ele>1392.61</ele>
        <time>2012-06-19T11:26:31Z</time>
      </trkpt>
      <trkpt lat="45.4536" lon="5.93747">
        <ele>1394.05</ele>
        <time>2012-06-19T11:26:47Z</time>
      </trkpt>
      <trkpt lat="45.4536" lon="5.93747">
        <ele>1394.53</ele>
        <time>2012-06-19T11:27:11Z</time>
      </trkpt>
      <trkpt lat="45.4536" lon="5.93742">
        <ele>1395.49</ele>
        <time>2012-06-19T11:27:42Z</time>
      </trkpt>
      <trkpt lat="45.45357" lon="5.93731">
        <ele>1397.89</ele>
        <time>2012-06-19T11:27:57Z</time>
      </trkpt>
      <trkpt lat="45.45357" lon="5.9373">
        <ele>1399.82</ele>
        <time>2012-06-19T11:28:12Z</time>
      </trkpt>
      <trkpt lat="45.45357" lon="5.93721">
        <ele>1402.22</ele>
        <time>2012-06-19T11:28:28Z</time>
      </trkpt>
      <trkpt lat="45.45356" lon="5.93718">
        <ele>1404.62</ele>
        <time>2012-06-19T11:28:42Z</time>
      </trkpt>
      <trkpt lat="45.45356" lon="5.93709">
        <ele>1407.03</ele>
        <time>2012-06-19T11:28:57Z</time>
      </trkpt>
      <trkpt lat="45.45352" lon="5.93695">
        <ele>1408.95</ele>
        <time>2012-06-19T11:29:13Z</time>
      </trkpt>
      <trkpt lat="45.45349" lon="5.93691">
        <ele>1410.87</ele>
        <time>2012-06-19T11:29:28Z</time>
      </trkpt>
      <trkpt lat="45.45347" lon="5.93688">
        <ele>1412.79</ele>
        <time>2012-06-19T11:29:43Z</time>
      </trkpt>
      <trkpt lat="45.45345" lon="5.93683">
        <ele>1416.64</ele>
        <time>2012-06-19T11:29:51Z</time>
      </trkpt>
      <trkpt lat="45.45345" lon="5.93683">
        <ele>1413.76</ele>
        <time>2012-06-19T11:29:53Z</time>
      </trkpt>
      <trkpt lat="45.45344" lon="5.93682">
        <ele>1413.76</ele>
        <time>2012-06-19T11:30:19Z</time>
      </trkpt>
      <trkpt lat="45.45343" lon="5.93678">
        <ele>1413.76</ele>
        <time>2012-06-19T11:30:48Z</time>
      </trkpt>
      <trkpt lat="45.45346" lon="5.93674">
        <ele>1412.79</ele>
        <time>2012-06-19T11:31:06Z</time>
      </trkpt>
      <trkpt lat="45.45345" lon="5.93671">
        <ele>1411.83</ele>
        <time>2012-06-19T11:31:24Z</time>
      </trkpt>
      <trkpt lat="45.45345" lon="5.93673">
        <ele>1411.35</ele>
        <time>2012-06-19T11:31:45Z</time>
      </trkpt>
      <trkpt lat="45.45344" lon="5.93673">
        <ele>1411.35</ele>
        <time>2012-06-19T11:32:23Z</time>
      </trkpt>
      <trkpt lat="45.45345" lon="5.93673">
        <ele>1411.83</ele>
        <time>2012-06-19T11:32:54Z</time>
      </trkpt>
      <trkpt lat="45.45345" lon="5.93673">
        <ele>1411.83</ele>
        <time>2012-06-19T11:33:26Z</time>
      </trkpt>
      <trkpt lat="45.45345" lon="5.93673">
        <ele>1411.83</ele>
        <time>2012-06-19T11:33:55Z</time>
      </trkpt>
      <trkpt lat="45.45346" lon="5.93674">
        <ele>1411.83</ele>
        <time>2012-06-19T11:34:25Z</time>
      </trkpt>
      <trkpt lat="45.45347" lon="5.93674">
        <ele>1411.83</ele>
        <time>2012-06-19T11:34:55Z</time>
      </trkpt>
      <trkpt lat="45.45347" lon="5.93674">
        <ele>1411.83</ele>
        <time>2012-06-19T11:35:25Z</time>
      </trkpt>
      <trkpt lat="45.45347" lon="5.93673">
        <ele>1411.83</ele>
        <time>2012-06-19T11:35:56Z</time>
      </trkpt>
      <trkpt lat="45.45347" lon="5.93672">
        <ele>1412.31</ele>
        <time>2012-06-19T11:36:26Z</time>
      </trkpt>
      <trkpt lat="45.45347" lon="5.93672">
        <ele>1411.35</ele>
        <time>2012-06-19T11:37:02Z</time>
      </trkpt>
      <trkpt lat="45.45347" lon="5.93672">
        <ele>1410.87</ele>
        <time>2012-06-19T11:37:36Z</time>
      </trkpt>
      <trkpt lat="45.45347" lon="5.93672">
        <ele>1410.87</ele>
        <time>2012-06-19T11:38:07Z</time>
      </trkpt>
      <trkpt lat="45.45347" lon="5.93673">
        <ele>1410.39</ele>
        <time>2012-06-19T11:38:45Z</time>
      </trkpt>
      <trkpt lat="45.45347" lon="5.93672">
        <ele>1410.39</ele>
        <time>2012-06-19T11:39:24Z</time>
      </trkpt>
      <trkpt lat="45.45346" lon="5.93672">
        <ele>1409.91</ele>
        <time>2012-06-19T11:40:00Z</time>
      </trkpt>
      <trkpt lat="45.45345" lon="5.93675">
        <ele>1409.43</ele>
        <time>2012-06-19T11:40:27Z</time>
      </trkpt>
      <trkpt lat="45.45345" lon="5.93675">
        <ele>1409.91</ele>
        <time>2012-06-19T11:41:05Z</time>
      </trkpt>
      <trkpt lat="45.45345" lon="5.93675">
        <ele>1409.43</ele>
        <time>2012-06-19T11:41:34Z</time>
      </trkpt>
      <trkpt lat="45.45345" lon="5.93675">
        <ele>1409.43</ele>
        <time>2012-06-19T11:42:02Z</time>
      </trkpt>
      <trkpt lat="45.45345" lon="5.93675">
        <ele>1409.43</ele>
        <time>2012-06-19T11:42:34Z</time>
      </trkpt>
      <trkpt lat="45.45345" lon="5.93676">
        <ele>1408.95</ele>
        <time>2012-06-19T11:43:08Z</time>
      </trkpt>
      <trkpt lat="45.45345" lon="5.93677">
        <ele>1408.95</ele>
        <time>2012-06-19T11:43:46Z</time>
      </trkpt>
      <trkpt lat="45.45345" lon="5.93678">
        <ele>1408.47</ele>
        <time>2012-06-19T11:44:20Z</time>
      </trkpt>
      <trkpt lat="45.45345" lon="5.93678">
        <ele>1408.47</ele>
        <time>2012-06-19T11:44:55Z</time>
      </trkpt>
      <trkpt lat="45.45344" lon="5.93678">
        <ele>1408.47</ele>
        <time>2012-06-19T11:45:34Z</time>
      </trkpt>
      <trkpt lat="45.45344" lon="5.93677">
        <ele>1408.95</ele>
        <time>2012-06-19T11:46:11Z</time>
      </trkpt>
      <trkpt lat="45.45344" lon="5.93677">
        <ele>1408.95</ele>
        <time>2012-06-19T11:46:50Z</time>
      </trkpt>
      <trkpt lat="45.45345" lon="5.93677">
        <ele>1408.47</ele>
        <time>2012-06-19T11:47:22Z</time>
      </trkpt>
      <trkpt lat="45.45344" lon="5.93677">
        <ele>1408.47</ele>
        <time>2012-06-19T11:47:52Z</time>
      </trkpt>
      <trkpt lat="45.45345" lon="5.93677">
        <ele>1409.43</ele>
        <time>2012-06-19T11:48:23Z</time>
      </trkpt>
      <trkpt lat="45.45344" lon="5.93678">
        <ele>1408.95</ele>
        <time>2012-06-19T11:48:51Z</time>
      </trkpt>
      <trkpt lat="45.45344" lon="5.93678">
        <ele>1408.95</ele>
        <time>2012-06-19T11:49:19Z</time>
      </trkpt>
      <trkpt lat="45.45347" lon="5.93677">
        <ele>1408.95</ele>
        <time>2012-06-19T11:49:46Z</time>
      </trkpt>
      <trkpt lat="45.45348" lon="5.93678">
        <ele>1408.47</ele>
        <time>2012-06-19T11:50:10Z</time>
      </trkpt>
      <trkpt lat="45.45348" lon="5.93678">
        <ele>1408.47</ele>
        <time>2012-06-19T11:50:44Z</time>
      </trkpt>
      <trkpt lat="45.45348" lon="5.93678">
        <ele>1408.47</ele>
        <time>2012-06-19T11:51:23Z</time>
      </trkpt>
      <trkpt lat="45.45348" lon="5.93678">
        <ele>1408.47</ele>
        <time>2012-06-19T11:51:51Z</time>
      </trkpt>
      <trkpt lat="45.45345" lon="5.93674">
        <ele>1408.47</ele>
        <time>2012-06-19T11:52:17Z</time>
      </trkpt>
      <trkpt lat="45.45345" lon="5.93674">
        <ele>1408.47</ele>
        <time>2012-06-19T11:52:46Z</time>
      </trkpt>
      <trkpt lat="45.45345" lon="5.93673">
        <ele>1407.99</ele>
        <time>2012-06-19T11:53:13Z</time>
      </trkpt>
      <trkpt lat="45.45345" lon="5.93673">
        <ele>1408.47</ele>
        <time>2012-06-19T11:53:37Z</time>
      </trkpt>
      <trkpt lat="45.45345" lon="5.93673">
        <ele>1408.95</ele>
        <time>2012-06-19T11:54:03Z</time>
      </trkpt>
      <trkpt lat="45.45345" lon="5.93673">
        <ele>1408.47</ele>
        <time>2012-06-19T11:54:28Z</time>
      </trkpt>
      <trkpt lat="45.45345" lon="5.93672">
        <ele>1408.47</ele>
        <time>2012-06-19T11:55:03Z</time>
      </trkpt>
      <trkpt lat="45.45344" lon="5.93671">
        <ele>1408.47</ele>
        <time>2012-06-19T11:55:41Z</time>
      </trkpt>
      <trkpt lat="45.45344" lon="5.93671">
        <ele>1407.99</ele>
        <time>2012-06-19T11:56:12Z</time>
      </trkpt>
      <trkpt lat="45.45344" lon="5.93671">
        <ele>1407.99</ele>
        <time>2012-06-19T11:56:43Z</time>
      </trkpt>
      <trkpt lat="45.45344" lon="5.9367">
        <ele>1407.99</ele>
        <time>2012-06-19T11:57:23Z</time>
      </trkpt>
      <trkpt lat="45.45345" lon="5.93669">
        <ele>1407.51</ele>
        <time>2012-06-19T11:57:58Z</time>
      </trkpt>
      <trkpt lat="45.45346" lon="5.93669">
        <ele>1407.51</ele>
        <time>2012-06-19T11:58:33Z</time>
      </trkpt>
      <trkpt lat="45.45346" lon="5.9367">
        <ele>1407.03</ele>
        <time>2012-06-19T11:59:03Z</time>
      </trkpt>
      <trkpt lat="45.45347" lon="5.93672">
        <ele>1407.51</ele>
        <time>2012-06-19T11:59:37Z</time>
      </trkpt>
      <trkpt lat="45.45347" lon="5.93672">
        <ele>1408.47</ele>
        <time>2012-06-19T12:00:01Z</time>
      </trkpt>
      <trkpt lat="45.45348" lon="5.93672">
        <ele>1408.47</ele>
        <time>2012-06-19T12:00:29Z</time>
      </trkpt>
      <trkpt lat="45.45346" lon="5.93671">
        <ele>1408.95</ele>
        <time>2012-06-19T12:00:55Z</time>
      </trkpt>
      <trkpt lat="45.45346" lon="5.93673">
        <ele>1410.39</ele>
        <time>2012-06-19T12:01:09Z</time>
      </trkpt>
      <trkpt lat="45.45341" lon="5.93666">
        <ele>1412.79</ele>
        <time>2012-06-19T12:01:24Z</time>
      </trkpt>
      <trkpt lat="45.4534" lon="5.9366">
        <ele>1415.2</ele>
        <time>2012-06-19T12:01:38Z</time>
      </trkpt>
      <trkpt lat="45.45338" lon="5.93655">
        <ele>1418.08</ele>
        <time>2012-06-19T12:01:51Z</time>
      </trkpt>
      <trkpt lat="45.45333" lon="5.93645">
        <ele>1420</ele>
        <time>2012-06-19T12:02:04Z</time>
      </trkpt>
      <trkpt lat="45.45327" lon="5.93638">
        <ele>1422.89</ele>
        <time>2012-06-19T12:02:23Z</time>
      </trkpt>
      <trkpt lat="45.45322" lon="5.93628">
        <ele>1424.81</ele>
        <time>2012-06-19T12:02:35Z</time>
      </trkpt>
      <trkpt lat="45.45319" lon="5.93621">
        <ele>1427.21</ele>
        <time>2012-06-19T12:02:51Z</time>
      </trkpt>
      <trkpt lat="45.45318" lon="5.93618">
        <ele>1427.21</ele>
        <time>2012-06-19T12:03:12Z</time>
      </trkpt>
      <trkpt lat="45.45318" lon="5.93618">
        <ele>1427.21</ele>
        <time>2012-06-19T12:03:32Z</time>
      </trkpt>
      <trkpt lat="45.45319" lon="5.93617">
        <ele>1426.25</ele>
        <time>2012-06-19T12:03:51Z</time>
      </trkpt>
      <trkpt lat="45.45317" lon="5.93616">
        <ele>1426.73</ele>
        <time>2012-06-19T12:04:06Z</time>
      </trkpt>
      <trkpt lat="45.45317" lon="5.93616">
        <ele>1426.73</ele>
        <time>2012-06-19T12:04:25Z</time>
      </trkpt>
      <trkpt lat="45.45317" lon="5.93616">
        <ele>1426.73</ele>
        <time>2012-06-19T12:04:46Z</time>
      </trkpt>
      <trkpt lat="45.45316" lon="5.93615">
        <ele>1426.25</ele>
        <time>2012-06-19T12:05:04Z</time>
      </trkpt>
      <trkpt lat="45.45314" lon="5.93613">
        <ele>1428.18</ele>
        <time>2012-06-19T12:05:18Z</time>
      </trkpt>
      <trkpt lat="45.45308" lon="5.93607">
        <ele>1430.58</ele>
        <time>2012-06-19T12:05:32Z</time>
      </trkpt>
      <trkpt lat="45.45304" lon="5.936">
        <ele>1432.5</ele>
        <time>2012-06-19T12:05:46Z</time>
      </trkpt>
      <trkpt lat="45.45301" lon="5.93593">
        <ele>1434.42</ele>
        <time>2012-06-19T12:06:00Z</time>
      </trkpt>
      <trkpt lat="45.45301" lon="5.93586">
        <ele>1436.83</ele>
        <time>2012-06-19T12:06:12Z</time>
      </trkpt>
      <trkpt lat="45.45302" lon="5.93582">
        <ele>1438.27</ele>
        <time>2012-06-19T12:06:25Z</time>
      </trkpt>
      <trkpt lat="45.45304" lon="5.93581">
        <ele>1440.19</ele>
        <time>2012-06-19T12:06:41Z</time>
      </trkpt>
      <trkpt lat="45.45303" lon="5.93581">
        <ele>1441.15</ele>
        <time>2012-06-19T12:06:56Z</time>
      </trkpt>
      <trkpt lat="45.45303" lon="5.93582">
        <ele>1440.67</ele>
        <time>2012-06-19T12:07:23Z</time>
      </trkpt>
      <trkpt lat="45.45301" lon="5.93574">
        <ele>1442.6</ele>
        <time>2012-06-19T12:07:39Z</time>
      </trkpt>
      <trkpt lat="45.453" lon="5.93572">
        <ele>1445</ele>
        <time>2012-06-19T12:07:52Z</time>
      </trkpt>
      <trkpt lat="45.45299" lon="5.9357">
        <ele>1446.92</ele>
        <time>2012-06-19T12:08:07Z</time>
      </trkpt>
      <trkpt lat="45.45305" lon="5.93568">
        <ele>1447.4</ele>
        <time>2012-06-19T12:08:24Z</time>
      </trkpt>
      <trkpt lat="45.45309" lon="5.93566">
        <ele>1448.36</ele>
        <time>2012-06-19T12:08:45Z</time>
      </trkpt>
      <trkpt lat="45.45315" lon="5.93563">
        <ele>1449.81</ele>
        <time>2012-06-19T12:08:55Z</time>
      </trkpt>
      <trkpt lat="45.45315" lon="5.93559">
        <ele>1450.77</ele>
        <time>2012-06-19T12:09:00Z</time>
      </trkpt>
      <trkpt lat="45.45318" lon="5.93559">
        <ele>1453.17</ele>
        <time>2012-06-19T12:09:14Z</time>
      </trkpt>
      <trkpt lat="45.45318" lon="5.93559">
        <ele>1452.21</ele>
        <time>2012-06-19T12:09:39Z</time>
      </trkpt>
      <trkpt lat="45.45318" lon="5.93557">
        <ele>1453.65</ele>
        <time>2012-06-19T12:09:55Z</time>
      </trkpt>
      <trkpt lat="45.45314" lon="5.93555">
        <ele>1456.05</ele>
        <time>2012-06-19T12:10:08Z</time>
      </trkpt>
      <trkpt lat="45.45309" lon="5.93555">
        <ele>1457.02</ele>
        <time>2012-06-19T12:10:25Z</time>
      </trkpt>
      <trkpt lat="45.45301" lon="5.93551">
        <ele>1458.46</ele>
        <time>2012-06-19T12:10:41Z</time>
      </trkpt>
      <trkpt lat="45.45297" lon="5.93549">
        <ele>1458.94</ele>
        <time>2012-06-19T12:10:50Z</time>
      </trkpt>
      <trkpt lat="45.4529" lon="5.93552">
        <ele>1460.38</ele>
        <time>2012-06-19T12:11:02Z</time>
      </trkpt>
      <trkpt lat="45.4529" lon="5.93551">
        <ele>1460.38</ele>
        <time>2012-06-19T12:11:19Z</time>
      </trkpt>
      <trkpt lat="45.45285" lon="5.9355">
        <ele>1460.86</ele>
        <time>2012-06-19T12:11:29Z</time>
      </trkpt>
      <trkpt lat="45.45281" lon="5.93547">
        <ele>1461.82</ele>
        <time>2012-06-19T12:11:43Z</time>
      </trkpt>
      <trkpt lat="45.45273" lon="5.93541">
        <ele>1464.23</ele>
        <time>2012-06-19T12:11:56Z</time>
      </trkpt>
      <trkpt lat="45.45269" lon="5.9354">
        <ele>1463.74</ele>
        <time>2012-06-19T12:12:17Z</time>
      </trkpt>
      <trkpt lat="45.4526" lon="5.9353">
        <ele>1465.19</ele>
        <time>2012-06-19T12:12:31Z</time>
      </trkpt>
      <trkpt lat="45.45258" lon="5.93528">
        <ele>1465.67</ele>
        <time>2012-06-19T12:12:46Z</time>
      </trkpt>
      <trkpt lat="45.45251" lon="5.93524">
        <ele>1465.67</ele>
        <time>2012-06-19T12:13:02Z</time>
      </trkpt>
      <trkpt lat="45.45247" lon="5.93523">
        <ele>1466.63</ele>
        <time>2012-06-19T12:13:17Z</time>
      </trkpt>
      <trkpt lat="45.45245" lon="5.93519">
        <ele>1468.55</ele>
        <time>2012-06-19T12:13:27Z</time>
      </trkpt>
      <trkpt lat="45.45238" lon="5.9352">
        <ele>1469.51</ele>
        <time>2012-06-19T12:13:39Z</time>
      </trkpt>
      <trkpt lat="45.45228" lon="5.93515">
        <ele>1469.03</ele>
        <time>2012-06-19T12:13:52Z</time>
      </trkpt>
      <trkpt lat="45.45228" lon="5.93514">
        <ele>1468.55</ele>
        <time>2012-06-19T12:14:17Z</time>
      </trkpt>
      <trkpt lat="45.45223" lon="5.93514">
        <ele>1468.55</ele>
        <time>2012-06-19T12:14:24Z</time>
      </trkpt>
      <trkpt lat="45.4521" lon="5.93511">
        <ele>1469.51</ele>
        <time>2012-06-19T12:14:36Z</time>
      </trkpt>
      <trkpt lat="45.45197" lon="5.93504">
        <ele>1471.44</ele>
        <time>2012-06-19T12:14:51Z</time>
      </trkpt>
      <trkpt lat="45.4519" lon="5.93502">
        <ele>1473.36</ele>
        <time>2012-06-19T12:15:01Z</time>
      </trkpt>
      <trkpt lat="45.45179" lon="5.93498">
        <ele>1475.28</ele>
        <time>2012-06-19T12:15:17Z</time>
      </trkpt>
      <trkpt lat="45.45168" lon="5.93496">
        <ele>1477.2</ele>
        <time>2012-06-19T12:15:32Z</time>
      </trkpt>
      <trkpt lat="45.45163" lon="5.93491">
        <ele>1478.65</ele>
        <time>2012-06-19T12:15:45Z</time>
      </trkpt>
      <trkpt lat="45.45163" lon="5.93486">
        <ele>1479.61</ele>
        <time>2012-06-19T12:15:58Z</time>
      </trkpt>
      <trkpt lat="45.45163" lon="5.93486">
        <ele>1479.61</ele>
        <time>2012-06-19T12:16:27Z</time>
      </trkpt>
      <trkpt lat="45.45163" lon="5.93486">
        <ele>1479.13</ele>
        <time>2012-06-19T12:16:58Z</time>
      </trkpt>
      <trkpt lat="45.45163" lon="5.93486">
        <ele>1479.61</ele>
        <time>2012-06-19T12:17:22Z</time>
      </trkpt>
      <trkpt lat="45.45162" lon="5.93486">
        <ele>1479.13</ele>
        <time>2012-06-19T12:17:40Z</time>
      </trkpt>
      <trkpt lat="45.45158" lon="5.93484">
        <ele>1480.09</ele>
        <time>2012-06-19T12:17:52Z</time>
      </trkpt>
      <trkpt lat="45.45158" lon="5.93484">
        <ele>1481.05</ele>
        <time>2012-06-19T12:18:10Z</time>
      </trkpt>
      <trkpt lat="45.45154" lon="5.93477">
        <ele>1483.45</ele>
        <time>2012-06-19T12:18:24Z</time>
      </trkpt>
      <trkpt lat="45.45155" lon="5.93472">
        <ele>1485.85</ele>
        <time>2012-06-19T12:18:34Z</time>
      </trkpt>
      <trkpt lat="45.4516" lon="5.93471">
        <ele>1486.34</ele>
        <time>2012-06-19T12:18:48Z</time>
      </trkpt>
      <trkpt lat="45.45162" lon="5.93467">
        <ele>1487.3</ele>
        <time>2012-06-19T12:19:00Z</time>
      </trkpt>
      <trkpt lat="45.45168" lon="5.93459">
        <ele>1489.7</ele>
        <time>2012-06-19T12:19:15Z</time>
      </trkpt>
      <trkpt lat="45.45168" lon="5.93465">
        <ele>1492.58</ele>
        <time>2012-06-19T12:19:29Z</time>
      </trkpt>
      <trkpt lat="45.45167" lon="5.93464">
        <ele>1492.1</ele>
        <time>2012-06-19T12:19:31Z</time>
      </trkpt>
      <trkpt lat="45.45158" lon="5.93458">
        <ele>1494.03</ele>
        <time>2012-06-19T12:19:44Z</time>
      </trkpt>
      <trkpt lat="45.45151" lon="5.93458">
        <ele>1494.03</ele>
        <time>2012-06-19T12:19:55Z</time>
      </trkpt>
      <trkpt lat="45.45144" lon="5.93454">
        <ele>1495.47</ele>
        <time>2012-06-19T12:20:09Z</time>
      </trkpt>
      <trkpt lat="45.45137" lon="5.93457">
        <ele>1497.39</ele>
        <time>2012-06-19T12:20:21Z</time>
      </trkpt>
      <trkpt lat="45.45135" lon="5.93456">
        <ele>1497.39</ele>
        <time>2012-06-19T12:20:36Z</time>
      </trkpt>
      <trkpt lat="45.45135" lon="5.93455">
        <ele>1497.39</ele>
        <time>2012-06-19T12:20:58Z</time>
      </trkpt>
      <trkpt lat="45.45136" lon="5.93453">
        <ele>1496.91</ele>
        <time>2012-06-19T12:21:19Z</time>
      </trkpt>
      <trkpt lat="45.45136" lon="5.93453">
        <ele>1497.39</ele>
        <time>2012-06-19T12:21:43Z</time>
      </trkpt>
      <trkpt lat="45.45133" lon="5.93455">
        <ele>1496.91</ele>
        <time>2012-06-19T12:22:01Z</time>
      </trkpt>
      <trkpt lat="45.45132" lon="5.93455">
        <ele>1496.91</ele>
        <time>2012-06-19T12:22:25Z</time>
      </trkpt>
      <trkpt lat="45.4513" lon="5.93458">
        <ele>1496.43</ele>
        <time>2012-06-19T12:22:35Z</time>
      </trkpt>
      <trkpt lat="45.45119" lon="5.93459">
        <ele>1497.39</ele>
        <time>2012-06-19T12:22:49Z</time>
      </trkpt>
      <trkpt lat="45.45115" lon="5.93458">
        <ele>1499.31</ele>
        <time>2012-06-19T12:23:02Z</time>
      </trkpt>
      <trkpt lat="45.45112" lon="5.93459">
        <ele>1498.83</ele>
        <time>2012-06-19T12:23:18Z</time>
      </trkpt>
      <trkpt lat="45.45104" lon="5.93461">
        <ele>1497.87</ele>
        <time>2012-06-19T12:23:29Z</time>
      </trkpt>
      <trkpt lat="45.45096" lon="5.93461">
        <ele>1497.39</ele>
        <time>2012-06-19T12:23:41Z</time>
      </trkpt>
      <trkpt lat="45.45091" lon="5.93461">
        <ele>1497.39</ele>
        <time>2012-06-19T12:23:54Z</time>
      </trkpt>
      <trkpt lat="45.4509" lon="5.93461">
        <ele>1496.91</ele>
        <time>2012-06-19T12:24:02Z</time>
      </trkpt>
      <trkpt lat="45.45083" lon="5.93466">
        <ele>1497.87</ele>
        <time>2012-06-19T12:24:16Z</time>
      </trkpt>
      <trkpt lat="45.45081" lon="5.93464">
        <ele>1499.31</ele>
        <time>2012-06-19T12:24:27Z</time>
      </trkpt>
      <trkpt lat="45.45072" lon="5.93472">
        <ele>1499.79</ele>
        <time>2012-06-19T12:24:41Z</time>
      </trkpt>
      <trkpt lat="45.45067" lon="5.93473">
        <ele>1500.27</ele>
        <time>2012-06-19T12:24:54Z</time>
      </trkpt>
      <trkpt lat="45.45062" lon="5.93472">
        <ele>1500.27</ele>
        <time>2012-06-19T12:25:09Z</time>
      </trkpt>
      <trkpt lat="45.4505" lon="5.93475">
        <ele>1501.24</ele>
        <time>2012-06-19T12:25:21Z</time>
      </trkpt>
      <trkpt lat="45.45047" lon="5.93477">
        <ele>1502.68</ele>
        <time>2012-06-19T12:25:33Z</time>
      </trkpt>
      <trkpt lat="45.45041" lon="5.93479">
        <ele>1503.64</ele>
        <time>2012-06-19T12:25:45Z</time>
      </trkpt>
      <trkpt lat="45.45035" lon="5.93483">
        <ele>1506.52</ele>
        <time>2012-06-19T12:26:00Z</time>
      </trkpt>
      <trkpt lat="45.45029" lon="5.93484">
        <ele>1508.93</ele>
        <time>2012-06-19T12:26:16Z</time>
      </trkpt>
      <trkpt lat="45.4502" lon="5.93487">
        <ele>1510.85</ele>
        <time>2012-06-19T12:26:29Z</time>
      </trkpt>
      <trkpt lat="45.45015" lon="5.9349">
        <ele>1512.77</ele>
        <time>2012-06-19T12:26:42Z</time>
      </trkpt>
      <trkpt lat="45.45009" lon="5.93493">
        <ele>1512.29</ele>
        <time>2012-06-19T12:27:04Z</time>
      </trkpt>
      <trkpt lat="45.4502" lon="5.93495">
        <ele>1512.29</ele>
        <time>2012-06-19T12:27:33Z</time>
      </trkpt>
      <trkpt lat="45.4502" lon="5.93491">
        <ele>1514.69</ele>
        <time>2012-06-19T12:27:54Z</time>
      </trkpt>
      <trkpt lat="45.45018" lon="5.93486">
        <ele>1516.62</ele>
        <time>2012-06-19T12:28:07Z</time>
      </trkpt>
      <trkpt lat="45.45016" lon="5.93487">
        <ele>1519.02</ele>
        <time>2012-06-19T12:28:24Z</time>
      </trkpt>
      <trkpt lat="45.45011" lon="5.93485">
        <ele>1519.5</ele>
        <time>2012-06-19T12:28:40Z</time>
      </trkpt>
      <trkpt lat="45.45008" lon="5.93474">
        <ele>1522.39</ele>
        <time>2012-06-19T12:28:53Z</time>
      </trkpt>
      <trkpt lat="45.45005" lon="5.93468">
        <ele>1524.79</ele>
        <time>2012-06-19T12:29:05Z</time>
      </trkpt>
      <trkpt lat="45.45002" lon="5.93462">
        <ele>1528.15</ele>
        <time>2012-06-19T12:29:19Z</time>
      </trkpt>
      <trkpt lat="45.44999" lon="5.93459">
        <ele>1529.59</ele>
        <time>2012-06-19T12:29:27Z</time>
      </trkpt>
      <trkpt lat="45.45001" lon="5.9345">
        <ele>1531.52</ele>
        <time>2012-06-19T12:29:38Z</time>
      </trkpt>
      <trkpt lat="45.44999" lon="5.93443">
        <ele>1533.92</ele>
        <time>2012-06-19T12:29:52Z</time>
      </trkpt>
      <trkpt lat="45.44994" lon="5.93442">
        <ele>1535.84</ele>
        <time>2012-06-19T12:30:03Z</time>
      </trkpt>
      <trkpt lat="45.44989" lon="5.9344">
        <ele>1537.77</ele>
        <time>2012-06-19T12:30:15Z</time>
      </trkpt>
      <trkpt lat="45.44985" lon="5.93437">
        <ele>1540.17</ele>
        <time>2012-06-19T12:30:25Z</time>
      </trkpt>
      <trkpt lat="45.44979" lon="5.93429">
        <ele>1542.57</ele>
        <time>2012-06-19T12:30:36Z</time>
      </trkpt>
      <trkpt lat="45.4498" lon="5.93428">
        <ele>1543.05</ele>
        <time>2012-06-19T12:30:38Z</time>
      </trkpt>
      <trkpt lat="45.4498" lon="5.93428">
        <ele>1543.53</ele>
        <time>2012-06-19T12:30:40Z</time>
      </trkpt>
      <trkpt lat="45.44978" lon="5.93429">
        <ele>1544.5</ele>
        <time>2012-06-19T12:30:44Z</time>
      </trkpt>
      <trkpt lat="45.44976" lon="5.93426">
        <ele>1544.98</ele>
        <time>2012-06-19T12:30:58Z</time>
      </trkpt>
      <trkpt lat="45.44968" lon="5.93422">
        <ele>1546.9</ele>
        <time>2012-06-19T12:31:08Z</time>
      </trkpt>
      <trkpt lat="45.44966" lon="5.93421">
        <ele>1547.38</ele>
        <time>2012-06-19T12:31:16Z</time>
      </trkpt>
      <trkpt lat="45.44964" lon="5.93424">
        <ele>1547.38</ele>
        <time>2012-06-19T12:31:19Z</time>
      </trkpt>
      <trkpt lat="45.44958" lon="5.93427">
        <ele>1548.34</ele>
        <time>2012-06-19T12:31:34Z</time>
      </trkpt>
      <trkpt lat="45.44961" lon="5.93425">
        <ele>1548.34</ele>
        <time>2012-06-19T12:31:50Z</time>
      </trkpt>
      <trkpt lat="45.44962" lon="5.93421">
        <ele>1547.86</ele>
        <time>2012-06-19T12:31:59Z</time>
      </trkpt>
      <trkpt lat="45.44965" lon="5.93414">
        <ele>1546.9</ele>
        <time>2012-06-19T12:32:11Z</time>
      </trkpt>
      <trkpt lat="45.44966" lon="5.93415">
        <ele>1547.38</ele>
        <time>2012-06-19T12:32:36Z</time>
      </trkpt>
      <trkpt lat="45.44967" lon="5.93419">
        <ele>1547.38</ele>
        <time>2012-06-19T12:32:58Z</time>
      </trkpt>
      <trkpt lat="45.44965" lon="5.93421">
        <ele>1546.9</ele>
        <time>2012-06-19T12:33:03Z</time>
      </trkpt>
      <trkpt lat="45.44957" lon="5.93427">
        <ele>1545.94</ele>
        <time>2012-06-19T12:33:20Z</time>
      </trkpt>
      <trkpt lat="45.44957" lon="5.93426">
        <ele>1546.9</ele>
        <time>2012-06-19T12:33:26Z</time>
      </trkpt>
      <trkpt lat="45.44961" lon="5.93419">
        <ele>1546.9</ele>
        <time>2012-06-19T12:33:38Z</time>
      </trkpt>
      <trkpt lat="45.44961" lon="5.93419">
        <ele>1546.9</ele>
        <time>2012-06-19T12:34:10Z</time>
      </trkpt>
      <trkpt lat="45.44961" lon="5.93419">
        <ele>1546.42</ele>
        <time>2012-06-19T12:34:36Z</time>
      </trkpt>
      <trkpt lat="45.44961" lon="5.93422">
        <ele>1548.34</ele>
        <time>2012-06-19T12:34:53Z</time>
      </trkpt>
      <trkpt lat="45.44957" lon="5.93423">
        <ele>1547.38</ele>
        <time>2012-06-19T12:35:07Z</time>
      </trkpt>
      <trkpt lat="45.44957" lon="5.93424">
        <ele>1547.38</ele>
        <time>2012-06-19T12:35:28Z</time>
      </trkpt>
      <trkpt lat="45.44961" lon="5.93427">
        <ele>1547.86</ele>
        <time>2012-06-19T12:35:43Z</time>
      </trkpt>
      <trkpt lat="45.44961" lon="5.93427">
        <ele>1548.82</ele>
        <time>2012-06-19T12:36:10Z</time>
      </trkpt>
      <trkpt lat="45.44957" lon="5.9343">
        <ele>1547.38</ele>
        <time>2012-06-19T12:36:23Z</time>
      </trkpt>
      <trkpt lat="45.44957" lon="5.9343">
        <ele>1547.86</ele>
        <time>2012-06-19T12:36:51Z</time>
      </trkpt>
      <trkpt lat="45.44957" lon="5.9343">
        <ele>1548.34</ele>
        <time>2012-06-19T12:37:03Z</time>
      </trkpt>
      <trkpt lat="45.44957" lon="5.93429">
        <ele>1546.9</ele>
        <time>2012-06-19T12:37:15Z</time>
      </trkpt>
      <trkpt lat="45.44957" lon="5.93429">
        <ele>1546.9</ele>
        <time>2012-06-19T12:37:44Z</time>
      </trkpt>
      <trkpt lat="45.44957" lon="5.93429">
        <ele>1545.94</ele>
        <time>2012-06-19T12:38:16Z</time>
      </trkpt>
      <trkpt lat="45.44957" lon="5.93429">
        <ele>1546.42</ele>
        <time>2012-06-19T12:38:48Z</time>
      </trkpt>
      <trkpt lat="45.44956" lon="5.93429">
        <ele>1546.9</ele>
        <time>2012-06-19T12:39:12Z</time>
      </trkpt>
      <trkpt lat="45.44956" lon="5.93429">
        <ele>1546.9</ele>
        <time>2012-06-19T12:39:42Z</time>
      </trkpt>
      <trkpt lat="45.44955" lon="5.9343">
        <ele>1547.38</ele>
        <time>2012-06-19T12:40:11Z</time>
      </trkpt>
      <trkpt lat="45.44955" lon="5.9343">
        <ele>1547.38</ele>
        <time>2012-06-19T12:40:42Z</time>
      </trkpt>
      <trkpt lat="45.44955" lon="5.9343">
        <ele>1546.42</ele>
        <time>2012-06-19T12:41:08Z</time>
      </trkpt>
      <trkpt lat="45.44956" lon="5.9343">
        <ele>1546.42</ele>
        <time>2012-06-19T12:41:34Z</time>
      </trkpt>
      <trkpt lat="45.44955" lon="5.93429">
        <ele>1546.42</ele>
        <time>2012-06-19T12:42:01Z</time>
      </trkpt>
      <trkpt lat="45.44955" lon="5.9343">
        <ele>1546.42</ele>
        <time>2012-06-19T12:42:34Z</time>
      </trkpt>
      <trkpt lat="45.44955" lon="5.9343">
        <ele>1545.94</ele>
        <time>2012-06-19T12:43:09Z</time>
      </trkpt>
      <trkpt lat="45.44955" lon="5.93429">
        <ele>1547.86</ele>
        <time>2012-06-19T12:43:28Z</time>
      </trkpt>
      <trkpt lat="45.44955" lon="5.93429">
        <ele>1544.98</ele>
        <time>2012-06-19T12:43:30Z</time>
      </trkpt>
      <trkpt lat="45.44955" lon="5.93429">
        <ele>1548.82</ele>
        <time>2012-06-19T12:43:35Z</time>
      </trkpt>
      <trkpt lat="45.44955" lon="5.93429">
        <ele>1545.94</ele>
        <time>2012-06-19T12:43:37Z</time>
      </trkpt>
      <trkpt lat="45.44955" lon="5.93429">
        <ele>1546.42</ele>
        <time>2012-06-19T12:43:58Z</time>
      </trkpt>
      <trkpt lat="45.44956" lon="5.93429">
        <ele>1546.9</ele>
        <time>2012-06-19T12:44:27Z</time>
      </trkpt>
      <trkpt lat="45.44956" lon="5.93429">
        <ele>1546.42</ele>
        <time>2012-06-19T12:44:59Z</time>
      </trkpt>
      <trkpt lat="45.44956" lon="5.93429">
        <ele>1546.42</ele>
        <time>2012-06-19T12:45:34Z</time>
      </trkpt>
      <trkpt lat="45.44956" lon="5.93429">
        <ele>1546.42</ele>
        <time>2012-06-19T12:46:07Z</time>
      </trkpt>
      <trkpt lat="45.44957" lon="5.93429">
        <ele>1546.9</ele>
        <time>2012-06-19T12:46:43Z</time>
      </trkpt>
      <trkpt lat="45.44957" lon="5.93429">
        <ele>1545.94</ele>
        <time>2012-06-19T12:47:19Z</time>
      </trkpt>
      <trkpt lat="45.44957" lon="5.9343">
        <ele>1546.9</ele>
        <time>2012-06-19T12:47:58Z</time>
      </trkpt>
      <trkpt lat="45.44956" lon="5.9343">
        <ele>1546.9</ele>
        <time>2012-06-19T12:48:37Z</time>
      </trkpt>
      <trkpt lat="45.44956" lon="5.9343">
        <ele>1546.9</ele>
        <time>2012-06-19T12:49:11Z</time>
      </trkpt>
      <trkpt lat="45.44956" lon="5.93429">
        <ele>1546.9</ele>
        <time>2012-06-19T12:49:44Z</time>
      </trkpt>
      <trkpt lat="45.44956" lon="5.93429">
        <ele>1546.42</ele>
        <time>2012-06-19T12:50:17Z</time>
      </trkpt>
      <trkpt lat="45.44956" lon="5.9343">
        <ele>1545.94</ele>
        <time>2012-06-19T12:50:53Z</time>
      </trkpt>
      <trkpt lat="45.44956" lon="5.9343">
        <ele>1546.42</ele>
        <time>2012-06-19T12:51:29Z</time>
      </trkpt>
      <trkpt lat="45.44957" lon="5.93429">
        <ele>1546.9</ele>
        <time>2012-06-19T12:52:04Z</time>
      </trkpt>
      <trkpt lat="45.44956" lon="5.9343">
        <ele>1545.46</ele>
        <time>2012-06-19T12:52:36Z</time>
      </trkpt>
      <trkpt lat="45.44957" lon="5.93429">
        <ele>1546.42</ele>
        <time>2012-06-19T12:53:15Z</time>
      </trkpt>
      <trkpt lat="45.44957" lon="5.93429">
        <ele>1546.42</ele>
        <time>2012-06-19T12:53:54Z</time>
      </trkpt>
      <trkpt lat="45.44956" lon="5.93429">
        <ele>1546.9</ele>
        <time>2012-06-19T12:54:30Z</time>
      </trkpt>
      <trkpt lat="45.44956" lon="5.9343">
        <ele>1546.9</ele>
        <time>2012-06-19T12:55:07Z</time>
      </trkpt>
      <trkpt lat="45.44956" lon="5.93429">
        <ele>1546.9</ele>
        <time>2012-06-19T12:55:44Z</time>
      </trkpt>
      <trkpt lat="45.44957" lon="5.93429">
        <ele>1546.9</ele>
        <time>2012-06-19T12:56:22Z</time>
      </trkpt>
      <trkpt lat="45.44956" lon="5.93429">
        <ele>1546.9</ele>
        <time>2012-06-19T12:57:03Z</time>
      </trkpt>
      <trkpt lat="45.44955" lon="5.93428">
        <ele>1546.9</ele>
        <time>2012-06-19T12:57:42Z</time>
      </trkpt>
      <trkpt lat="45.44955" lon="5.93428">
        <ele>1546.9</ele>
        <time>2012-06-19T12:58:22Z</time>
      </trkpt>
      <trkpt lat="45.44955" lon="5.93429">
        <ele>1547.38</ele>
        <time>2012-06-19T12:58:59Z</time>
      </trkpt>
      <trkpt lat="45.44955" lon="5.93429">
        <ele>1547.38</ele>
        <time>2012-06-19T12:59:30Z</time>
      </trkpt>
      <trkpt lat="45.44955" lon="5.93429">
        <ele>1547.86</ele>
        <time>2012-06-19T13:00:06Z</time>
      </trkpt>
      <trkpt lat="45.44956" lon="5.93429">
        <ele>1548.34</ele>
        <time>2012-06-19T13:00:42Z</time>
      </trkpt>
      <trkpt lat="45.44957" lon="5.93429">
        <ele>1547.86</ele>
        <time>2012-06-19T13:01:18Z</time>
      </trkpt>
      <trkpt lat="45.44957" lon="5.93429">
        <ele>1546.9</ele>
        <time>2012-06-19T13:01:23Z</time>
      </trkpt>
      <trkpt lat="45.44957" lon="5.93429">
        <ele>1547.86</ele>
        <time>2012-06-19T13:02:03Z</time>
      </trkpt>
      <trkpt lat="45.44956" lon="5.93429">
        <ele>1548.82</ele>
        <time>2012-06-19T13:02:34Z</time>
      </trkpt>
      <trkpt lat="45.44956" lon="5.93429">
        <ele>1548.34</ele>
        <time>2012-06-19T13:03:04Z</time>
      </trkpt>
      <trkpt lat="45.44956" lon="5.93429">
        <ele>1548.34</ele>
        <time>2012-06-19T13:03:40Z</time>
      </trkpt>
      <trkpt lat="45.44957" lon="5.93429">
        <ele>1548.34</ele>
        <time>2012-06-19T13:04:15Z</time>
      </trkpt>
      <trkpt lat="45.44957" lon="5.93429">
        <ele>1548.82</ele>
        <time>2012-06-19T13:04:49Z</time>
      </trkpt>
      <trkpt lat="45.44957" lon="5.93429">
        <ele>1548.82</ele>
        <time>2012-06-19T13:05:22Z</time>
      </trkpt>
      <trkpt lat="45.44957" lon="5.93429">
        <ele>1548.34</ele>
        <time>2012-06-19T13:05:58Z</time>
      </trkpt>
      <trkpt lat="45.44956" lon="5.93429">
        <ele>1548.34</ele>
        <time>2012-06-19T13:06:28Z</time>
      </trkpt>
      <trkpt lat="45.44957" lon="5.93429">
        <ele>1548.82</ele>
        <time>2012-06-19T13:06:57Z</time>
      </trkpt>
      <trkpt lat="45.44957" lon="5.9343">
        <ele>1552.19</ele>
        <time>2012-06-19T13:07:20Z</time>
      </trkpt>
      <trkpt lat="45.44957" lon="5.9343">
        <ele>1548.82</ele>
        <time>2012-06-19T13:07:21Z</time>
      </trkpt>
      <trkpt lat="45.44956" lon="5.9343">
        <ele>1549.78</ele>
        <time>2012-06-19T13:07:33Z</time>
      </trkpt>
      <trkpt lat="45.44957" lon="5.93429">
        <ele>1550.26</ele>
        <time>2012-06-19T13:07:49Z</time>
      </trkpt>
      <trkpt lat="45.44957" lon="5.93429">
        <ele>1556.51</ele>
        <time>2012-06-19T13:07:54Z</time>
      </trkpt>
      <trkpt lat="45.44957" lon="5.93429">
        <ele>1551.22</ele>
        <time>2012-06-19T13:07:55Z</time>
      </trkpt>
      <trkpt lat="45.44961" lon="5.93429">
        <ele>1549.78</ele>
        <time>2012-06-19T13:08:08Z</time>
      </trkpt>
      <trkpt lat="45.44967" lon="5.93425">
        <ele>1549.3</ele>
        <time>2012-06-19T13:08:23Z</time>
      </trkpt>
      <trkpt lat="45.44972" lon="5.93424">
        <ele>1547.86</ele>
        <time>2012-06-19T13:08:30Z</time>
      </trkpt>
      <trkpt lat="45.44977" lon="5.9342">
        <ele>1546.42</ele>
        <time>2012-06-19T13:08:47Z</time>
      </trkpt>
      <trkpt lat="45.44979" lon="5.93419">
        <ele>1545.94</ele>
        <time>2012-06-19T13:08:49Z</time>
      </trkpt>
      <trkpt lat="45.44987" lon="5.93418">
        <ele>1542.09</ele>
        <time>2012-06-19T13:08:59Z</time>
      </trkpt>
      <trkpt lat="45.44991" lon="5.93422">
        <ele>1540.17</ele>
        <time>2012-06-19T13:09:11Z</time>
      </trkpt>
      <trkpt lat="45.44992" lon="5.93422">
        <ele>1538.73</ele>
        <time>2012-06-19T13:09:28Z</time>
      </trkpt>
      <trkpt lat="45.44994" lon="5.93422">
        <ele>1538.25</ele>
        <time>2012-06-19T13:09:46Z</time>
      </trkpt>
      <trkpt lat="45.44997" lon="5.93423">
        <ele>1537.29</ele>
        <time>2012-06-19T13:10:00Z</time>
      </trkpt>
      <trkpt lat="45.44998" lon="5.93425">
        <ele>1536.32</ele>
        <time>2012-06-19T13:10:17Z</time>
      </trkpt>
      <trkpt lat="45.44999" lon="5.93426">
        <ele>1535.84</ele>
        <time>2012-06-19T13:10:30Z</time>
      </trkpt>
      <trkpt lat="45.45001" lon="5.93437">
        <ele>1533.44</ele>
        <time>2012-06-19T13:10:44Z</time>
      </trkpt>
      <trkpt lat="45.45004" lon="5.93443">
        <ele>1531.04</ele>
        <time>2012-06-19T13:10:54Z</time>
      </trkpt>
      <trkpt lat="45.45006" lon="5.93447">
        <ele>1529.11</ele>
        <time>2012-06-19T13:11:06Z</time>
      </trkpt>
      <trkpt lat="45.45006" lon="5.93448">
        <ele>1527.19</ele>
        <time>2012-06-19T13:11:22Z</time>
      </trkpt>
      <trkpt lat="45.45006" lon="5.93453">
        <ele>1525.27</ele>
        <time>2012-06-19T13:11:35Z</time>
      </trkpt>
      <trkpt lat="45.45007" lon="5.93456">
        <ele>1524.31</ele>
        <time>2012-06-19T13:11:48Z</time>
      </trkpt>
      <trkpt lat="45.45007" lon="5.93456">
        <ele>1524.79</ele>
        <time>2012-06-19T13:12:11Z</time>
      </trkpt>
      <trkpt lat="45.45006" lon="5.93456">
        <ele>1524.79</ele>
        <time>2012-06-19T13:12:37Z</time>
      </trkpt>
      <trkpt lat="45.45011" lon="5.93462">
        <ele>1522.87</ele>
        <time>2012-06-19T13:12:50Z</time>
      </trkpt>
      <trkpt lat="45.4501" lon="5.93468">
        <ele>1519.5</ele>
        <time>2012-06-19T13:13:06Z</time>
      </trkpt>
      <trkpt lat="45.45009" lon="5.93468">
        <ele>1519.98</ele>
        <time>2012-06-19T13:13:28Z</time>
      </trkpt>
      <trkpt lat="45.45009" lon="5.93471">
        <ele>1519.02</ele>
        <time>2012-06-19T13:13:47Z</time>
      </trkpt>
      <trkpt lat="45.4501" lon="5.93471">
        <ele>1518.54</ele>
        <time>2012-06-19T13:13:59Z</time>
      </trkpt>
      <trkpt lat="45.45011" lon="5.9348">
        <ele>1517.58</ele>
        <time>2012-06-19T13:14:16Z</time>
      </trkpt>
      <trkpt lat="45.45011" lon="5.9348">
        <ele>1517.1</ele>
        <time>2012-06-19T13:14:18Z</time>
      </trkpt>
      <trkpt lat="45.4501" lon="5.93484">
        <ele>1513.73</ele>
        <time>2012-06-19T13:14:32Z</time>
      </trkpt>
      <trkpt lat="45.45013" lon="5.93483">
        <ele>1510.37</ele>
        <time>2012-06-19T13:14:44Z</time>
      </trkpt>
      <trkpt lat="45.45014" lon="5.93485">
        <ele>1508.45</ele>
        <time>2012-06-19T13:14:53Z</time>
      </trkpt>
      <trkpt lat="45.45026" lon="5.93488">
        <ele>1506.04</ele>
        <time>2012-06-19T13:15:05Z</time>
      </trkpt>
      <trkpt lat="45.45032" lon="5.93486">
        <ele>1504.6</ele>
        <time>2012-06-19T13:15:18Z</time>
      </trkpt>
      <trkpt lat="45.4504" lon="5.93485">
        <ele>1503.16</ele>
        <time>2012-06-19T13:15:31Z</time>
      </trkpt>
      <trkpt lat="45.45062" lon="5.93484">
        <ele>1502.68</ele>
        <time>2012-06-19T13:15:47Z</time>
      </trkpt>
      <trkpt lat="45.45072" lon="5.93478">
        <ele>1500.76</ele>
        <time>2012-06-19T13:15:58Z</time>
      </trkpt>
      <trkpt lat="45.45085" lon="5.93468">
        <ele>1499.79</ele>
        <time>2012-06-19T13:16:13Z</time>
      </trkpt>
      <trkpt lat="45.45086" lon="5.93467">
        <ele>1500.27</ele>
        <time>2012-06-19T13:16:36Z</time>
      </trkpt>
      <trkpt lat="45.45086" lon="5.93467">
        <ele>1499.79</ele>
        <time>2012-06-19T13:16:53Z</time>
      </trkpt>
      <trkpt lat="45.45087" lon="5.93467">
        <ele>1500.27</ele>
        <time>2012-06-19T13:17:21Z</time>
      </trkpt>
      <trkpt lat="45.45088" lon="5.93468">
        <ele>1500.27</ele>
        <time>2012-06-19T13:17:48Z</time>
      </trkpt>
      <trkpt lat="45.45088" lon="5.93468">
        <ele>1499.79</ele>
        <time>2012-06-19T13:18:17Z</time>
      </trkpt>
      <trkpt lat="45.45088" lon="5.93468">
        <ele>1499.79</ele>
        <time>2012-06-19T13:18:40Z</time>
      </trkpt>
      <trkpt lat="45.45088" lon="5.93468">
        <ele>1499.79</ele>
        <time>2012-06-19T13:19:01Z</time>
      </trkpt>
      <trkpt lat="45.45101" lon="5.93464">
        <ele>1500.76</ele>
        <time>2012-06-19T13:19:15Z</time>
      </trkpt>
      <trkpt lat="45.45106" lon="5.93461">
        <ele>1501.72</ele>
        <time>2012-06-19T13:19:29Z</time>
      </trkpt>
      <trkpt lat="45.45115" lon="5.93456">
        <ele>1499.31</ele>
        <time>2012-06-19T13:19:46Z</time>
      </trkpt>
      <trkpt lat="45.4512" lon="5.93454">
        <ele>1498.35</ele>
        <time>2012-06-19T13:19:50Z</time>
      </trkpt>
      <trkpt lat="45.45123" lon="5.93454">
        <ele>1498.35</ele>
        <time>2012-06-19T13:19:53Z</time>
      </trkpt>
      <trkpt lat="45.45134" lon="5.93447">
        <ele>1499.31</ele>
        <time>2012-06-19T13:20:06Z</time>
      </trkpt>
      <trkpt lat="45.45147" lon="5.93447">
        <ele>1496.43</ele>
        <time>2012-06-19T13:20:18Z</time>
      </trkpt>
      <trkpt lat="45.45158" lon="5.9344">
        <ele>1495.47</ele>
        <time>2012-06-19T13:20:34Z</time>
      </trkpt>
      <trkpt lat="45.45164" lon="5.93441">
        <ele>1494.51</ele>
        <time>2012-06-19T13:20:48Z</time>
      </trkpt>
      <trkpt lat="45.45167" lon="5.93442">
        <ele>1494.03</ele>
        <time>2012-06-19T13:20:51Z</time>
      </trkpt>
      <trkpt lat="45.45173" lon="5.93443">
        <ele>1492.1</ele>
        <time>2012-06-19T13:20:59Z</time>
      </trkpt>
      <trkpt lat="45.45175" lon="5.93452">
        <ele>1491.14</ele>
        <time>2012-06-19T13:21:04Z</time>
      </trkpt>
      <trkpt lat="45.45172" lon="5.93456">
        <ele>1490.18</ele>
        <time>2012-06-19T13:21:07Z</time>
      </trkpt>
      <trkpt lat="45.45166" lon="5.93465">
        <ele>1489.22</ele>
        <time>2012-06-19T13:21:23Z</time>
      </trkpt>
      <trkpt lat="45.45158" lon="5.93469">
        <ele>1485.85</ele>
        <time>2012-06-19T13:21:35Z</time>
      </trkpt>
      <trkpt lat="45.45155" lon="5.93471">
        <ele>1484.89</ele>
        <time>2012-06-19T13:21:45Z</time>
      </trkpt>
      <trkpt lat="45.45155" lon="5.93473">
        <ele>1482.97</ele>
        <time>2012-06-19T13:21:58Z</time>
      </trkpt>
      <trkpt lat="45.45157" lon="5.93473">
        <ele>1481.05</ele>
        <time>2012-06-19T13:22:17Z</time>
      </trkpt>
      <trkpt lat="45.4516" lon="5.93476">
        <ele>1479.61</ele>
        <time>2012-06-19T13:22:22Z</time>
      </trkpt>
      <trkpt lat="45.4517" lon="5.93475">
        <ele>1477.2</ele>
        <time>2012-06-19T13:22:39Z</time>
      </trkpt>
      <trkpt lat="45.45176" lon="5.93473">
        <ele>1474.8</ele>
        <time>2012-06-19T13:22:54Z</time>
      </trkpt>
      <trkpt lat="45.4518" lon="5.93469">
        <ele>1474.32</ele>
        <time>2012-06-19T13:23:09Z</time>
      </trkpt>
      <trkpt lat="45.4518" lon="5.93469">
        <ele>1473.36</ele>
        <time>2012-06-19T13:23:36Z</time>
      </trkpt>
      <trkpt lat="45.45179" lon="5.93471">
        <ele>1473.36</ele>
        <time>2012-06-19T13:23:56Z</time>
      </trkpt>
      <trkpt lat="45.45184" lon="5.93474">
        <ele>1470.95</ele>
        <time>2012-06-19T13:24:08Z</time>
      </trkpt>
      <trkpt lat="45.45195" lon="5.93486">
        <ele>1469.51</ele>
        <time>2012-06-19T13:24:21Z</time>
      </trkpt>
      <trkpt lat="45.45208" lon="5.93489">
        <ele>1467.11</ele>
        <time>2012-06-19T13:24:35Z</time>
      </trkpt>
      <trkpt lat="45.45209" lon="5.93489">
        <ele>1466.63</ele>
        <time>2012-06-19T13:24:37Z</time>
      </trkpt>
      <trkpt lat="45.45213" lon="5.93489">
        <ele>1466.63</ele>
        <time>2012-06-19T13:24:41Z</time>
      </trkpt>
      <trkpt lat="45.45227" lon="5.93494">
        <ele>1466.15</ele>
        <time>2012-06-19T13:24:54Z</time>
      </trkpt>
      <trkpt lat="45.45233" lon="5.93492">
        <ele>1466.63</ele>
        <time>2012-06-19T13:25:06Z</time>
      </trkpt>
      <trkpt lat="45.45239" lon="5.93499">
        <ele>1465.19</ele>
        <time>2012-06-19T13:25:25Z</time>
      </trkpt>
      <trkpt lat="45.45241" lon="5.93501">
        <ele>1465.19</ele>
        <time>2012-06-19T13:25:29Z</time>
      </trkpt>
      <trkpt lat="45.4525" lon="5.93507">
        <ele>1462.78</ele>
        <time>2012-06-19T13:25:37Z</time>
      </trkpt>
      <trkpt lat="45.45263" lon="5.93516">
        <ele>1461.82</ele>
        <time>2012-06-19T13:25:51Z</time>
      </trkpt>
      <trkpt lat="45.45273" lon="5.93527">
        <ele>1461.34</ele>
        <time>2012-06-19T13:26:05Z</time>
      </trkpt>
      <trkpt lat="45.45281" lon="5.93537">
        <ele>1458.46</ele>
        <time>2012-06-19T13:26:19Z</time>
      </trkpt>
      <trkpt lat="45.45285" lon="5.93539">
        <ele>1457.98</ele>
        <time>2012-06-19T13:26:23Z</time>
      </trkpt>
      <trkpt lat="45.45292" lon="5.93537">
        <ele>1457.5</ele>
        <time>2012-06-19T13:26:32Z</time>
      </trkpt>
      <trkpt lat="45.45302" lon="5.93535">
        <ele>1455.57</ele>
        <time>2012-06-19T13:26:48Z</time>
      </trkpt>
      <trkpt lat="45.45305" lon="5.93542">
        <ele>1454.61</ele>
        <time>2012-06-19T13:27:02Z</time>
      </trkpt>
      <trkpt lat="45.45306" lon="5.93542">
        <ele>1455.09</ele>
        <time>2012-06-19T13:27:16Z</time>
      </trkpt>
      <trkpt lat="45.45306" lon="5.93543">
        <ele>1459.42</ele>
        <time>2012-06-19T13:27:37Z</time>
      </trkpt>
      <trkpt lat="45.45306" lon="5.93543">
        <ele>1452.69</ele>
        <time>2012-06-19T13:27:38Z</time>
      </trkpt>
      <trkpt lat="45.4531" lon="5.93552">
        <ele>1453.17</ele>
        <time>2012-06-19T13:27:53Z</time>
      </trkpt>
      <trkpt lat="45.45316" lon="5.93561">
        <ele>1454.61</ele>
        <time>2012-06-19T13:28:01Z</time>
      </trkpt>
      <trkpt lat="45.45316" lon="5.93564">
        <ele>1451.73</ele>
        <time>2012-06-19T13:28:04Z</time>
      </trkpt>
      <trkpt lat="45.45319" lon="5.93573">
        <ele>1447.4</ele>
        <time>2012-06-19T13:28:19Z</time>
      </trkpt>
      <trkpt lat="45.45319" lon="5.93574">
        <ele>1451.25</ele>
        <time>2012-06-19T13:28:20Z</time>
      </trkpt>
      <trkpt lat="45.4532" lon="5.93577">
        <ele>1447.4</ele>
        <time>2012-06-19T13:28:22Z</time>
      </trkpt>
      <trkpt lat="45.45313" lon="5.93579">
        <ele>1445.96</ele>
        <time>2012-06-19T13:28:33Z</time>
      </trkpt>
      <trkpt lat="45.45311" lon="5.93576">
        <ele>1445.96</ele>
        <time>2012-06-19T13:28:37Z</time>
      </trkpt>
      <trkpt lat="45.45305" lon="5.93571">
        <ele>1444.04</ele>
        <time>2012-06-19T13:28:44Z</time>
      </trkpt>
      <trkpt lat="45.45298" lon="5.93568">
        <ele>1442.11</ele>
        <time>2012-06-19T13:28:55Z</time>
      </trkpt>
      <trkpt lat="45.45299" lon="5.93572">
        <ele>1440.67</ele>
        <time>2012-06-19T13:29:08Z</time>
      </trkpt>
      <trkpt lat="45.45299" lon="5.93573">
        <ele>1438.75</ele>
        <time>2012-06-19T13:29:11Z</time>
      </trkpt>
      <trkpt lat="45.45297" lon="5.93572">
        <ele>1437.79</ele>
        <time>2012-06-19T13:29:31Z</time>
      </trkpt>
      <trkpt lat="45.45299" lon="5.93578">
        <ele>1436.35</ele>
        <time>2012-06-19T13:29:44Z</time>
      </trkpt>
      <trkpt lat="45.45299" lon="5.93578">
        <ele>1432.98</ele>
        <time>2012-06-19T13:29:55Z</time>
      </trkpt>
      <trkpt lat="45.45302" lon="5.93587">
        <ele>1430.58</ele>
        <time>2012-06-19T13:30:11Z</time>
      </trkpt>
      <trkpt lat="45.45307" lon="5.93593">
        <ele>1428.18</ele>
        <time>2012-06-19T13:30:21Z</time>
      </trkpt>
      <trkpt lat="45.4531" lon="5.93597">
        <ele>1426.73</ele>
        <time>2012-06-19T13:30:34Z</time>
      </trkpt>
      <trkpt lat="45.4531" lon="5.93597">
        <ele>1427.21</ele>
        <time>2012-06-19T13:31:06Z</time>
      </trkpt>
      <trkpt lat="45.4531" lon="5.93597">
        <ele>1427.21</ele>
        <time>2012-06-19T13:31:42Z</time>
      </trkpt>
      <trkpt lat="45.45312" lon="5.93603">
        <ele>1425.77</ele>
        <time>2012-06-19T13:32:02Z</time>
      </trkpt>
      <trkpt lat="45.45318" lon="5.93611">
        <ele>1422.41</ele>
        <time>2012-06-19T13:32:14Z</time>
      </trkpt>
      <trkpt lat="45.45322" lon="5.93616">
        <ele>1419.52</ele>
        <time>2012-06-19T13:32:27Z</time>
      </trkpt>
      <trkpt lat="45.45324" lon="5.93622">
        <ele>1417.12</ele>
        <time>2012-06-19T13:32:42Z</time>
      </trkpt>
      <trkpt lat="45.45331" lon="5.93631">
        <ele>1413.76</ele>
        <time>2012-06-19T13:32:56Z</time>
      </trkpt>
      <trkpt lat="45.45335" lon="5.93635">
        <ele>1411.83</ele>
        <time>2012-06-19T13:33:13Z</time>
      </trkpt>
      <trkpt lat="45.45339" lon="5.93644">
        <ele>1408.95</ele>
        <time>2012-06-19T13:33:32Z</time>
      </trkpt>
      <trkpt lat="45.45342" lon="5.93646">
        <ele>1405.58</ele>
        <time>2012-06-19T13:33:47Z</time>
      </trkpt>
      <trkpt lat="45.45349" lon="5.93659">
        <ele>1403.66</ele>
        <time>2012-06-19T13:34:04Z</time>
      </trkpt>
      <trkpt lat="45.45349" lon="5.93662">
        <ele>1403.18</ele>
        <time>2012-06-19T13:34:26Z</time>
      </trkpt>
      <trkpt lat="45.4535" lon="5.93662">
        <ele>1403.18</ele>
        <time>2012-06-19T13:34:53Z</time>
      </trkpt>
      <trkpt lat="45.4535" lon="5.93662">
        <ele>1403.18</ele>
        <time>2012-06-19T13:35:20Z</time>
      </trkpt>
      <trkpt lat="45.4535" lon="5.93663">
        <ele>1403.18</ele>
        <time>2012-06-19T13:35:50Z</time>
      </trkpt>
      <trkpt lat="45.4535" lon="5.93663">
        <ele>1403.18</ele>
        <time>2012-06-19T13:36:24Z</time>
      </trkpt>
      <trkpt lat="45.4535" lon="5.93664">
        <ele>1403.18</ele>
        <time>2012-06-19T13:36:53Z</time>
      </trkpt>
      <trkpt lat="45.45351" lon="5.93667">
        <ele>1402.22</ele>
        <time>2012-06-19T13:37:27Z</time>
      </trkpt>
      <trkpt lat="45.45357" lon="5.93676">
        <ele>1398.86</ele>
        <time>2012-06-19T13:37:39Z</time>
      </trkpt>
      <trkpt lat="45.45364" lon="5.93689">
        <ele>1396.45</ele>
        <time>2012-06-19T13:37:53Z</time>
      </trkpt>
      <trkpt lat="45.45369" lon="5.93704">
        <ele>1393.57</ele>
        <time>2012-06-19T13:38:09Z</time>
      </trkpt>
      <trkpt lat="45.4537" lon="5.93707">
        <ele>1390.68</ele>
        <time>2012-06-19T13:38:21Z</time>
      </trkpt>
      <trkpt lat="45.45366" lon="5.9372">
        <ele>1387.32</ele>
        <time>2012-06-19T13:38:34Z</time>
      </trkpt>
      <trkpt lat="45.45368" lon="5.93725">
        <ele>1383.96</ele>
        <time>2012-06-19T13:38:46Z</time>
      </trkpt>
      <trkpt lat="45.45373" lon="5.93734">
        <ele>1381.07</ele>
        <time>2012-06-19T13:38:56Z</time>
      </trkpt>
      <trkpt lat="45.45379" lon="5.93743">
        <ele>1377.71</ele>
        <time>2012-06-19T13:39:09Z</time>
      </trkpt>
      <trkpt lat="45.45379" lon="5.93746">
        <ele>1376.75</ele>
        <time>2012-06-19T13:39:11Z</time>
      </trkpt>
      <trkpt lat="45.45387" lon="5.93764">
        <ele>1373.38</ele>
        <time>2012-06-19T13:39:23Z</time>
      </trkpt>
      <trkpt lat="45.45391" lon="5.93778">
        <ele>1370.02</ele>
        <time>2012-06-19T13:39:35Z</time>
      </trkpt>
      <trkpt lat="45.45393" lon="5.93786">
        <ele>1366.65</ele>
        <time>2012-06-19T13:39:44Z</time>
      </trkpt>
      <trkpt lat="45.45402" lon="5.93796">
        <ele>1363.29</ele>
        <time>2012-06-19T13:39:55Z</time>
      </trkpt>
      <trkpt lat="45.45408" lon="5.93807">
        <ele>1361.36</ele>
        <time>2012-06-19T13:40:01Z</time>
      </trkpt>
      <trkpt lat="45.45411" lon="5.93817">
        <ele>1359.92</ele>
        <time>2012-06-19T13:40:06Z</time>
      </trkpt>
      <trkpt lat="45.45406" lon="5.93824">
        <ele>1357.52</ele>
        <time>2012-06-19T13:40:11Z</time>
      </trkpt>
      <trkpt lat="45.45402" lon="5.93826">
        <ele>1357.04</ele>
        <time>2012-06-19T13:40:14Z</time>
      </trkpt>
      <trkpt lat="45.45398" lon="5.93825">
        <ele>1355.6</ele>
        <time>2012-06-19T13:40:17Z</time>
      </trkpt>
      <trkpt lat="45.45395" lon="5.93824">
        <ele>1354.15</ele>
        <time>2012-06-19T13:40:36Z</time>
      </trkpt>
      <trkpt lat="45.45391" lon="5.93827">
        <ele>1351.27</ele>
        <time>2012-06-19T13:40:45Z</time>
      </trkpt>
      <trkpt lat="45.45384" lon="5.93832">
        <ele>1347.91</ele>
        <time>2012-06-19T13:40:56Z</time>
      </trkpt>
      <trkpt lat="45.4538" lon="5.93838">
        <ele>1345.02</ele>
        <time>2012-06-19T13:41:05Z</time>
      </trkpt>
      <trkpt lat="45.4537" lon="5.93838">
        <ele>1341.66</ele>
        <time>2012-06-19T13:41:16Z</time>
      </trkpt>
      <trkpt lat="45.45367" lon="5.9384">
        <ele>1339.25</ele>
        <time>2012-06-19T13:41:23Z</time>
      </trkpt>
      <trkpt lat="45.45359" lon="5.93845">
        <ele>1335.89</ele>
        <time>2012-06-19T13:41:32Z</time>
      </trkpt>
      <trkpt lat="45.45355" lon="5.93844">
        <ele>1333.49</ele>
        <time>2012-06-19T13:41:37Z</time>
      </trkpt>
      <trkpt lat="45.45348" lon="5.93848">
        <ele>1331.08</ele>
        <time>2012-06-19T13:41:45Z</time>
      </trkpt>
      <trkpt lat="45.45348" lon="5.93849">
        <ele>1331.08</ele>
        <time>2012-06-19T13:41:47Z</time>
      </trkpt>
      <trkpt lat="45.45351" lon="5.93853">
        <ele>1329.16</ele>
        <time>2012-06-19T13:41:52Z</time>
      </trkpt>
      <trkpt lat="45.45357" lon="5.93862">
        <ele>1327.72</ele>
        <time>2012-06-19T13:41:56Z</time>
      </trkpt>
      <trkpt lat="45.45361" lon="5.93868">
        <ele>1326.28</ele>
        <time>2012-06-19T13:42:00Z</time>
      </trkpt>
      <trkpt lat="45.45355" lon="5.93878">
        <ele>1322.43</ele>
        <time>2012-06-19T13:42:11Z</time>
      </trkpt>
      <trkpt lat="45.45346" lon="5.93882">
        <ele>1319.07</ele>
        <time>2012-06-19T13:42:22Z</time>
      </trkpt>
      <trkpt lat="45.45338" lon="5.93874">
        <ele>1315.7</ele>
        <time>2012-06-19T13:42:33Z</time>
      </trkpt>
      <trkpt lat="45.45335" lon="5.93874">
        <ele>1312.82</ele>
        <time>2012-06-19T13:42:44Z</time>
      </trkpt>
      <trkpt lat="45.45332" lon="5.93888">
        <ele>1308.97</ele>
        <time>2012-06-19T13:42:54Z</time>
      </trkpt>
      <trkpt lat="45.45329" lon="5.93893">
        <ele>1307.05</ele>
        <time>2012-06-19T13:43:00Z</time>
      </trkpt>
      <trkpt lat="45.45321" lon="5.93893">
        <ele>1305.61</ele>
        <time>2012-06-19T13:43:06Z</time>
      </trkpt>
      <trkpt lat="45.45307" lon="5.93892">
        <ele>1302.24</ele>
        <time>2012-06-19T13:43:17Z</time>
      </trkpt>
      <trkpt lat="45.45306" lon="5.93893">
        <ele>1302.24</ele>
        <time>2012-06-19T13:43:18Z</time>
      </trkpt>
      <trkpt lat="45.45301" lon="5.93894">
        <ele>1300.8</ele>
        <time>2012-06-19T13:43:22Z</time>
      </trkpt>
      <trkpt lat="45.45298" lon="5.93894">
        <ele>1299.84</ele>
        <time>2012-06-19T13:43:25Z</time>
      </trkpt>
      <trkpt lat="45.45289" lon="5.93888">
        <ele>1296.48</ele>
        <time>2012-06-19T13:43:36Z</time>
      </trkpt>
      <trkpt lat="45.45293" lon="5.93892">
        <ele>1293.11</ele>
        <time>2012-06-19T13:43:54Z</time>
      </trkpt>
      <trkpt lat="45.453" lon="5.93897">
        <ele>1289.75</ele>
        <time>2012-06-19T13:44:05Z</time>
      </trkpt>
      <trkpt lat="45.45302" lon="5.93901">
        <ele>1289.27</ele>
        <time>2012-06-19T13:44:07Z</time>
      </trkpt>
      <trkpt lat="45.45307" lon="5.93915">
        <ele>1287.34</ele>
        <time>2012-06-19T13:44:14Z</time>
      </trkpt>
      <trkpt lat="45.45312" lon="5.9392">
        <ele>1285.9</ele>
        <time>2012-06-19T13:44:17Z</time>
      </trkpt>
      <trkpt lat="45.45307" lon="5.93934">
        <ele>1282.54</ele>
        <time>2012-06-19T13:44:29Z</time>
      </trkpt>
      <trkpt lat="45.45282" lon="5.93929">
        <ele>1280.61</ele>
        <time>2012-06-19T13:44:46Z</time>
      </trkpt>
      <trkpt lat="45.45279" lon="5.93932">
        <ele>1278.69</ele>
        <time>2012-06-19T13:44:53Z</time>
      </trkpt>
      <trkpt lat="45.45269" lon="5.9393">
        <ele>1274.85</ele>
        <time>2012-06-19T13:45:07Z</time>
      </trkpt>
      <trkpt lat="45.45267" lon="5.93933">
        <ele>1271.96</ele>
        <time>2012-06-19T13:45:19Z</time>
      </trkpt>
      <trkpt lat="45.45265" lon="5.9393">
        <ele>1270.52</ele>
        <time>2012-06-19T13:45:35Z</time>
      </trkpt>
      <trkpt lat="45.45264" lon="5.9393">
        <ele>1270.52</ele>
        <time>2012-06-19T13:46:00Z</time>
      </trkpt>
      <trkpt lat="45.45261" lon="5.93926">
        <ele>1269.56</ele>
        <time>2012-06-19T13:46:30Z</time>
      </trkpt>
      <trkpt lat="45.45261" lon="5.93925">
        <ele>1271.48</ele>
        <time>2012-06-19T13:47:02Z</time>
      </trkpt>
      <trkpt lat="45.45261" lon="5.93926">
        <ele>1271.48</ele>
        <time>2012-06-19T13:47:21Z</time>
      </trkpt>
      <trkpt lat="45.45261" lon="5.93934">
        <ele>1269.08</ele>
        <time>2012-06-19T13:47:37Z</time>
      </trkpt>
      <trkpt lat="45.45256" lon="5.93932">
        <ele>1265.71</ele>
        <time>2012-06-19T13:47:46Z</time>
      </trkpt>
      <trkpt lat="45.45256" lon="5.93932">
        <ele>1262.83</ele>
        <time>2012-06-19T13:47:54Z</time>
      </trkpt>
      <trkpt lat="45.45256" lon="5.93935">
        <ele>1261.39</ele>
        <time>2012-06-19T13:47:59Z</time>
      </trkpt>
      <trkpt lat="45.45252" lon="5.93947">
        <ele>1258.02</ele>
        <time>2012-06-19T13:48:10Z</time>
      </trkpt>
      <trkpt lat="45.45249" lon="5.93953">
        <ele>1257.54</ele>
        <time>2012-06-19T13:48:27Z</time>
      </trkpt>
      <trkpt lat="45.45249" lon="5.93954">
        <ele>1257.06</ele>
        <time>2012-06-19T13:48:53Z</time>
      </trkpt>
      <trkpt lat="45.45248" lon="5.93958">
        <ele>1253.7</ele>
        <time>2012-06-19T13:49:05Z</time>
      </trkpt>
      <trkpt lat="45.45247" lon="5.93971">
        <ele>1250.81</ele>
        <time>2012-06-19T13:49:18Z</time>
      </trkpt>
      <trkpt lat="45.45246" lon="5.93973">
        <ele>1247.45</ele>
        <time>2012-06-19T13:49:29Z</time>
      </trkpt>
      <trkpt lat="45.45247" lon="5.93984">
        <ele>1244.56</ele>
        <time>2012-06-19T13:49:42Z</time>
      </trkpt>
      <trkpt lat="45.45233" lon="5.93997">
        <ele>1241.2</ele>
        <time>2012-06-19T13:49:56Z</time>
      </trkpt>
      <trkpt lat="45.45227" lon="5.94">
        <ele>1237.83</ele>
        <time>2012-06-19T13:50:08Z</time>
      </trkpt>
      <trkpt lat="45.45226" lon="5.94">
        <ele>1234.95</ele>
        <time>2012-06-19T13:50:23Z</time>
      </trkpt>
      <trkpt lat="45.45234" lon="5.94013">
        <ele>1232.07</ele>
        <time>2012-06-19T13:50:35Z</time>
      </trkpt>
      <trkpt lat="45.45235" lon="5.94014">
        <ele>1229.66</ele>
        <time>2012-06-19T13:50:57Z</time>
      </trkpt>
      <trkpt lat="45.45239" lon="5.94016">
        <ele>1226.3</ele>
        <time>2012-06-19T13:51:09Z</time>
      </trkpt>
      <trkpt lat="45.45245" lon="5.94028">
        <ele>1224.86</ele>
        <time>2012-06-19T13:51:17Z</time>
      </trkpt>
      <trkpt lat="45.45249" lon="5.94049">
        <ele>1222.45</ele>
        <time>2012-06-19T13:51:28Z</time>
      </trkpt>
      <trkpt lat="45.4525" lon="5.94055">
        <ele>1219.09</ele>
        <time>2012-06-19T13:51:40Z</time>
      </trkpt>
      <trkpt lat="45.45251" lon="5.94059">
        <ele>1216.21</ele>
        <time>2012-06-19T13:51:52Z</time>
      </trkpt>
      <trkpt lat="45.45254" lon="5.94068">
        <ele>1213.32</ele>
        <time>2012-06-19T13:52:04Z</time>
      </trkpt>
      <trkpt lat="45.45249" lon="5.9408">
        <ele>1209.96</ele>
        <time>2012-06-19T13:52:15Z</time>
      </trkpt>
      <trkpt lat="45.45244" lon="5.94087">
        <ele>1206.59</ele>
        <time>2012-06-19T13:52:26Z</time>
      </trkpt>
      <trkpt lat="45.45243" lon="5.9408">
        <ele>1208.51</ele>
        <time>2012-06-19T13:52:46Z</time>
      </trkpt>
      <trkpt lat="45.45243" lon="5.9408">
        <ele>1204.19</ele>
        <time>2012-06-19T13:52:55Z</time>
      </trkpt>
      <trkpt lat="45.45243" lon="5.9408">
        <ele>1207.07</ele>
        <time>2012-06-19T13:52:56Z</time>
      </trkpt>
      <trkpt lat="45.4524" lon="5.94081">
        <ele>1205.15</ele>
        <time>2012-06-19T13:53:10Z</time>
      </trkpt>
      <trkpt lat="45.4524" lon="5.94078">
        <ele>1209.48</ele>
        <time>2012-06-19T13:53:23Z</time>
      </trkpt>
      <trkpt lat="45.4524" lon="5.94079">
        <ele>1205.63</ele>
        <time>2012-06-19T13:53:24Z</time>
      </trkpt>
      <trkpt lat="45.4524" lon="5.9408">
        <ele>1204.19</ele>
        <time>2012-06-19T13:53:32Z</time>
      </trkpt>
      <trkpt lat="45.4524" lon="5.9408">
        <ele>1207.55</ele>
        <time>2012-06-19T13:53:36Z</time>
      </trkpt>
      <trkpt lat="45.4524" lon="5.9408">
        <ele>1203.71</ele>
        <time>2012-06-19T13:53:37Z</time>
      </trkpt>
      <trkpt lat="45.4524" lon="5.9408">
        <ele>1206.11</ele>
        <time>2012-06-19T13:53:38Z</time>
      </trkpt>
      <trkpt lat="45.45238" lon="5.94077">
        <ele>1202.75</ele>
        <time>2012-06-19T13:53:53Z</time>
      </trkpt>
      <trkpt lat="45.45231" lon="5.94073">
        <ele>1207.07</ele>
        <time>2012-06-19T13:54:00Z</time>
      </trkpt>
      <trkpt lat="45.45232" lon="5.94076">
        <ele>1202.27</ele>
        <time>2012-06-19T13:54:01Z</time>
      </trkpt>
      <trkpt lat="45.45231" lon="5.94077">
        <ele>1205.63</ele>
        <time>2012-06-19T13:54:03Z</time>
      </trkpt>
      <trkpt lat="45.45229" lon="5.94077">
        <ele>1201.3</ele>
        <time>2012-06-19T13:54:05Z</time>
      </trkpt>
      <trkpt lat="45.45221" lon="5.9407">
        <ele>1200.82</ele>
        <time>2012-06-19T13:54:18Z</time>
      </trkpt>
      <trkpt lat="45.45218" lon="5.94059">
        <ele>1199.86</ele>
        <time>2012-06-19T13:54:31Z</time>
      </trkpt>
      <trkpt lat="45.45218" lon="5.94059">
        <ele>1199.86</ele>
        <time>2012-06-19T13:54:32Z</time>
      </trkpt>
      <trkpt lat="45.45216" lon="5.94052">
        <ele>1198.9</ele>
        <time>2012-06-19T13:54:38Z</time>
      </trkpt>
      <trkpt lat="45.4521" lon="5.94041">
        <ele>1199.38</ele>
        <time>2012-06-19T13:54:53Z</time>
      </trkpt>
      <trkpt lat="45.4521" lon="5.94041">
        <ele>1198.9</ele>
        <time>2012-06-19T13:55:05Z</time>
      </trkpt>
      <trkpt lat="45.45209" lon="5.9404">
        <ele>1199.38</ele>
        <time>2012-06-19T13:55:32Z</time>
      </trkpt>
      <trkpt lat="45.452" lon="5.94031">
        <ele>1198.9</ele>
        <time>2012-06-19T13:55:43Z</time>
      </trkpt>
      <trkpt lat="45.452" lon="5.94031">
        <ele>1198.9</ele>
        <time>2012-06-19T13:55:50Z</time>
      </trkpt>
      <trkpt lat="45.45194" lon="5.94025">
        <ele>1198.42</ele>
        <time>2012-06-19T13:55:57Z</time>
      </trkpt>
      <trkpt lat="45.45194" lon="5.94034">
        <ele>1195.54</ele>
        <time>2012-06-19T13:56:12Z</time>
      </trkpt>
      <trkpt lat="45.45194" lon="5.94031">
        <ele>1195.54</ele>
        <time>2012-06-19T13:56:30Z</time>
      </trkpt>
      <trkpt lat="45.45185" lon="5.9403">
        <ele>1193.61</ele>
        <time>2012-06-19T13:56:45Z</time>
      </trkpt>
      <trkpt lat="45.45172" lon="5.9402">
        <ele>1191.69</ele>
        <time>2012-06-19T13:56:57Z</time>
      </trkpt>
      <trkpt lat="45.4516" lon="5.9401">
        <ele>1188.81</ele>
        <time>2012-06-19T13:57:10Z</time>
      </trkpt>
      <trkpt lat="45.45156" lon="5.94009">
        <ele>1187.85</ele>
        <time>2012-06-19T13:57:13Z</time>
      </trkpt>
      <trkpt lat="45.45143" lon="5.93987">
        <ele>1186.88</ele>
        <time>2012-06-19T13:57:26Z</time>
      </trkpt>
      <trkpt lat="45.45142" lon="5.9398">
        <ele>1186.4</ele>
        <time>2012-06-19T13:57:38Z</time>
      </trkpt>
      <trkpt lat="45.4514" lon="5.9398">
        <ele>1185.92</ele>
        <time>2012-06-19T13:57:41Z</time>
      </trkpt>
      <trkpt lat="45.45129" lon="5.93978">
        <ele>1183.52</ele>
        <time>2012-06-19T13:57:56Z</time>
      </trkpt>
      <trkpt lat="45.45124" lon="5.93977">
        <ele>1182.08</ele>
        <time>2012-06-19T13:58:11Z</time>
      </trkpt>
      <trkpt lat="45.45125" lon="5.93977">
        <ele>1180.16</ele>
        <time>2012-06-19T13:58:28Z</time>
      </trkpt>
      <trkpt lat="45.45123" lon="5.93985">
        <ele>1178.23</ele>
        <time>2012-06-19T13:58:47Z</time>
      </trkpt>
      <trkpt lat="45.45119" lon="5.93988">
        <ele>1175.83</ele>
        <time>2012-06-19T13:59:00Z</time>
      </trkpt>
      <trkpt lat="45.45114" lon="5.93993">
        <ele>1173.43</ele>
        <time>2012-06-19T13:59:09Z</time>
      </trkpt>
      <trkpt lat="45.45113" lon="5.93994">
        <ele>1172.95</ele>
        <time>2012-06-19T13:59:19Z</time>
      </trkpt>
      <trkpt lat="45.45109" lon="5.93994">
        <ele>1173.43</ele>
        <time>2012-06-19T13:59:31Z</time>
      </trkpt>
      <trkpt lat="45.45109" lon="5.93994">
        <ele>1173.43</ele>
        <time>2012-06-19T13:59:59Z</time>
      </trkpt>
      <trkpt lat="45.45109" lon="5.93994">
        <ele>1173.91</ele>
        <time>2012-06-19T14:00:24Z</time>
      </trkpt>
      <trkpt lat="45.45109" lon="5.93995">
        <ele>1173.91</ele>
        <time>2012-06-19T14:00:51Z</time>
      </trkpt>
      <trkpt lat="45.45109" lon="5.93994">
        <ele>1173.91</ele>
        <time>2012-06-19T14:00:52Z</time>
      </trkpt>
      <trkpt lat="45.45106" lon="5.93991">
        <ele>1174.87</ele>
        <time>2012-06-19T14:00:56Z</time>
      </trkpt>
      <trkpt lat="45.45105" lon="5.93991">
        <ele>1174.87</ele>
        <time>2012-06-19T14:00:59Z</time>
      </trkpt>
      <trkpt lat="45.45103" lon="5.93991">
        <ele>1174.39</ele>
        <time>2012-06-19T14:01:03Z</time>
      </trkpt>
      <trkpt lat="45.45101" lon="5.93994">
        <ele>1173.43</ele>
        <time>2012-06-19T14:01:07Z</time>
      </trkpt>
      <trkpt lat="45.45101" lon="5.93998">
        <ele>1172.95</ele>
        <time>2012-06-19T14:01:18Z</time>
      </trkpt>
      <trkpt lat="45.45101" lon="5.94">
        <ele>1172.47</ele>
        <time>2012-06-19T14:01:23Z</time>
      </trkpt>
      <trkpt lat="45.451" lon="5.94008">
        <ele>1171.98</ele>
        <time>2012-06-19T14:01:33Z</time>
      </trkpt>
      <trkpt lat="45.45096" lon="5.94004">
        <ele>1173.43</ele>
        <time>2012-06-19T14:01:46Z</time>
      </trkpt>
      <trkpt lat="45.45096" lon="5.93999">
        <ele>1173.91</ele>
        <time>2012-06-19T14:02:01Z</time>
      </trkpt>
      <trkpt lat="45.45096" lon="5.93999">
        <ele>1174.39</ele>
        <time>2012-06-19T14:02:31Z</time>
      </trkpt>
      <trkpt lat="45.45098" lon="5.93999">
        <ele>1173.91</ele>
        <time>2012-06-19T14:02:47Z</time>
      </trkpt>
      <trkpt lat="45.45088" lon="5.93998">
        <ele>1173.43</ele>
        <time>2012-06-19T14:03:03Z</time>
      </trkpt>
      <trkpt lat="45.45087" lon="5.94023">
        <ele>1171.5</ele>
        <time>2012-06-19T14:03:16Z</time>
      </trkpt>
      <trkpt lat="45.45075" lon="5.94042">
        <ele>1170.06</ele>
        <time>2012-06-19T14:03:30Z</time>
      </trkpt>
      <trkpt lat="45.45076" lon="5.94049">
        <ele>1168.14</ele>
        <time>2012-06-19T14:03:40Z</time>
      </trkpt>
      <trkpt lat="45.45073" lon="5.94049">
        <ele>1166.7</ele>
        <time>2012-06-19T14:03:56Z</time>
      </trkpt>
      <trkpt lat="45.45075" lon="5.94066">
        <ele>1165.26</ele>
        <time>2012-06-19T14:04:10Z</time>
      </trkpt>
      <trkpt lat="45.45083" lon="5.94093">
        <ele>1162.85</ele>
        <time>2012-06-19T14:04:25Z</time>
      </trkpt>
      <trkpt lat="45.45083" lon="5.94093">
        <ele>1162.85</ele>
        <time>2012-06-19T14:04:41Z</time>
      </trkpt>
      <trkpt lat="45.45077" lon="5.94107">
        <ele>1159.49</ele>
        <time>2012-06-19T14:04:58Z</time>
      </trkpt>
      <trkpt lat="45.45053" lon="5.94145">
        <ele>1156.6</ele>
        <time>2012-06-19T14:05:09Z</time>
      </trkpt>
      <trkpt lat="45.45056" lon="5.94161">
        <ele>1154.2</ele>
        <time>2012-06-19T14:05:24Z</time>
      </trkpt>
      <trkpt lat="45.45056" lon="5.94161">
        <ele>1154.68</ele>
        <time>2012-06-19T14:05:49Z</time>
      </trkpt>
      <trkpt lat="45.45057" lon="5.94162">
        <ele>1154.68</ele>
        <time>2012-06-19T14:06:23Z</time>
      </trkpt>
      <trkpt lat="45.45057" lon="5.94163">
        <ele>1155.16</ele>
        <time>2012-06-19T14:06:53Z</time>
      </trkpt>
      <trkpt lat="45.45057" lon="5.94163">
        <ele>1154.2</ele>
        <time>2012-06-19T14:07:20Z</time>
      </trkpt>
      <trkpt lat="45.45057" lon="5.94171">
        <ele>1153.72</ele>
        <time>2012-06-19T14:07:29Z</time>
      </trkpt>
      <trkpt lat="45.4506" lon="5.94175">
        <ele>1153.24</ele>
        <time>2012-06-19T14:07:33Z</time>
      </trkpt>
      <trkpt lat="45.45062" lon="5.94193">
        <ele>1150.35</ele>
        <time>2012-06-19T14:07:48Z</time>
      </trkpt>
      <trkpt lat="45.45063" lon="5.94212">
        <ele>1149.87</ele>
        <time>2012-06-19T14:08:00Z</time>
      </trkpt>
      <trkpt lat="45.45071" lon="5.94228">
        <ele>1152.28</ele>
        <time>2012-06-19T14:08:15Z</time>
      </trkpt>
      <trkpt lat="45.45058" lon="5.94257">
        <ele>1152.76</ele>
        <time>2012-06-19T14:08:28Z</time>
      </trkpt>
      <trkpt lat="45.45058" lon="5.94261">
        <ele>1152.28</ele>
        <time>2012-06-19T14:08:30Z</time>
      </trkpt>
      <trkpt lat="45.45055" lon="5.94286">
        <ele>1152.28</ele>
        <time>2012-06-19T14:08:45Z</time>
      </trkpt>
      <trkpt lat="45.45058" lon="5.94301">
        <ele>1151.8</ele>
        <time>2012-06-19T14:08:59Z</time>
      </trkpt>
      <trkpt lat="45.4506" lon="5.94319">
        <ele>1148.91</ele>
        <time>2012-06-19T14:09:13Z</time>
      </trkpt>
      <trkpt lat="45.45059" lon="5.94322">
        <ele>1148.91</ele>
        <time>2012-06-19T14:09:14Z</time>
      </trkpt>
      <trkpt lat="45.45048" lon="5.94342">
        <ele>1145.55</ele>
        <time>2012-06-19T14:09:30Z</time>
      </trkpt>
      <trkpt lat="45.45042" lon="5.94355">
        <ele>1143.63</ele>
        <time>2012-06-19T14:09:46Z</time>
      </trkpt>
      <trkpt lat="45.45035" lon="5.94364">
        <ele>1142.18</ele>
        <time>2012-06-19T14:10:02Z</time>
      </trkpt>
      <trkpt lat="45.45029" lon="5.94368">
        <ele>1140.74</ele>
        <time>2012-06-19T14:10:17Z</time>
      </trkpt>
      <trkpt lat="45.45019" lon="5.94377">
        <ele>1139.78</ele>
        <time>2012-06-19T14:10:28Z</time>
      </trkpt>
      <trkpt lat="45.45013" lon="5.94386">
        <ele>1138.34</ele>
        <time>2012-06-19T14:10:34Z</time>
      </trkpt>
      <trkpt lat="45.45012" lon="5.94392">
        <ele>1136.42</ele>
        <time>2012-06-19T14:10:37Z</time>
      </trkpt>
      <trkpt lat="45.4501" lon="5.94398">
        <ele>1134.97</ele>
        <time>2012-06-19T14:10:55Z</time>
      </trkpt>
      <trkpt lat="45.45007" lon="5.9441">
        <ele>1131.61</ele>
        <time>2012-06-19T14:11:09Z</time>
      </trkpt>
      <trkpt lat="45.45006" lon="5.9442">
        <ele>1134.49</ele>
        <time>2012-06-19T14:11:24Z</time>
      </trkpt>
      <trkpt lat="45.45006" lon="5.94422">
        <ele>1131.61</ele>
        <time>2012-06-19T14:11:35Z</time>
      </trkpt>
      <trkpt lat="45.45008" lon="5.94425">
        <ele>1129.69</ele>
        <time>2012-06-19T14:11:41Z</time>
      </trkpt>
      <trkpt lat="45.4501" lon="5.94442">
        <ele>1126.8</ele>
        <time>2012-06-19T14:11:57Z</time>
      </trkpt>
      <trkpt lat="45.45011" lon="5.94457">
        <ele>1125.84</ele>
        <time>2012-06-19T14:12:04Z</time>
      </trkpt>
      <trkpt lat="45.45007" lon="5.94473">
        <ele>1123.44</ele>
        <time>2012-06-19T14:12:18Z</time>
      </trkpt>
      <trkpt lat="45.45007" lon="5.94482">
        <ele>1120.55</ele>
        <time>2012-06-19T14:12:28Z</time>
      </trkpt>
      <trkpt lat="45.45008" lon="5.94486">
        <ele>1120.07</ele>
        <time>2012-06-19T14:12:30Z</time>
      </trkpt>
      <trkpt lat="45.45005" lon="5.945">
        <ele>1118.15</ele>
        <time>2012-06-19T14:12:41Z</time>
      </trkpt>
      <trkpt lat="45.45005" lon="5.94507">
        <ele>1118.15</ele>
        <time>2012-06-19T14:12:45Z</time>
      </trkpt>
      <trkpt lat="45.45005" lon="5.94527">
        <ele>1116.23</ele>
        <time>2012-06-19T14:13:00Z</time>
      </trkpt>
      <trkpt lat="45.45006" lon="5.94549">
        <ele>1114.31</ele>
        <time>2012-06-19T14:13:15Z</time>
      </trkpt>
      <trkpt lat="45.45004" lon="5.94552">
        <ele>1113.82</ele>
        <time>2012-06-19T14:13:19Z</time>
      </trkpt>
      <trkpt lat="45.45003" lon="5.94565">
        <ele>1111.42</ele>
        <time>2012-06-19T14:13:31Z</time>
      </trkpt>
      <trkpt lat="45.45005" lon="5.9457">
        <ele>1110.94</ele>
        <time>2012-06-19T14:13:34Z</time>
      </trkpt>
      <trkpt lat="45.45005" lon="5.94586">
        <ele>1108.06</ele>
        <time>2012-06-19T14:13:49Z</time>
      </trkpt>
      <trkpt lat="45.45009" lon="5.94597">
        <ele>1106.13</ele>
        <time>2012-06-19T14:13:58Z</time>
      </trkpt>
      <trkpt lat="45.4501" lon="5.94601">
        <ele>1104.69</ele>
        <time>2012-06-19T14:14:15Z</time>
      </trkpt>
      <trkpt lat="45.45019" lon="5.94611">
        <ele>1105.65</ele>
        <time>2012-06-19T14:14:36Z</time>
      </trkpt>
      <trkpt lat="45.45021" lon="5.94615">
        <ele>1102.29</ele>
        <time>2012-06-19T14:14:49Z</time>
      </trkpt>
      <trkpt lat="45.45023" lon="5.94622">
        <ele>1098.92</ele>
        <time>2012-06-19T14:14:59Z</time>
      </trkpt>
      <trkpt lat="45.45025" lon="5.94634">
        <ele>1096.04</ele>
        <time>2012-06-19T14:15:10Z</time>
      </trkpt>
      <trkpt lat="45.45027" lon="5.94644">
        <ele>1092.68</ele>
        <time>2012-06-19T14:15:19Z</time>
      </trkpt>
      <trkpt lat="45.45027" lon="5.94647">
        <ele>1092.2</ele>
        <time>2012-06-19T14:15:21Z</time>
      </trkpt>
      <trkpt lat="45.45034" lon="5.9466">
        <ele>1089.31</ele>
        <time>2012-06-19T14:15:33Z</time>
      </trkpt>
      <trkpt lat="45.45032" lon="5.94666">
        <ele>1087.39</ele>
        <time>2012-06-19T14:15:50Z</time>
      </trkpt>
      <trkpt lat="45.4503" lon="5.94669">
        <ele>1086.91</ele>
        <time>2012-06-19T14:16:10Z</time>
      </trkpt>
      <trkpt lat="45.45029" lon="5.94691">
        <ele>1083.54</ele>
        <time>2012-06-19T14:16:26Z</time>
      </trkpt>
      <trkpt lat="45.45029" lon="5.94714">
        <ele>1080.66</ele>
        <time>2012-06-19T14:16:41Z</time>
      </trkpt>
      <trkpt lat="45.45029" lon="5.94722">
        <ele>1077.29</ele>
        <time>2012-06-19T14:16:48Z</time>
      </trkpt>
      <trkpt lat="45.45029" lon="5.94723">
        <ele>1077.29</ele>
        <time>2012-06-19T14:16:49Z</time>
      </trkpt>
      <trkpt lat="45.45031" lon="5.94726">
        <ele>1083.06</ele>
        <time>2012-06-19T14:16:53Z</time>
      </trkpt>
      <trkpt lat="45.45032" lon="5.94728">
        <ele>1078.26</ele>
        <time>2012-06-19T14:16:54Z</time>
      </trkpt>
      <trkpt lat="45.4504" lon="5.94755">
        <ele>1075.37</ele>
        <time>2012-06-19T14:17:09Z</time>
      </trkpt>
      <trkpt lat="45.45048" lon="5.94775">
        <ele>1072.49</ele>
        <time>2012-06-19T14:17:23Z</time>
      </trkpt>
      <trkpt lat="45.45051" lon="5.94794">
        <ele>1069.6</ele>
        <time>2012-06-19T14:17:39Z</time>
      </trkpt>
      <trkpt lat="45.4505" lon="5.94805">
        <ele>1067.2</ele>
        <time>2012-06-19T14:17:53Z</time>
      </trkpt>
      <trkpt lat="45.4505" lon="5.94812">
        <ele>1065.28</ele>
        <time>2012-06-19T14:18:11Z</time>
      </trkpt>
      <trkpt lat="45.45044" lon="5.94836">
        <ele>1062.87</ele>
        <time>2012-06-19T14:18:24Z</time>
      </trkpt>
      <trkpt lat="45.45034" lon="5.94857">
        <ele>1059.51</ele>
        <time>2012-06-19T14:18:37Z</time>
      </trkpt>
      <trkpt lat="45.45036" lon="5.94869">
        <ele>1056.15</ele>
        <time>2012-06-19T14:18:49Z</time>
      </trkpt>
      <trkpt lat="45.45037" lon="5.94875">
        <ele>1054.22</ele>
        <time>2012-06-19T14:19:02Z</time>
      </trkpt>
      <trkpt lat="45.45037" lon="5.94875">
        <ele>1052.3</ele>
        <time>2012-06-19T14:19:10Z</time>
      </trkpt>
      <trkpt lat="45.45037" lon="5.94888">
        <ele>1049.42</ele>
        <time>2012-06-19T14:19:23Z</time>
      </trkpt>
      <trkpt lat="45.45045" lon="5.94904">
        <ele>1046.05</ele>
        <time>2012-06-19T14:19:34Z</time>
      </trkpt>
      <trkpt lat="45.4505" lon="5.94912">
        <ele>1043.17</ele>
        <time>2012-06-19T14:19:46Z</time>
      </trkpt>
      <trkpt lat="45.4506" lon="5.94921">
        <ele>1039.8</ele>
        <time>2012-06-19T14:19:59Z</time>
      </trkpt>
      <trkpt lat="45.4506" lon="5.94922">
        <ele>1037.88</ele>
        <time>2012-06-19T14:20:08Z</time>
      </trkpt>
      <trkpt lat="45.45064" lon="5.94927">
        <ele>1036.44</ele>
        <time>2012-06-19T14:20:19Z</time>
      </trkpt>
      <trkpt lat="45.45068" lon="5.9494">
        <ele>1034.04</ele>
        <time>2012-06-19T14:20:32Z</time>
      </trkpt>
      <trkpt lat="45.45072" lon="5.94963">
        <ele>1030.67</ele>
        <time>2012-06-19T14:20:43Z</time>
      </trkpt>
      <trkpt lat="45.45073" lon="5.94976">
        <ele>1028.75</ele>
        <time>2012-06-19T14:20:58Z</time>
      </trkpt>
      <trkpt lat="45.45076" lon="5.94985">
        <ele>1026.34</ele>
        <time>2012-06-19T14:21:14Z</time>
      </trkpt>
      <trkpt lat="45.45075" lon="5.94996">
        <ele>1024.9</ele>
        <time>2012-06-19T14:21:19Z</time>
      </trkpt>
      <trkpt lat="45.45085" lon="5.95015">
        <ele>1022.02</ele>
        <time>2012-06-19T14:21:32Z</time>
      </trkpt>
      <trkpt lat="45.45097" lon="5.95031">
        <ele>1018.65</ele>
        <time>2012-06-19T14:21:47Z</time>
      </trkpt>
      <trkpt lat="45.45102" lon="5.95048">
        <ele>1015.29</ele>
        <time>2012-06-19T14:21:57Z</time>
      </trkpt>
      <trkpt lat="45.45097" lon="5.95059">
        <ele>1012.41</ele>
        <time>2012-06-19T14:22:09Z</time>
      </trkpt>
      <trkpt lat="45.4509" lon="5.95069">
        <ele>1009.04</ele>
        <time>2012-06-19T14:22:20Z</time>
      </trkpt>
      <trkpt lat="45.45093" lon="5.95082">
        <ele>1006.16</ele>
        <time>2012-06-19T14:22:31Z</time>
      </trkpt>
      <trkpt lat="45.45098" lon="5.9509">
        <ele>1003.75</ele>
        <time>2012-06-19T14:22:40Z</time>
      </trkpt>
      <trkpt lat="45.451" lon="5.95108">
        <ele>1001.83</ele>
        <time>2012-06-19T14:22:56Z</time>
      </trkpt>
      <trkpt lat="45.45094" lon="5.95113">
        <ele>1001.83</ele>
        <time>2012-06-19T14:23:23Z</time>
      </trkpt>
      <trkpt lat="45.4509" lon="5.95129">
        <ele>999.91</ele>
        <time>2012-06-19T14:23:43Z</time>
      </trkpt>
      <trkpt lat="45.45087" lon="5.95143">
        <ele>997.99</ele>
        <time>2012-06-19T14:23:57Z</time>
      </trkpt>
      <trkpt lat="45.45092" lon="5.95156">
        <ele>996.06</ele>
        <time>2012-06-19T14:24:05Z</time>
      </trkpt>
      <trkpt lat="45.45088" lon="5.95175">
        <ele>994.62</ele>
        <time>2012-06-19T14:24:15Z</time>
      </trkpt>
      <trkpt lat="45.45076" lon="5.95197">
        <ele>994.62</ele>
        <time>2012-06-19T14:24:31Z</time>
      </trkpt>
      <trkpt lat="45.45072" lon="5.95218">
        <ele>993.66</ele>
        <time>2012-06-19T14:24:44Z</time>
      </trkpt>
      <trkpt lat="45.45063" lon="5.95229">
        <ele>993.66</ele>
        <time>2012-06-19T14:24:51Z</time>
      </trkpt>
      <trkpt lat="45.45049" lon="5.95245">
        <ele>993.18</ele>
        <time>2012-06-19T14:25:07Z</time>
      </trkpt>
      <trkpt lat="45.45039" lon="5.95257">
        <ele>994.14</ele>
        <time>2012-06-19T14:25:21Z</time>
      </trkpt>
      <trkpt lat="45.4502" lon="5.9527">
        <ele>993.18</ele>
        <time>2012-06-19T14:25:37Z</time>
      </trkpt>
      <trkpt lat="45.45018" lon="5.95272">
        <ele>993.18</ele>
        <time>2012-06-19T14:25:40Z</time>
      </trkpt>
      <trkpt lat="45.4501" lon="5.95281">
        <ele>993.18</ele>
        <time>2012-06-19T14:25:56Z</time>
      </trkpt>
      <trkpt lat="45.45024" lon="5.95284">
        <ele>993.18</ele>
        <time>2012-06-19T14:26:08Z</time>
      </trkpt>
      <trkpt lat="45.45024" lon="5.95295">
        <ele>992.7</ele>
        <time>2012-06-19T14:26:15Z</time>
      </trkpt>
      <trkpt lat="45.45043" lon="5.95307">
        <ele>991.74</ele>
        <time>2012-06-19T14:26:28Z</time>
      </trkpt>
      <trkpt lat="45.4504" lon="5.95326">
        <ele>990.78</ele>
        <time>2012-06-19T14:26:41Z</time>
      </trkpt>
      <trkpt lat="45.4504" lon="5.95327">
        <ele>990.78</ele>
        <time>2012-06-19T14:26:42Z</time>
      </trkpt>
      <trkpt lat="45.45038" lon="5.95344">
        <ele>990.3</ele>
        <time>2012-06-19T14:26:49Z</time>
      </trkpt>
      <trkpt lat="45.45027" lon="5.95381">
        <ele>989.33</ele>
        <time>2012-06-19T14:27:07Z</time>
      </trkpt>
      <trkpt lat="45.45027" lon="5.95385">
        <ele>989.81</ele>
        <time>2012-06-19T14:27:10Z</time>
      </trkpt>
      <trkpt lat="45.4502" lon="5.95399">
        <ele>989.33</ele>
        <time>2012-06-19T14:27:20Z</time>
      </trkpt>
      <trkpt lat="45.45015" lon="5.95415">
        <ele>988.37</ele>
        <time>2012-06-19T14:27:32Z</time>
      </trkpt>
      <trkpt lat="45.45016" lon="5.95423">
        <ele>988.85</ele>
        <time>2012-06-19T14:27:39Z</time>
      </trkpt>
      <trkpt lat="45.45014" lon="5.95449">
        <ele>988.37</ele>
        <time>2012-06-19T14:27:54Z</time>
      </trkpt>
      <trkpt lat="45.44998" lon="5.95475">
        <ele>987.41</ele>
        <time>2012-06-19T14:28:11Z</time>
      </trkpt>
      <trkpt lat="45.44997" lon="5.95474">
        <ele>987.41</ele>
        <time>2012-06-19T14:28:40Z</time>
      </trkpt>
      <trkpt lat="45.45003" lon="5.95483">
        <ele>987.41</ele>
        <time>2012-06-19T14:28:54Z</time>
      </trkpt>
      <trkpt lat="45.45002" lon="5.95492">
        <ele>986.93</ele>
        <time>2012-06-19T14:29:03Z</time>
      </trkpt>
      <trkpt lat="45.4499" lon="5.95505">
        <ele>987.41</ele>
        <time>2012-06-19T14:29:10Z</time>
      </trkpt>
      <trkpt lat="45.44983" lon="5.9551">
        <ele>986.93</ele>
        <time>2012-06-19T14:29:13Z</time>
      </trkpt>
      <trkpt lat="45.44973" lon="5.9553">
        <ele>985.97</ele>
        <time>2012-06-19T14:29:31Z</time>
      </trkpt>
      <trkpt lat="45.44961" lon="5.95549">
        <ele>985.49</ele>
        <time>2012-06-19T14:29:45Z</time>
      </trkpt>
      <trkpt lat="45.44956" lon="5.95564">
        <ele>985.49</ele>
        <time>2012-06-19T14:29:58Z</time>
      </trkpt>
      <trkpt lat="45.44938" lon="5.95577">
        <ele>985.49</ele>
        <time>2012-06-19T14:30:13Z</time>
      </trkpt>
      <trkpt lat="45.4492" lon="5.95589">
        <ele>985.01</ele>
        <time>2012-06-19T14:30:32Z</time>
      </trkpt>
      <trkpt lat="45.44918" lon="5.95592">
        <ele>983.57</ele>
        <time>2012-06-19T14:30:46Z</time>
      </trkpt>
      <trkpt lat="45.4491" lon="5.95597">
        <ele>980.68</ele>
        <time>2012-06-19T14:31:03Z</time>
      </trkpt>
      <trkpt lat="45.44899" lon="5.95604">
        <ele>977.8</ele>
        <time>2012-06-19T14:31:21Z</time>
      </trkpt>
      <trkpt lat="45.44859" lon="5.95621">
        <ele>974.91</ele>
        <time>2012-06-19T14:31:36Z</time>
      </trkpt>
      <trkpt lat="45.44851" lon="5.95629">
        <ele>971.55</ele>
        <time>2012-06-19T14:31:50Z</time>
      </trkpt>
      <trkpt lat="45.44842" lon="5.95634">
        <ele>968.18</ele>
        <time>2012-06-19T14:32:00Z</time>
      </trkpt>
      <trkpt lat="45.44836" lon="5.95636">
        <ele>967.7</ele>
        <time>2012-06-19T14:32:05Z</time>
      </trkpt>
      <trkpt lat="45.4483" lon="5.95643">
        <ele>966.26</ele>
        <time>2012-06-19T14:32:20Z</time>
      </trkpt>
      <trkpt lat="45.44827" lon="5.95648">
        <ele>963.86</ele>
        <time>2012-06-19T14:32:43Z</time>
      </trkpt>
      <trkpt lat="45.4482" lon="5.95655">
        <ele>960.98</ele>
        <time>2012-06-19T14:33:02Z</time>
      </trkpt>
      <trkpt lat="45.44818" lon="5.95663">
        <ele>958.09</ele>
        <time>2012-06-19T14:33:12Z</time>
      </trkpt>
      <trkpt lat="45.44809" lon="5.95675">
        <ele>954.73</ele>
        <time>2012-06-19T14:33:23Z</time>
      </trkpt>
      <trkpt lat="45.44803" lon="5.95679">
        <ele>953.28</ele>
        <time>2012-06-19T14:33:42Z</time>
      </trkpt>
      <trkpt lat="45.44797" lon="5.9568">
        <ele>949.92</ele>
        <time>2012-06-19T14:33:57Z</time>
      </trkpt>
      <trkpt lat="45.44797" lon="5.95681">
        <ele>946.56</ele>
        <time>2012-06-19T14:34:11Z</time>
      </trkpt>
      <trkpt lat="45.44783" lon="5.95686">
        <ele>943.67</ele>
        <time>2012-06-19T14:34:26Z</time>
      </trkpt>
      <trkpt lat="45.44774" lon="5.95698">
        <ele>940.79</ele>
        <time>2012-06-19T14:34:38Z</time>
      </trkpt>
      <trkpt lat="45.44766" lon="5.95704">
        <ele>937.9</ele>
        <time>2012-06-19T14:34:44Z</time>
      </trkpt>
      <trkpt lat="45.44757" lon="5.95709">
        <ele>935.5</ele>
        <time>2012-06-19T14:34:53Z</time>
      </trkpt>
      <trkpt lat="45.44757" lon="5.95716">
        <ele>934.06</ele>
        <time>2012-06-19T14:34:58Z</time>
      </trkpt>
      <trkpt lat="45.44749" lon="5.95718">
        <ele>931.65</ele>
        <time>2012-06-19T14:35:11Z</time>
      </trkpt>
      <trkpt lat="45.44744" lon="5.95716">
        <ele>930.69</ele>
        <time>2012-06-19T14:35:36Z</time>
      </trkpt>
      <trkpt lat="45.44738" lon="5.95715">
        <ele>929.25</ele>
        <time>2012-06-19T14:35:50Z</time>
      </trkpt>
      <trkpt lat="45.44733" lon="5.95717">
        <ele>926.37</ele>
        <time>2012-06-19T14:36:08Z</time>
      </trkpt>
      <trkpt lat="45.44727" lon="5.95713">
        <ele>923.96</ele>
        <time>2012-06-19T14:36:24Z</time>
      </trkpt>
      <trkpt lat="45.44737" lon="5.95716">
        <ele>921.56</ele>
        <time>2012-06-19T14:36:41Z</time>
      </trkpt>
      <trkpt lat="45.44739" lon="5.95724">
        <ele>922.04</ele>
        <time>2012-06-19T14:36:59Z</time>
      </trkpt>
      <trkpt lat="45.44738" lon="5.95725">
        <ele>922.04</ele>
        <time>2012-06-19T14:37:00Z</time>
      </trkpt>
      <trkpt lat="45.44732" lon="5.9574">
        <ele>921.56</ele>
        <time>2012-06-19T14:37:09Z</time>
      </trkpt>
      <trkpt lat="45.44735" lon="5.95765">
        <ele>921.08</ele>
        <time>2012-06-19T14:37:24Z</time>
      </trkpt>
      <trkpt lat="45.44737" lon="5.95783">
        <ele>917.72</ele>
        <time>2012-06-19T14:37:38Z</time>
      </trkpt>
      <trkpt lat="45.44739" lon="5.95798">
        <ele>915.31</ele>
        <time>2012-06-19T14:37:47Z</time>
      </trkpt>
      <trkpt lat="45.44744" lon="5.95813">
        <ele>912.43</ele>
        <time>2012-06-19T14:37:59Z</time>
      </trkpt>
      <trkpt lat="45.44743" lon="5.95814">
        <ele>909.54</ele>
        <time>2012-06-19T14:38:11Z</time>
      </trkpt>
      <trkpt lat="45.44745" lon="5.95832">
        <ele>907.62</ele>
        <time>2012-06-19T14:38:25Z</time>
      </trkpt>
      <trkpt lat="45.44738" lon="5.95843">
        <ele>906.66</ele>
        <time>2012-06-19T14:38:37Z</time>
      </trkpt>
      <trkpt lat="45.44738" lon="5.95851">
        <ele>905.7</ele>
        <time>2012-06-19T14:38:49Z</time>
      </trkpt>
      <trkpt lat="45.44753" lon="5.95873">
        <ele>902.33</ele>
        <time>2012-06-19T14:39:06Z</time>
      </trkpt>
      <trkpt lat="45.4476" lon="5.95885">
        <ele>899.45</ele>
        <time>2012-06-19T14:39:18Z</time>
      </trkpt>
      <trkpt lat="45.44765" lon="5.95893">
        <ele>896.09</ele>
        <time>2012-06-19T14:39:30Z</time>
      </trkpt>
      <trkpt lat="45.4477" lon="5.959">
        <ele>892.72</ele>
        <time>2012-06-19T14:39:47Z</time>
      </trkpt>
      <trkpt lat="45.44788" lon="5.95915">
        <ele>889.36</ele>
        <time>2012-06-19T14:40:02Z</time>
      </trkpt>
      <trkpt lat="45.44803" lon="5.95935">
        <ele>886.47</ele>
        <time>2012-06-19T14:40:21Z</time>
      </trkpt>
      <trkpt lat="45.44805" lon="5.95952">
        <ele>884.55</ele>
        <time>2012-06-19T14:40:36Z</time>
      </trkpt>
      <trkpt lat="45.44812" lon="5.95972">
        <ele>881.67</ele>
        <time>2012-06-19T14:40:49Z</time>
      </trkpt>
      <trkpt lat="45.44814" lon="5.95997">
        <ele>877.82</ele>
        <time>2012-06-19T14:41:08Z</time>
      </trkpt>
      <trkpt lat="45.44825" lon="5.96019">
        <ele>876.38</ele>
        <time>2012-06-19T14:41:25Z</time>
      </trkpt>
      <trkpt lat="45.44822" lon="5.96022">
        <ele>875.42</ele>
        <time>2012-06-19T14:41:44Z</time>
      </trkpt>
      <trkpt lat="45.44818" lon="5.96027">
        <ele>875.42</ele>
        <time>2012-06-19T14:42:09Z</time>
      </trkpt>
      <trkpt lat="45.44818" lon="5.96027">
        <ele>868.69</ele>
        <time>2012-06-19T14:42:15Z</time>
      </trkpt>
      <trkpt lat="45.44818" lon="5.96027">
        <ele>875.9</ele>
        <time>2012-06-19T14:42:16Z</time>
      </trkpt>
      <trkpt lat="45.44818" lon="5.96027">
        <ele>879.26</ele>
        <time>2012-06-19T14:42:17Z</time>
      </trkpt>
      <trkpt lat="45.44818" lon="5.96027">
        <ele>875.42</ele>
        <time>2012-06-19T14:42:19Z</time>
      </trkpt>
      <trkpt lat="45.44817" lon="5.96026">
        <ele>875.9</ele>
        <time>2012-06-19T14:42:49Z</time>
      </trkpt>
      <trkpt lat="45.44818" lon="5.96033">
        <ele>874.94</ele>
        <time>2012-06-19T14:43:06Z</time>
      </trkpt>
      <trkpt lat="45.4482" lon="5.96052">
        <ele>871.57</ele>
        <time>2012-06-19T14:43:16Z</time>
      </trkpt>
      <trkpt lat="45.44823" lon="5.96066">
        <ele>870.61</ele>
        <time>2012-06-19T14:43:30Z</time>
      </trkpt>
      <trkpt lat="45.4483" lon="5.96078">
        <ele>868.21</ele>
        <time>2012-06-19T14:43:39Z</time>
      </trkpt>
      <trkpt lat="45.44835" lon="5.96091">
        <ele>865.8</ele>
        <time>2012-06-19T14:43:53Z</time>
      </trkpt>
      <trkpt lat="45.44842" lon="5.96104">
        <ele>862.44</ele>
        <time>2012-06-19T14:44:04Z</time>
      </trkpt>
      <trkpt lat="45.44843" lon="5.96111">
        <ele>862.44</ele>
        <time>2012-06-19T14:44:10Z</time>
      </trkpt>
      <trkpt lat="45.44844" lon="5.96126">
        <ele>862.44</ele>
        <time>2012-06-19T14:44:22Z</time>
      </trkpt>
      <trkpt lat="45.44851" lon="5.96146">
        <ele>862.92</ele>
        <time>2012-06-19T14:44:37Z</time>
      </trkpt>
      <trkpt lat="45.44851" lon="5.96155">
        <ele>864.36</ele>
        <time>2012-06-19T14:44:44Z</time>
      </trkpt>
      <trkpt lat="45.44856" lon="5.96163">
        <ele>863.88</ele>
        <time>2012-06-19T14:44:49Z</time>
      </trkpt>
      <trkpt lat="45.4486" lon="5.96171">
        <ele>863.88</ele>
        <time>2012-06-19T14:44:54Z</time>
      </trkpt>
      <trkpt lat="45.44847" lon="5.96196">
        <ele>864.84</ele>
        <time>2012-06-19T14:45:08Z</time>
      </trkpt>
      <trkpt lat="45.44842" lon="5.96212">
        <ele>865.8</ele>
        <time>2012-06-19T14:45:21Z</time>
      </trkpt>
      <trkpt lat="45.44842" lon="5.96214">
        <ele>865.8</ele>
        <time>2012-06-19T14:45:22Z</time>
      </trkpt>
      <trkpt lat="45.44839" lon="5.96224">
        <ele>864.84</ele>
        <time>2012-06-19T14:45:28Z</time>
      </trkpt>
      <trkpt lat="45.44835" lon="5.96239">
        <ele>863.88</ele>
        <time>2012-06-19T14:45:41Z</time>
      </trkpt>
      <trkpt lat="45.44832" lon="5.96248">
        <ele>864.36</ele>
        <time>2012-06-19T14:45:55Z</time>
      </trkpt>
      <trkpt lat="45.44827" lon="5.96263">
        <ele>863.4</ele>
        <time>2012-06-19T14:46:09Z</time>
      </trkpt>
      <trkpt lat="45.44823" lon="5.96275">
        <ele>862.92</ele>
        <time>2012-06-19T14:46:27Z</time>
      </trkpt>
      <trkpt lat="45.44816" lon="5.96286">
        <ele>863.4</ele>
        <time>2012-06-19T14:46:42Z</time>
      </trkpt>
      <trkpt lat="45.4481" lon="5.96301">
        <ele>862.92</ele>
        <time>2012-06-19T14:46:56Z</time>
      </trkpt>
      <trkpt lat="45.44798" lon="5.96325">
        <ele>861.96</ele>
        <time>2012-06-19T14:47:13Z</time>
      </trkpt>
      <trkpt lat="45.44796" lon="5.96335">
        <ele>861.96</ele>
        <time>2012-06-19T14:47:22Z</time>
      </trkpt>
      <trkpt lat="45.44793" lon="5.96342">
        <ele>858.11</ele>
        <time>2012-06-19T14:47:27Z</time>
      </trkpt>
      <trkpt lat="45.44793" lon="5.96344">
        <ele>865.32</ele>
        <time>2012-06-19T14:47:28Z</time>
      </trkpt>
      <trkpt lat="45.44793" lon="5.96345">
        <ele>861</ele>
        <time>2012-06-19T14:47:29Z</time>
      </trkpt>
      <trkpt lat="45.44791" lon="5.96347">
        <ele>860.52</ele>
        <time>2012-06-19T14:47:32Z</time>
      </trkpt>
      <trkpt lat="45.44783" lon="5.96355">
        <ele>861</ele>
        <time>2012-06-19T14:47:46Z</time>
      </trkpt>
      <trkpt lat="45.44776" lon="5.96362">
        <ele>861.96</ele>
        <time>2012-06-19T14:47:55Z</time>
      </trkpt>
      <trkpt lat="45.44767" lon="5.96374">
        <ele>861.96</ele>
        <time>2012-06-19T14:48:05Z</time>
      </trkpt>
      <trkpt lat="45.44759" lon="5.96384">
        <ele>861.48</ele>
        <time>2012-06-19T14:48:17Z</time>
      </trkpt>
      <trkpt lat="45.44758" lon="5.96387">
        <ele>861.96</ele>
        <time>2012-06-19T14:48:26Z</time>
      </trkpt>
      <trkpt lat="45.44749" lon="5.96399">
        <ele>861.96</ele>
        <time>2012-06-19T14:48:38Z</time>
      </trkpt>
      <trkpt lat="45.44741" lon="5.96405">
        <ele>862.44</ele>
        <time>2012-06-19T14:48:48Z</time>
      </trkpt>
      <trkpt lat="45.44732" lon="5.96414">
        <ele>861.96</ele>
        <time>2012-06-19T14:48:59Z</time>
      </trkpt>
      <trkpt lat="45.4473" lon="5.96423">
        <ele>862.44</ele>
        <time>2012-06-19T14:49:09Z</time>
      </trkpt>
      <trkpt lat="45.44733" lon="5.96443">
        <ele>861.96</ele>
        <time>2012-06-19T14:49:22Z</time>
      </trkpt>
      <trkpt lat="45.44736" lon="5.9645">
        <ele>861.48</ele>
        <time>2012-06-19T14:49:31Z</time>
      </trkpt>
      <trkpt lat="45.44738" lon="5.9646">
        <ele>859.56</ele>
        <time>2012-06-19T14:49:39Z</time>
      </trkpt>
      <trkpt lat="45.44741" lon="5.96465">
        <ele>860.04</ele>
        <time>2012-06-19T14:49:45Z</time>
      </trkpt>
      <trkpt lat="45.44753" lon="5.96481">
        <ele>858.11</ele>
        <time>2012-06-19T14:49:58Z</time>
      </trkpt>
      <trkpt lat="45.44767" lon="5.96497">
        <ele>856.19</ele>
        <time>2012-06-19T14:50:13Z</time>
      </trkpt>
      <trkpt lat="45.44775" lon="5.96505">
        <ele>854.27</ele>
        <time>2012-06-19T14:50:20Z</time>
      </trkpt>
      <trkpt lat="45.44783" lon="5.96518">
        <ele>852.35</ele>
        <time>2012-06-19T14:50:34Z</time>
      </trkpt>
      <trkpt lat="45.44787" lon="5.9653">
        <ele>850.9</ele>
        <time>2012-06-19T14:50:44Z</time>
      </trkpt>
      <trkpt lat="45.44791" lon="5.96544">
        <ele>848.5</ele>
        <time>2012-06-19T14:50:54Z</time>
      </trkpt>
      <trkpt lat="45.44794" lon="5.96567">
        <ele>847.06</ele>
        <time>2012-06-19T14:51:09Z</time>
      </trkpt>
      <trkpt lat="45.44794" lon="5.96569">
        <ele>846.58</ele>
        <time>2012-06-19T14:51:10Z</time>
      </trkpt>
      <trkpt lat="45.44797" lon="5.96594">
        <ele>845.14</ele>
        <time>2012-06-19T14:51:26Z</time>
      </trkpt>
      <trkpt lat="45.44796" lon="5.96599">
        <ele>845.14</ele>
        <time>2012-06-19T14:51:42Z</time>
      </trkpt>
    </trkseg>
  </trk>
</gpx>